<?xml version="1.0" encoding="UTF-8" standalone="no" ?>
<gpx xmlns="http://www.topografix.com/GPX/1/1" creator="CompeGPS" version="1.1" xmlns:xsi="http://www.w3.org/2001/XMLSchema-instance" xsi:schemaLocation="http://www.topografix.com/GPX/1/1 http://www.topografix.com/GPX/1/1/gpx.xsd http://www.garmin.com/xmlschemas/GpxExtensions/v3 http://www.garmin.com/xmlschemas/GpxExtensionsv3.xsd http://www.garmin.com/xmlschemas/TrackPointExtension/v1 http://www.garmin.com/xmlschemas/TrackPointExtensionv1.xsd" xmlns:gpxtpx="http://www.garmin.com/xmlschemas/TrackPointExtension/v1">
  <metadata>
    <link href="http://www.compegps.com">
      <text>CompeGPS TEAM, SL</text>
    </link>
    <time>2020-03-01T09:02:00Z</time>
    <bounds maxlat="43.388879" maxlon="0.837552" minlat="43.356807" minlon="0.762972"/>
  </metadata>
    <wpt lat="43.381116" lon="0.837292">
    <ele>200.0</ele>
    <time>2020-03-01T09:02:10Z</time>
    <name>Depart</name>
    <desc></desc>
    <sym>Waypoint</sym>
  </wpt>
  <wpt lat="43.379204" lon="0.831842">
    <ele>205.3</ele>
    <time>2020-03-01T09:02:36Z</time>
    <name>Route D17</name>
    <desc></desc>
    <sym>Waypoint</sym>
  </wpt>
  <wpt lat="43.385757" lon="0.803072">
    <ele>200.4</ele>
    <time>2020-03-01T09:03:15Z</time>
    <name>Ruisseau de Larjo</name>
    <desc></desc>
    <sym>Waypoint</sym>
  </wpt>
  <wpt lat="43.373519" lon="0.762972">
    <ele>264.4</ele>
    <time>2020-03-01T09:03:46Z</time>
    <name>Puymaurin - point de vue</name>
    <desc></desc>
    <sym>Waypoint</sym>
  </wpt>
  <wpt lat="43.368900" lon="0.785982">
    <ele>212.9</ele>
    <time>2020-03-01T09:04:40Z</time>
    <name>Ruisseau de Larjo</name>
    <desc></desc>
    <sym>Waypoint</sym>
  </wpt>
  <wpt lat="43.358706" lon="0.816409">
    <ele>220.8</ele>
    <time>2020-03-01T09:04:50Z</time>
    <name>Route  D17</name>
    <desc></desc>
    <sym>Waypoint</sym>
  </wpt>
<trk>
    <name>isle-en-dodon</name>
    <userMyTwoNav></userMyTwoNav>
    <serialNumber></serialNumber>
    <trkseg>
      <trkpt lat="43.381116" lon="0.837292">
        <ele>191.8</ele>
        <time>2020-02-20T12:45:42Z</time>
      </trkpt>
      <trkpt lat="43.381116" lon="0.837265">
        <ele>128.0</ele>
        <time>2020-02-20T12:48:07Z</time>
      </trkpt>
      <trkpt lat="43.381071" lon="0.837173">
        <ele>139.9</ele>
        <time>2020-02-20T12:52:23Z</time>
      </trkpt>
      <trkpt lat="43.381127" lon="0.837132">
        <ele>141.5</ele>
        <time>2020-02-20T12:53:07Z</time>
      </trkpt>
      <trkpt lat="43.381193" lon="0.836992">
        <ele>141.7</ele>
        <time>2020-02-20T12:53:12Z</time>
      </trkpt>
      <trkpt lat="43.381222" lon="0.836871">
        <ele>141.8</ele>
        <time>2020-02-20T12:53:15Z</time>
      </trkpt>
      <trkpt lat="43.381236" lon="0.836711">
        <ele>141.9</ele>
        <time>2020-02-20T12:53:19Z</time>
      </trkpt>
      <trkpt lat="43.381255" lon="0.836576">
        <ele>142.1</ele>
        <time>2020-02-20T12:53:23Z</time>
      </trkpt>
      <trkpt lat="43.381261" lon="0.836443">
        <ele>143.1</ele>
        <time>2020-02-20T12:53:28Z</time>
      </trkpt>
      <trkpt lat="43.381168" lon="0.836353">
        <ele>143.6</ele>
        <time>2020-02-20T12:53:44Z</time>
      </trkpt>
      <trkpt lat="43.381077" lon="0.836388">
        <ele>143.7</ele>
        <time>2020-02-20T12:53:49Z</time>
      </trkpt>
      <trkpt lat="43.380977" lon="0.836369">
        <ele>143.9</ele>
        <time>2020-02-20T12:53:54Z</time>
      </trkpt>
      <trkpt lat="43.380874" lon="0.836311">
        <ele>144.9</ele>
        <time>2020-02-20T12:54:00Z</time>
      </trkpt>
      <trkpt lat="43.380829" lon="0.836185">
        <ele>145.1</ele>
        <time>2020-02-20T12:54:07Z</time>
      </trkpt>
      <trkpt lat="43.380841" lon="0.836034">
        <ele>145.2</ele>
        <time>2020-02-20T12:54:12Z</time>
      </trkpt>
      <trkpt lat="43.380837" lon="0.835887">
        <ele>145.4</ele>
        <time>2020-02-20T12:54:18Z</time>
      </trkpt>
      <trkpt lat="43.380798" lon="0.835762">
        <ele>145.5</ele>
        <time>2020-02-20T12:54:22Z</time>
      </trkpt>
      <trkpt lat="43.380763" lon="0.835638">
        <ele>145.6</ele>
        <time>2020-02-20T12:54:25Z</time>
      </trkpt>
      <trkpt lat="43.380713" lon="0.835475">
        <ele>145.8</ele>
        <time>2020-02-20T12:54:33Z</time>
      </trkpt>
      <trkpt lat="43.380619" lon="0.835349">
        <ele>145.9</ele>
        <time>2020-02-20T12:54:39Z</time>
      </trkpt>
      <trkpt lat="43.380518" lon="0.835276">
        <ele>146.1</ele>
        <time>2020-02-20T12:54:46Z</time>
      </trkpt>
      <trkpt lat="43.380459" lon="0.835171">
        <ele>146.6</ele>
        <time>2020-02-20T12:55:09Z</time>
      </trkpt>
      <trkpt lat="43.380400" lon="0.835159">
        <ele>147.0</ele>
        <time>2020-02-20T12:55:23Z</time>
      </trkpt>
      <trkpt lat="43.380289" lon="0.835140">
        <ele>147.1</ele>
        <time>2020-02-20T12:55:26Z</time>
      </trkpt>
      <trkpt lat="43.380197" lon="0.835129">
        <ele>147.1</ele>
        <time>2020-02-20T12:55:28Z</time>
      </trkpt>
      <trkpt lat="43.380104" lon="0.835120">
        <ele>147.2</ele>
        <time>2020-02-20T12:55:30Z</time>
      </trkpt>
      <trkpt lat="43.379969" lon="0.835104">
        <ele>147.3</ele>
        <time>2020-02-20T12:55:33Z</time>
      </trkpt>
      <trkpt lat="43.379839" lon="0.835090">
        <ele>148.1</ele>
        <time>2020-02-20T12:55:36Z</time>
      </trkpt>
      <trkpt lat="43.379701" lon="0.835081">
        <ele>148.2</ele>
        <time>2020-02-20T12:55:39Z</time>
      </trkpt>
      <trkpt lat="43.379605" lon="0.835076">
        <ele>148.3</ele>
        <time>2020-02-20T12:55:43Z</time>
      </trkpt>
      <trkpt lat="43.379495" lon="0.835082">
        <ele>149.1</ele>
        <time>2020-02-20T12:56:13Z</time>
      </trkpt>
      <trkpt lat="43.379356" lon="0.835059">
        <ele>149.2</ele>
        <time>2020-02-20T12:56:17Z</time>
      </trkpt>
      <trkpt lat="43.379231" lon="0.835050">
        <ele>149.3</ele>
        <time>2020-02-20T12:56:20Z</time>
      </trkpt>
      <trkpt lat="43.379123" lon="0.835033">
        <ele>149.4</ele>
        <time>2020-02-20T12:56:23Z</time>
      </trkpt>
      <trkpt lat="43.379014" lon="0.835020">
        <ele>149.5</ele>
        <time>2020-02-20T12:56:26Z</time>
      </trkpt>
      <trkpt lat="43.378907" lon="0.834999">
        <ele>149.6</ele>
        <time>2020-02-20T12:56:29Z</time>
      </trkpt>
      <trkpt lat="43.378792" lon="0.834993">
        <ele>149.6</ele>
        <time>2020-02-20T12:56:32Z</time>
      </trkpt>
      <trkpt lat="43.378678" lon="0.834981">
        <ele>149.7</ele>
        <time>2020-02-20T12:56:35Z</time>
      </trkpt>
      <trkpt lat="43.378575" lon="0.834963">
        <ele>149.7</ele>
        <time>2020-02-20T12:56:38Z</time>
      </trkpt>
      <trkpt lat="43.378470" lon="0.834944">
        <ele>149.8</ele>
        <time>2020-02-20T12:56:41Z</time>
      </trkpt>
      <trkpt lat="43.378378" lon="0.834929">
        <ele>149.9</ele>
        <time>2020-02-20T12:56:44Z</time>
      </trkpt>
      <trkpt lat="43.378332" lon="0.834853">
        <ele>150.0</ele>
        <time>2020-02-20T12:56:49Z</time>
      </trkpt>
      <trkpt lat="43.378343" lon="0.834715">
        <ele>150.1</ele>
        <time>2020-02-20T12:56:54Z</time>
      </trkpt>
      <trkpt lat="43.378378" lon="0.834555">
        <ele>150.1</ele>
        <time>2020-02-20T12:56:58Z</time>
      </trkpt>
      <trkpt lat="43.378415" lon="0.834429">
        <ele>150.3</ele>
        <time>2020-02-20T12:57:01Z</time>
      </trkpt>
      <trkpt lat="43.378434" lon="0.834303">
        <ele>150.3</ele>
        <time>2020-02-20T12:57:04Z</time>
      </trkpt>
      <trkpt lat="43.378469" lon="0.834142">
        <ele>150.5</ele>
        <time>2020-02-20T12:57:08Z</time>
      </trkpt>
      <trkpt lat="43.378499" lon="0.834018">
        <ele>150.5</ele>
        <time>2020-02-20T12:57:11Z</time>
      </trkpt>
      <trkpt lat="43.378534" lon="0.833890">
        <ele>151.4</ele>
        <time>2020-02-20T12:57:14Z</time>
      </trkpt>
      <trkpt lat="43.378559" lon="0.833753">
        <ele>151.5</ele>
        <time>2020-02-20T12:57:17Z</time>
      </trkpt>
      <trkpt lat="43.378590" lon="0.833606">
        <ele>151.5</ele>
        <time>2020-02-20T12:57:20Z</time>
      </trkpt>
      <trkpt lat="43.378630" lon="0.833460">
        <ele>151.6</ele>
        <time>2020-02-20T12:57:23Z</time>
      </trkpt>
      <trkpt lat="43.378668" lon="0.833308">
        <ele>151.6</ele>
        <time>2020-02-20T12:57:26Z</time>
      </trkpt>
      <trkpt lat="43.378713" lon="0.833166">
        <ele>152.5</ele>
        <time>2020-02-20T12:57:29Z</time>
      </trkpt>
      <trkpt lat="43.378756" lon="0.833029">
        <ele>152.6</ele>
        <time>2020-02-20T12:57:32Z</time>
      </trkpt>
      <trkpt lat="43.378799" lon="0.832899">
        <ele>152.7</ele>
        <time>2020-02-20T12:57:35Z</time>
      </trkpt>
      <trkpt lat="43.378844" lon="0.832771">
        <ele>152.7</ele>
        <time>2020-02-20T12:57:38Z</time>
      </trkpt>
      <trkpt lat="43.378893" lon="0.832636">
        <ele>152.8</ele>
        <time>2020-02-20T12:57:41Z</time>
      </trkpt>
      <trkpt lat="43.378949" lon="0.832505">
        <ele>152.9</ele>
        <time>2020-02-20T12:57:44Z</time>
      </trkpt>
      <trkpt lat="43.379004" lon="0.832358">
        <ele>153.8</ele>
        <time>2020-02-20T12:57:47Z</time>
      </trkpt>
      <trkpt lat="43.379058" lon="0.832220">
        <ele>153.8</ele>
        <time>2020-02-20T12:57:50Z</time>
      </trkpt>
      <trkpt lat="43.379105" lon="0.832092">
        <ele>153.9</ele>
        <time>2020-02-20T12:57:53Z</time>
      </trkpt>
      <trkpt lat="43.379165" lon="0.831957">
        <ele>154.8</ele>
        <time>2020-02-20T12:57:57Z</time>
      </trkpt>
      <trkpt lat="43.379204" lon="0.831842">
        <ele>155.9</ele>
        <time>2020-02-20T12:58:03Z</time>
      </trkpt>
      <trkpt lat="43.379119" lon="0.831724">
        <ele>155.9</ele>
        <time>2020-02-20T12:58:07Z</time>
      </trkpt>
      <trkpt lat="43.379022" lon="0.831626">
        <ele>156.1</ele>
        <time>2020-02-20T12:58:11Z</time>
      </trkpt>
      <trkpt lat="43.378934" lon="0.831542">
        <ele>156.1</ele>
        <time>2020-02-20T12:58:14Z</time>
      </trkpt>
      <trkpt lat="43.378826" lon="0.831431">
        <ele>156.2</ele>
        <time>2020-02-20T12:58:17Z</time>
      </trkpt>
      <trkpt lat="43.378747" lon="0.831347">
        <ele>156.2</ele>
        <time>2020-02-20T12:58:19Z</time>
      </trkpt>
      <trkpt lat="43.378640" lon="0.831240">
        <ele>156.3</ele>
        <time>2020-02-20T12:58:22Z</time>
      </trkpt>
      <trkpt lat="43.378556" lon="0.831156">
        <ele>157.1</ele>
        <time>2020-02-20T12:58:25Z</time>
      </trkpt>
      <trkpt lat="43.378479" lon="0.831071">
        <ele>157.2</ele>
        <time>2020-02-20T12:58:29Z</time>
      </trkpt>
      <trkpt lat="43.378398" lon="0.830980">
        <ele>157.6</ele>
        <time>2020-02-20T12:58:48Z</time>
      </trkpt>
      <trkpt lat="43.378366" lon="0.830860">
        <ele>157.7</ele>
        <time>2020-02-20T12:58:52Z</time>
      </trkpt>
      <trkpt lat="43.378386" lon="0.830734">
        <ele>159.8</ele>
        <time>2020-02-20T13:00:23Z</time>
      </trkpt>
      <trkpt lat="43.378412" lon="0.830586">
        <ele>159.9</ele>
        <time>2020-02-20T13:00:26Z</time>
      </trkpt>
      <trkpt lat="43.378442" lon="0.830415">
        <ele>159.9</ele>
        <time>2020-02-20T13:00:29Z</time>
      </trkpt>
      <trkpt lat="43.378470" lon="0.830249">
        <ele>160.0</ele>
        <time>2020-02-20T13:00:32Z</time>
      </trkpt>
      <trkpt lat="43.378499" lon="0.830088">
        <ele>160.1</ele>
        <time>2020-02-20T13:00:35Z</time>
      </trkpt>
      <trkpt lat="43.378531" lon="0.829927">
        <ele>160.2</ele>
        <time>2020-02-20T13:00:38Z</time>
      </trkpt>
      <trkpt lat="43.378559" lon="0.829767">
        <ele>161.4</ele>
        <time>2020-02-20T13:00:41Z</time>
      </trkpt>
      <trkpt lat="43.378588" lon="0.829608">
        <ele>162.4</ele>
        <time>2020-02-20T13:00:44Z</time>
      </trkpt>
      <trkpt lat="43.378616" lon="0.829451">
        <ele>162.5</ele>
        <time>2020-02-20T13:00:47Z</time>
      </trkpt>
      <trkpt lat="43.378645" lon="0.829315">
        <ele>163.4</ele>
        <time>2020-02-20T13:00:50Z</time>
      </trkpt>
      <trkpt lat="43.378668" lon="0.829183">
        <ele>163.5</ele>
        <time>2020-02-20T13:00:53Z</time>
      </trkpt>
      <trkpt lat="43.378700" lon="0.829048">
        <ele>164.5</ele>
        <time>2020-02-20T13:00:56Z</time>
      </trkpt>
      <trkpt lat="43.378727" lon="0.828908">
        <ele>165.3</ele>
        <time>2020-02-20T13:00:59Z</time>
      </trkpt>
      <trkpt lat="43.378741" lon="0.828771">
        <ele>165.3</ele>
        <time>2020-02-20T13:01:02Z</time>
      </trkpt>
      <trkpt lat="43.378732" lon="0.828636">
        <ele>165.4</ele>
        <time>2020-02-20T13:01:05Z</time>
      </trkpt>
      <trkpt lat="43.378698" lon="0.828500">
        <ele>166.4</ele>
        <time>2020-02-20T13:01:08Z</time>
      </trkpt>
      <trkpt lat="43.378657" lon="0.828365">
        <ele>166.4</ele>
        <time>2020-02-20T13:01:11Z</time>
      </trkpt>
      <trkpt lat="43.378614" lon="0.828238">
        <ele>166.5</ele>
        <time>2020-02-20T13:01:14Z</time>
      </trkpt>
      <trkpt lat="43.378575" lon="0.828118">
        <ele>167.5</ele>
        <time>2020-02-20T13:01:17Z</time>
      </trkpt>
      <trkpt lat="43.378535" lon="0.827996">
        <ele>167.6</ele>
        <time>2020-02-20T13:01:20Z</time>
      </trkpt>
      <trkpt lat="43.378483" lon="0.827881">
        <ele>168.4</ele>
        <time>2020-02-20T13:01:23Z</time>
      </trkpt>
      <trkpt lat="43.378503" lon="0.827791">
        <ele>168.5</ele>
        <time>2020-02-20T13:01:29Z</time>
      </trkpt>
      <trkpt lat="43.378552" lon="0.827675">
        <ele>168.6</ele>
        <time>2020-02-20T13:01:34Z</time>
      </trkpt>
      <trkpt lat="43.378593" lon="0.827561">
        <ele>169.7</ele>
        <time>2020-02-20T13:01:38Z</time>
      </trkpt>
      <trkpt lat="43.378634" lon="0.827442">
        <ele>169.8</ele>
        <time>2020-02-20T13:01:42Z</time>
      </trkpt>
      <trkpt lat="43.378678" lon="0.827298">
        <ele>170.7</ele>
        <time>2020-02-20T13:01:47Z</time>
      </trkpt>
      <trkpt lat="43.378727" lon="0.827144">
        <ele>171.6</ele>
        <time>2020-02-20T13:01:52Z</time>
      </trkpt>
      <trkpt lat="43.378774" lon="0.827004">
        <ele>171.7</ele>
        <time>2020-02-20T13:01:57Z</time>
      </trkpt>
      <trkpt lat="43.378822" lon="0.826884">
        <ele>171.8</ele>
        <time>2020-02-20T13:02:01Z</time>
      </trkpt>
      <trkpt lat="43.378891" lon="0.826753">
        <ele>172.6</ele>
        <time>2020-02-20T13:02:06Z</time>
      </trkpt>
      <trkpt lat="43.378958" lon="0.826620">
        <ele>172.7</ele>
        <time>2020-02-20T13:02:11Z</time>
      </trkpt>
      <trkpt lat="43.379016" lon="0.826491">
        <ele>173.5</ele>
        <time>2020-02-20T13:02:15Z</time>
      </trkpt>
      <trkpt lat="43.379075" lon="0.826360">
        <ele>173.6</ele>
        <time>2020-02-20T13:02:19Z</time>
      </trkpt>
      <trkpt lat="43.379128" lon="0.826231">
        <ele>173.7</ele>
        <time>2020-02-20T13:02:23Z</time>
      </trkpt>
      <trkpt lat="43.379168" lon="0.826105">
        <ele>173.7</ele>
        <time>2020-02-20T13:02:27Z</time>
      </trkpt>
      <trkpt lat="43.379209" lon="0.825968">
        <ele>174.7</ele>
        <time>2020-02-20T13:02:32Z</time>
      </trkpt>
      <trkpt lat="43.379239" lon="0.825824">
        <ele>175.6</ele>
        <time>2020-02-20T13:02:37Z</time>
      </trkpt>
      <trkpt lat="43.379292" lon="0.825709">
        <ele>175.7</ele>
        <time>2020-02-20T13:02:42Z</time>
      </trkpt>
      <trkpt lat="43.379340" lon="0.825576">
        <ele>176.6</ele>
        <time>2020-02-20T13:02:47Z</time>
      </trkpt>
      <trkpt lat="43.379394" lon="0.825442">
        <ele>176.7</ele>
        <time>2020-02-20T13:02:52Z</time>
      </trkpt>
      <trkpt lat="43.379463" lon="0.825304">
        <ele>177.8</ele>
        <time>2020-02-20T13:02:57Z</time>
      </trkpt>
      <trkpt lat="43.379526" lon="0.825165">
        <ele>177.8</ele>
        <time>2020-02-20T13:03:02Z</time>
      </trkpt>
      <trkpt lat="43.379588" lon="0.825040">
        <ele>178.8</ele>
        <time>2020-02-20T13:03:07Z</time>
      </trkpt>
      <trkpt lat="43.379641" lon="0.824909">
        <ele>179.8</ele>
        <time>2020-02-20T13:03:11Z</time>
      </trkpt>
      <trkpt lat="43.379712" lon="0.824776">
        <ele>179.9</ele>
        <time>2020-02-20T13:03:17Z</time>
      </trkpt>
      <trkpt lat="43.379770" lon="0.824652">
        <ele>179.9</ele>
        <time>2020-02-20T13:03:21Z</time>
      </trkpt>
      <trkpt lat="43.379832" lon="0.824540">
        <ele>181.0</ele>
        <time>2020-02-20T13:03:25Z</time>
      </trkpt>
      <trkpt lat="43.379903" lon="0.824430">
        <ele>181.1</ele>
        <time>2020-02-20T13:03:32Z</time>
      </trkpt>
      <trkpt lat="43.379973" lon="0.824325">
        <ele>181.9</ele>
        <time>2020-02-20T13:03:37Z</time>
      </trkpt>
      <trkpt lat="43.380042" lon="0.824213">
        <ele>182.0</ele>
        <time>2020-02-20T13:03:42Z</time>
      </trkpt>
      <trkpt lat="43.380098" lon="0.824098">
        <ele>183.0</ele>
        <time>2020-02-20T13:03:50Z</time>
      </trkpt>
      <trkpt lat="43.380168" lon="0.823976">
        <ele>184.0</ele>
        <time>2020-02-20T13:04:00Z</time>
      </trkpt>
      <trkpt lat="43.380232" lon="0.823832">
        <ele>185.0</ele>
        <time>2020-02-20T13:04:10Z</time>
      </trkpt>
      <trkpt lat="43.380283" lon="0.823656">
        <ele>186.9</ele>
        <time>2020-02-20T13:04:21Z</time>
      </trkpt>
      <trkpt lat="43.380326" lon="0.823500">
        <ele>188.1</ele>
        <time>2020-02-20T13:04:32Z</time>
      </trkpt>
      <trkpt lat="43.380378" lon="0.823351">
        <ele>189.1</ele>
        <time>2020-02-20T13:04:41Z</time>
      </trkpt>
      <trkpt lat="43.380430" lon="0.823170">
        <ele>190.8</ele>
        <time>2020-02-20T13:04:52Z</time>
      </trkpt>
      <trkpt lat="43.380492" lon="0.823020">
        <ele>191.7</ele>
        <time>2020-02-20T13:05:03Z</time>
      </trkpt>
      <trkpt lat="43.380559" lon="0.822854">
        <ele>193.5</ele>
        <time>2020-02-20T13:05:14Z</time>
      </trkpt>
      <trkpt lat="43.380603" lon="0.822704">
        <ele>195.4</ele>
        <time>2020-02-20T13:05:25Z</time>
      </trkpt>
      <trkpt lat="43.380657" lon="0.822576">
        <ele>197.9</ele>
        <time>2020-02-20T13:05:35Z</time>
      </trkpt>
      <trkpt lat="43.380717" lon="0.822451">
        <ele>199.9</ele>
        <time>2020-02-20T13:05:45Z</time>
      </trkpt>
      <trkpt lat="43.380772" lon="0.822321">
        <ele>200.9</ele>
        <time>2020-02-20T13:05:56Z</time>
      </trkpt>
      <trkpt lat="43.380813" lon="0.822168">
        <ele>202.6</ele>
        <time>2020-02-20T13:06:07Z</time>
      </trkpt>
      <trkpt lat="43.380881" lon="0.822025">
        <ele>204.7</ele>
        <time>2020-02-20T13:06:17Z</time>
      </trkpt>
      <trkpt lat="43.380954" lon="0.821885">
        <ele>206.5</ele>
        <time>2020-02-20T13:06:28Z</time>
      </trkpt>
      <trkpt lat="43.381033" lon="0.821775">
        <ele>206.6</ele>
        <time>2020-02-20T13:06:36Z</time>
      </trkpt>
      <trkpt lat="43.381053" lon="0.821623">
        <ele>207.6</ele>
        <time>2020-02-20T13:06:40Z</time>
      </trkpt>
      <trkpt lat="43.381058" lon="0.821474">
        <ele>208.4</ele>
        <time>2020-02-20T13:06:44Z</time>
      </trkpt>
      <trkpt lat="43.381053" lon="0.821344">
        <ele>208.5</ele>
        <time>2020-02-20T13:06:48Z</time>
      </trkpt>
      <trkpt lat="43.381060" lon="0.821188">
        <ele>209.3</ele>
        <time>2020-02-20T13:06:52Z</time>
      </trkpt>
      <trkpt lat="43.381069" lon="0.821029">
        <ele>210.2</ele>
        <time>2020-02-20T13:06:56Z</time>
      </trkpt>
      <trkpt lat="43.381076" lon="0.820891">
        <ele>211.0</ele>
        <time>2020-02-20T13:07:00Z</time>
      </trkpt>
      <trkpt lat="43.381087" lon="0.820740">
        <ele>211.9</ele>
        <time>2020-02-20T13:07:04Z</time>
      </trkpt>
      <trkpt lat="43.381105" lon="0.820585">
        <ele>212.0</ele>
        <time>2020-02-20T13:07:08Z</time>
      </trkpt>
      <trkpt lat="43.381122" lon="0.820426">
        <ele>212.9</ele>
        <time>2020-02-20T13:07:12Z</time>
      </trkpt>
      <trkpt lat="43.381133" lon="0.820261">
        <ele>213.8</ele>
        <time>2020-02-20T13:07:16Z</time>
      </trkpt>
      <trkpt lat="43.381138" lon="0.820091">
        <ele>213.8</ele>
        <time>2020-02-20T13:07:20Z</time>
      </trkpt>
      <trkpt lat="43.381144" lon="0.819960">
        <ele>214.7</ele>
        <time>2020-02-20T13:07:23Z</time>
      </trkpt>
      <trkpt lat="43.381156" lon="0.819804">
        <ele>214.7</ele>
        <time>2020-02-20T13:07:27Z</time>
      </trkpt>
      <trkpt lat="43.381171" lon="0.819655">
        <ele>214.8</ele>
        <time>2020-02-20T13:07:31Z</time>
      </trkpt>
      <trkpt lat="43.381187" lon="0.819505">
        <ele>215.8</ele>
        <time>2020-02-20T13:07:35Z</time>
      </trkpt>
      <trkpt lat="43.381207" lon="0.819355">
        <ele>215.9</ele>
        <time>2020-02-20T13:07:39Z</time>
      </trkpt>
      <trkpt lat="43.381230" lon="0.819205">
        <ele>216.8</ele>
        <time>2020-02-20T13:07:43Z</time>
      </trkpt>
      <trkpt lat="43.381255" lon="0.819055">
        <ele>216.9</ele>
        <time>2020-02-20T13:07:47Z</time>
      </trkpt>
      <trkpt lat="43.381281" lon="0.818916">
        <ele>217.0</ele>
        <time>2020-02-20T13:07:51Z</time>
      </trkpt>
      <trkpt lat="43.381307" lon="0.818777">
        <ele>217.8</ele>
        <time>2020-02-20T13:07:55Z</time>
      </trkpt>
      <trkpt lat="43.381328" lon="0.818636">
        <ele>217.9</ele>
        <time>2020-02-20T13:07:59Z</time>
      </trkpt>
      <trkpt lat="43.381350" lon="0.818496">
        <ele>217.9</ele>
        <time>2020-02-20T13:08:03Z</time>
      </trkpt>
      <trkpt lat="43.381371" lon="0.818357">
        <ele>218.0</ele>
        <time>2020-02-20T13:08:07Z</time>
      </trkpt>
      <trkpt lat="43.381390" lon="0.818210">
        <ele>219.0</ele>
        <time>2020-02-20T13:08:11Z</time>
      </trkpt>
      <trkpt lat="43.381405" lon="0.818083">
        <ele>219.1</ele>
        <time>2020-02-20T13:08:15Z</time>
      </trkpt>
      <trkpt lat="43.381432" lon="0.817955">
        <ele>220.2</ele>
        <time>2020-02-20T13:08:25Z</time>
      </trkpt>
      <trkpt lat="43.381460" lon="0.817821">
        <ele>220.3</ele>
        <time>2020-02-20T13:08:33Z</time>
      </trkpt>
      <trkpt lat="43.381496" lon="0.817692">
        <ele>221.3</ele>
        <time>2020-02-20T13:08:41Z</time>
      </trkpt>
      <trkpt lat="43.381522" lon="0.817547">
        <ele>222.2</ele>
        <time>2020-02-20T13:08:49Z</time>
      </trkpt>
      <trkpt lat="43.381549" lon="0.817408">
        <ele>223.3</ele>
        <time>2020-02-20T13:08:57Z</time>
      </trkpt>
      <trkpt lat="43.381575" lon="0.817281">
        <ele>223.4</ele>
        <time>2020-02-20T13:09:05Z</time>
      </trkpt>
      <trkpt lat="43.381595" lon="0.817137">
        <ele>225.4</ele>
        <time>2020-02-20T13:09:13Z</time>
      </trkpt>
      <trkpt lat="43.381619" lon="0.816993">
        <ele>226.4</ele>
        <time>2020-02-20T13:09:21Z</time>
      </trkpt>
      <trkpt lat="43.381643" lon="0.816863">
        <ele>227.5</ele>
        <time>2020-02-20T13:09:29Z</time>
      </trkpt>
      <trkpt lat="43.381661" lon="0.816733">
        <ele>228.4</ele>
        <time>2020-02-20T13:09:37Z</time>
      </trkpt>
      <trkpt lat="43.381689" lon="0.816604">
        <ele>229.4</ele>
        <time>2020-02-20T13:09:45Z</time>
      </trkpt>
      <trkpt lat="43.381713" lon="0.816465">
        <ele>231.2</ele>
        <time>2020-02-20T13:09:53Z</time>
      </trkpt>
      <trkpt lat="43.381744" lon="0.816337">
        <ele>232.1</ele>
        <time>2020-02-20T13:10:01Z</time>
      </trkpt>
      <trkpt lat="43.381774" lon="0.816210">
        <ele>233.1</ele>
        <time>2020-02-20T13:10:09Z</time>
      </trkpt>
      <trkpt lat="43.381862" lon="0.816140">
        <ele>234.0</ele>
        <time>2020-02-20T13:10:17Z</time>
      </trkpt>
      <trkpt lat="43.381965" lon="0.816144">
        <ele>234.9</ele>
        <time>2020-02-20T13:10:25Z</time>
      </trkpt>
      <trkpt lat="43.382061" lon="0.816167">
        <ele>235.0</ele>
        <time>2020-02-20T13:10:32Z</time>
      </trkpt>
      <trkpt lat="43.382159" lon="0.816171">
        <ele>235.1</ele>
        <time>2020-02-20T13:10:36Z</time>
      </trkpt>
      <trkpt lat="43.382276" lon="0.816189">
        <ele>235.1</ele>
        <time>2020-02-20T13:10:41Z</time>
      </trkpt>
      <trkpt lat="43.382390" lon="0.816201">
        <ele>235.2</ele>
        <time>2020-02-20T13:10:45Z</time>
      </trkpt>
      <trkpt lat="43.382503" lon="0.816216">
        <ele>235.3</ele>
        <time>2020-02-20T13:10:49Z</time>
      </trkpt>
      <trkpt lat="43.382605" lon="0.816201">
        <ele>235.3</ele>
        <time>2020-02-20T13:10:53Z</time>
      </trkpt>
      <trkpt lat="43.382675" lon="0.816118">
        <ele>236.2</ele>
        <time>2020-02-20T13:10:58Z</time>
      </trkpt>
      <trkpt lat="43.382735" lon="0.816016">
        <ele>236.3</ele>
        <time>2020-02-20T13:11:03Z</time>
      </trkpt>
      <trkpt lat="43.382805" lon="0.815893">
        <ele>236.3</ele>
        <time>2020-02-20T13:11:07Z</time>
      </trkpt>
      <trkpt lat="43.382871" lon="0.815801">
        <ele>234.0</ele>
        <time>2020-02-20T13:11:10Z</time>
      </trkpt>
      <trkpt lat="43.382938" lon="0.815710">
        <ele>233.2</ele>
        <time>2020-02-20T13:11:13Z</time>
      </trkpt>
      <trkpt lat="43.383003" lon="0.815615">
        <ele>231.2</ele>
        <time>2020-02-20T13:11:17Z</time>
      </trkpt>
      <trkpt lat="43.383071" lon="0.815511">
        <ele>229.0</ele>
        <time>2020-02-20T13:11:21Z</time>
      </trkpt>
      <trkpt lat="43.383145" lon="0.815378">
        <ele>226.7</ele>
        <time>2020-02-20T13:11:25Z</time>
      </trkpt>
      <trkpt lat="43.383201" lon="0.815260">
        <ele>224.6</ele>
        <time>2020-02-20T13:11:28Z</time>
      </trkpt>
      <trkpt lat="43.383250" lon="0.815140">
        <ele>223.6</ele>
        <time>2020-02-20T13:11:31Z</time>
      </trkpt>
      <trkpt lat="43.383308" lon="0.815005">
        <ele>222.7</ele>
        <time>2020-02-20T13:11:34Z</time>
      </trkpt>
      <trkpt lat="43.383371" lon="0.814860">
        <ele>221.7</ele>
        <time>2020-02-20T13:11:37Z</time>
      </trkpt>
      <trkpt lat="43.383432" lon="0.814710">
        <ele>221.0</ele>
        <time>2020-02-20T13:11:40Z</time>
      </trkpt>
      <trkpt lat="43.383491" lon="0.814570">
        <ele>220.2</ele>
        <time>2020-02-20T13:11:43Z</time>
      </trkpt>
      <trkpt lat="43.383552" lon="0.814428">
        <ele>219.4</ele>
        <time>2020-02-20T13:11:46Z</time>
      </trkpt>
      <trkpt lat="43.383614" lon="0.814276">
        <ele>217.5</ele>
        <time>2020-02-20T13:11:49Z</time>
      </trkpt>
      <trkpt lat="43.383672" lon="0.814124">
        <ele>216.4</ele>
        <time>2020-02-20T13:11:52Z</time>
      </trkpt>
      <trkpt lat="43.383721" lon="0.813981">
        <ele>214.7</ele>
        <time>2020-02-20T13:11:55Z</time>
      </trkpt>
      <trkpt lat="43.383768" lon="0.813841">
        <ele>213.8</ele>
        <time>2020-02-20T13:11:58Z</time>
      </trkpt>
      <trkpt lat="43.383816" lon="0.813708">
        <ele>211.6</ele>
        <time>2020-02-20T13:12:01Z</time>
      </trkpt>
      <trkpt lat="43.383858" lon="0.813569">
        <ele>210.6</ele>
        <time>2020-02-20T13:12:04Z</time>
      </trkpt>
      <trkpt lat="43.383906" lon="0.813437">
        <ele>209.7</ele>
        <time>2020-02-20T13:12:07Z</time>
      </trkpt>
      <trkpt lat="43.383958" lon="0.813300">
        <ele>208.3</ele>
        <time>2020-02-20T13:12:10Z</time>
      </trkpt>
      <trkpt lat="43.384008" lon="0.813173">
        <ele>206.6</ele>
        <time>2020-02-20T13:12:13Z</time>
      </trkpt>
      <trkpt lat="43.384061" lon="0.813053">
        <ele>205.9</ele>
        <time>2020-02-20T13:12:16Z</time>
      </trkpt>
      <trkpt lat="43.384120" lon="0.812936">
        <ele>206.0</ele>
        <time>2020-02-20T13:12:19Z</time>
      </trkpt>
      <trkpt lat="43.384178" lon="0.812800">
        <ele>205.2</ele>
        <time>2020-02-20T13:12:22Z</time>
      </trkpt>
      <trkpt lat="43.384235" lon="0.812684">
        <ele>203.4</ele>
        <time>2020-02-20T13:12:25Z</time>
      </trkpt>
      <trkpt lat="43.384295" lon="0.812528">
        <ele>202.8</ele>
        <time>2020-02-20T13:12:29Z</time>
      </trkpt>
      <trkpt lat="43.384345" lon="0.812376">
        <ele>202.8</ele>
        <time>2020-02-20T13:12:33Z</time>
      </trkpt>
      <trkpt lat="43.384389" lon="0.812251">
        <ele>201.2</ele>
        <time>2020-02-20T13:12:37Z</time>
      </trkpt>
      <trkpt lat="43.384435" lon="0.812132">
        <ele>201.9</ele>
        <time>2020-02-20T13:14:00Z</time>
      </trkpt>
      <trkpt lat="43.384526" lon="0.812095">
        <ele>201.9</ele>
        <time>2020-02-20T13:14:07Z</time>
      </trkpt>
      <trkpt lat="43.384635" lon="0.812029">
        <ele>202.0</ele>
        <time>2020-02-20T13:14:12Z</time>
      </trkpt>
      <trkpt lat="43.384718" lon="0.811951">
        <ele>202.0</ele>
        <time>2020-02-20T13:14:16Z</time>
      </trkpt>
      <trkpt lat="43.384796" lon="0.811867">
        <ele>200.1</ele>
        <time>2020-02-20T13:14:52Z</time>
      </trkpt>
      <trkpt lat="43.384888" lon="0.811752">
        <ele>200.2</ele>
        <time>2020-02-20T13:14:58Z</time>
      </trkpt>
      <trkpt lat="43.384954" lon="0.811649">
        <ele>200.3</ele>
        <time>2020-02-20T13:15:02Z</time>
      </trkpt>
      <trkpt lat="43.385011" lon="0.811543">
        <ele>200.3</ele>
        <time>2020-02-20T13:15:06Z</time>
      </trkpt>
      <trkpt lat="43.385055" lon="0.811428">
        <ele>199.5</ele>
        <time>2020-02-20T13:15:10Z</time>
      </trkpt>
      <trkpt lat="43.385102" lon="0.811315">
        <ele>199.6</ele>
        <time>2020-02-20T13:15:14Z</time>
      </trkpt>
      <trkpt lat="43.385157" lon="0.811175">
        <ele>198.7</ele>
        <time>2020-02-20T13:15:18Z</time>
      </trkpt>
      <trkpt lat="43.385190" lon="0.811021">
        <ele>197.9</ele>
        <time>2020-02-20T13:15:21Z</time>
      </trkpt>
      <trkpt lat="43.385204" lon="0.810841">
        <ele>197.1</ele>
        <time>2020-02-20T13:15:24Z</time>
      </trkpt>
      <trkpt lat="43.385213" lon="0.810716">
        <ele>196.2</ele>
        <time>2020-02-20T13:15:26Z</time>
      </trkpt>
      <trkpt lat="43.385231" lon="0.810540">
        <ele>195.5</ele>
        <time>2020-02-20T13:15:29Z</time>
      </trkpt>
      <trkpt lat="43.385245" lon="0.810378">
        <ele>195.5</ele>
        <time>2020-02-20T13:15:32Z</time>
      </trkpt>
      <trkpt lat="43.385260" lon="0.810214">
        <ele>194.8</ele>
        <time>2020-02-20T13:15:35Z</time>
      </trkpt>
      <trkpt lat="43.385281" lon="0.810040">
        <ele>194.0</ele>
        <time>2020-02-20T13:15:38Z</time>
      </trkpt>
      <trkpt lat="43.385310" lon="0.809856">
        <ele>193.2</ele>
        <time>2020-02-20T13:15:41Z</time>
      </trkpt>
      <trkpt lat="43.385334" lon="0.809710">
        <ele>192.4</ele>
        <time>2020-02-20T13:15:44Z</time>
      </trkpt>
      <trkpt lat="43.385351" lon="0.809596">
        <ele>193.2</ele>
        <time>2020-02-20T13:16:34Z</time>
      </trkpt>
      <trkpt lat="43.385376" lon="0.809458">
        <ele>193.3</ele>
        <time>2020-02-20T13:16:39Z</time>
      </trkpt>
      <trkpt lat="43.385423" lon="0.809333">
        <ele>192.5</ele>
        <time>2020-02-20T13:16:44Z</time>
      </trkpt>
      <trkpt lat="43.385464" lon="0.809151">
        <ele>192.6</ele>
        <time>2020-02-20T13:16:49Z</time>
      </trkpt>
      <trkpt lat="43.385491" lon="0.808964">
        <ele>192.6</ele>
        <time>2020-02-20T13:16:53Z</time>
      </trkpt>
      <trkpt lat="43.385509" lon="0.808818">
        <ele>192.7</ele>
        <time>2020-02-20T13:16:56Z</time>
      </trkpt>
      <trkpt lat="43.385530" lon="0.808670">
        <ele>192.7</ele>
        <time>2020-02-20T13:16:59Z</time>
      </trkpt>
      <trkpt lat="43.385539" lon="0.808534">
        <ele>192.7</ele>
        <time>2020-02-20T13:17:02Z</time>
      </trkpt>
      <trkpt lat="43.385551" lon="0.808368">
        <ele>192.7</ele>
        <time>2020-02-20T13:17:06Z</time>
      </trkpt>
      <trkpt lat="43.385566" lon="0.808190">
        <ele>192.8</ele>
        <time>2020-02-20T13:17:10Z</time>
      </trkpt>
      <trkpt lat="43.385569" lon="0.808047">
        <ele>192.8</ele>
        <time>2020-02-20T13:17:13Z</time>
      </trkpt>
      <trkpt lat="43.385566" lon="0.807878">
        <ele>192.8</ele>
        <time>2020-02-20T13:17:17Z</time>
      </trkpt>
      <trkpt lat="43.385577" lon="0.807733">
        <ele>192.8</ele>
        <time>2020-02-20T13:17:19Z</time>
      </trkpt>
      <trkpt lat="43.385592" lon="0.807578">
        <ele>191.9</ele>
        <time>2020-02-20T13:17:21Z</time>
      </trkpt>
      <trkpt lat="43.385609" lon="0.807435">
        <ele>191.0</ele>
        <time>2020-02-20T13:17:23Z</time>
      </trkpt>
      <trkpt lat="43.385628" lon="0.807309">
        <ele>191.0</ele>
        <time>2020-02-20T13:17:25Z</time>
      </trkpt>
      <trkpt lat="43.385669" lon="0.807145">
        <ele>189.8</ele>
        <time>2020-02-20T13:17:28Z</time>
      </trkpt>
      <trkpt lat="43.385731" lon="0.807005">
        <ele>187.9</ele>
        <time>2020-02-20T13:17:31Z</time>
      </trkpt>
      <trkpt lat="43.385806" lon="0.806867">
        <ele>187.1</ele>
        <time>2020-02-20T13:17:34Z</time>
      </trkpt>
      <trkpt lat="43.385846" lon="0.806696">
        <ele>187.1</ele>
        <time>2020-02-20T13:17:37Z</time>
      </trkpt>
      <trkpt lat="43.385851" lon="0.806548">
        <ele>186.0</ele>
        <time>2020-02-20T13:17:40Z</time>
      </trkpt>
      <trkpt lat="43.385820" lon="0.806369">
        <ele>184.1</ele>
        <time>2020-02-20T13:17:43Z</time>
      </trkpt>
      <trkpt lat="43.385778" lon="0.806198">
        <ele>183.3</ele>
        <time>2020-02-20T13:17:46Z</time>
      </trkpt>
      <trkpt lat="43.385743" lon="0.806015">
        <ele>180.9</ele>
        <time>2020-02-20T13:17:49Z</time>
      </trkpt>
      <trkpt lat="43.385713" lon="0.805817">
        <ele>178.8</ele>
        <time>2020-02-20T13:17:52Z</time>
      </trkpt>
      <trkpt lat="43.385707" lon="0.805668">
        <ele>177.4</ele>
        <time>2020-02-20T13:17:54Z</time>
      </trkpt>
      <trkpt lat="43.385708" lon="0.805526">
        <ele>176.4</ele>
        <time>2020-02-20T13:17:56Z</time>
      </trkpt>
      <trkpt lat="43.385702" lon="0.805352">
        <ele>175.6</ele>
        <time>2020-02-20T13:17:59Z</time>
      </trkpt>
      <trkpt lat="43.385701" lon="0.805206">
        <ele>174.8</ele>
        <time>2020-02-20T13:18:02Z</time>
      </trkpt>
      <trkpt lat="43.385690" lon="0.805081">
        <ele>174.0</ele>
        <time>2020-02-20T13:18:05Z</time>
      </trkpt>
      <trkpt lat="43.385666" lon="0.804960">
        <ele>173.1</ele>
        <time>2020-02-20T13:18:09Z</time>
      </trkpt>
      <trkpt lat="43.385635" lon="0.804810">
        <ele>173.3</ele>
        <time>2020-02-20T13:18:13Z</time>
      </trkpt>
      <trkpt lat="43.385603" lon="0.804662">
        <ele>173.4</ele>
        <time>2020-02-20T13:18:16Z</time>
      </trkpt>
      <trkpt lat="43.385564" lon="0.804503">
        <ele>173.4</ele>
        <time>2020-02-20T13:18:19Z</time>
      </trkpt>
      <trkpt lat="43.385517" lon="0.804371">
        <ele>173.5</ele>
        <time>2020-02-20T13:18:22Z</time>
      </trkpt>
      <trkpt lat="43.385460" lon="0.804233">
        <ele>173.6</ele>
        <time>2020-02-20T13:18:25Z</time>
      </trkpt>
      <trkpt lat="43.385398" lon="0.804072">
        <ele>173.6</ele>
        <time>2020-02-20T13:18:28Z</time>
      </trkpt>
      <trkpt lat="43.385340" lon="0.803935">
        <ele>172.8</ele>
        <time>2020-02-20T13:18:31Z</time>
      </trkpt>
      <trkpt lat="43.385292" lon="0.803805">
        <ele>172.8</ele>
        <time>2020-02-20T13:18:34Z</time>
      </trkpt>
      <trkpt lat="43.385257" lon="0.803692">
        <ele>172.9</ele>
        <time>2020-02-20T13:18:37Z</time>
      </trkpt>
      <trkpt lat="43.385323" lon="0.803576">
        <ele>172.9</ele>
        <time>2020-02-20T13:18:41Z</time>
      </trkpt>
      <trkpt lat="43.385403" lon="0.803497">
        <ele>172.9</ele>
        <time>2020-02-20T13:18:44Z</time>
      </trkpt>
      <trkpt lat="43.385492" lon="0.803399">
        <ele>173.0</ele>
        <time>2020-02-20T13:18:47Z</time>
      </trkpt>
      <trkpt lat="43.385576" lon="0.803290">
        <ele>173.0</ele>
        <time>2020-02-20T13:18:50Z</time>
      </trkpt>
      <trkpt lat="43.385667" lon="0.803179">
        <ele>173.1</ele>
        <time>2020-02-20T13:18:53Z</time>
      </trkpt>
      <trkpt lat="43.385757" lon="0.803072">
        <ele>173.1</ele>
        <time>2020-02-20T13:18:56Z</time>
      </trkpt>
      <trkpt lat="43.385842" lon="0.802964">
        <ele>173.1</ele>
        <time>2020-02-20T13:18:59Z</time>
      </trkpt>
      <trkpt lat="43.385931" lon="0.802856">
        <ele>172.3</ele>
        <time>2020-02-20T13:19:02Z</time>
      </trkpt>
      <trkpt lat="43.386012" lon="0.802756">
        <ele>172.4</ele>
        <time>2020-02-20T13:19:05Z</time>
      </trkpt>
      <trkpt lat="43.386100" lon="0.802665">
        <ele>173.0</ele>
        <time>2020-02-20T13:19:22Z</time>
      </trkpt>
      <trkpt lat="43.386172" lon="0.802584">
        <ele>173.1</ele>
        <time>2020-02-20T13:19:25Z</time>
      </trkpt>
      <trkpt lat="43.386255" lon="0.802486">
        <ele>173.1</ele>
        <time>2020-02-20T13:19:28Z</time>
      </trkpt>
      <trkpt lat="43.386338" lon="0.802380">
        <ele>173.2</ele>
        <time>2020-02-20T13:19:31Z</time>
      </trkpt>
      <trkpt lat="43.386402" lon="0.802256">
        <ele>173.2</ele>
        <time>2020-02-20T13:19:34Z</time>
      </trkpt>
      <trkpt lat="43.386449" lon="0.802133">
        <ele>173.2</ele>
        <time>2020-02-20T13:19:37Z</time>
      </trkpt>
      <trkpt lat="43.386490" lon="0.802004">
        <ele>174.1</ele>
        <time>2020-02-20T13:19:40Z</time>
      </trkpt>
      <trkpt lat="43.386525" lon="0.801877">
        <ele>175.0</ele>
        <time>2020-02-20T13:19:43Z</time>
      </trkpt>
      <trkpt lat="43.386567" lon="0.801749">
        <ele>175.1</ele>
        <time>2020-02-20T13:19:46Z</time>
      </trkpt>
      <trkpt lat="43.386609" lon="0.801623">
        <ele>175.1</ele>
        <time>2020-02-20T13:19:49Z</time>
      </trkpt>
      <trkpt lat="43.386649" lon="0.801496">
        <ele>175.9</ele>
        <time>2020-02-20T13:19:52Z</time>
      </trkpt>
      <trkpt lat="43.386692" lon="0.801372">
        <ele>175.9</ele>
        <time>2020-02-20T13:19:55Z</time>
      </trkpt>
      <trkpt lat="43.386729" lon="0.801253">
        <ele>175.9</ele>
        <time>2020-02-20T13:19:58Z</time>
      </trkpt>
      <trkpt lat="43.386778" lon="0.801107">
        <ele>176.9</ele>
        <time>2020-02-20T13:20:02Z</time>
      </trkpt>
      <trkpt lat="43.386819" lon="0.800977">
        <ele>177.8</ele>
        <time>2020-02-20T13:20:05Z</time>
      </trkpt>
      <trkpt lat="43.386869" lon="0.800856">
        <ele>179.2</ele>
        <time>2020-02-20T13:20:08Z</time>
      </trkpt>
      <trkpt lat="43.386912" lon="0.800745">
        <ele>180.3</ele>
        <time>2020-02-20T13:20:11Z</time>
      </trkpt>
      <trkpt lat="43.386953" lon="0.800635">
        <ele>180.4</ele>
        <time>2020-02-20T13:20:14Z</time>
      </trkpt>
      <trkpt lat="43.387003" lon="0.800505">
        <ele>181.3</ele>
        <time>2020-02-20T13:20:18Z</time>
      </trkpt>
      <trkpt lat="43.387055" lon="0.800379">
        <ele>182.5</ele>
        <time>2020-02-20T13:20:22Z</time>
      </trkpt>
      <trkpt lat="43.387113" lon="0.800247">
        <ele>183.3</ele>
        <time>2020-02-20T13:20:26Z</time>
      </trkpt>
      <trkpt lat="43.387181" lon="0.800125">
        <ele>183.3</ele>
        <time>2020-02-20T13:20:30Z</time>
      </trkpt>
      <trkpt lat="43.387247" lon="0.799995">
        <ele>183.4</ele>
        <time>2020-02-20T13:20:34Z</time>
      </trkpt>
      <trkpt lat="43.387300" lon="0.799901">
        <ele>183.4</ele>
        <time>2020-02-20T13:20:37Z</time>
      </trkpt>
      <trkpt lat="43.387358" lon="0.799779">
        <ele>183.4</ele>
        <time>2020-02-20T13:20:41Z</time>
      </trkpt>
      <trkpt lat="43.387409" lon="0.799678">
        <ele>183.5</ele>
        <time>2020-02-20T13:20:46Z</time>
      </trkpt>
      <trkpt lat="43.387387" lon="0.799611">
        <ele>185.9</ele>
        <time>2020-02-20T13:22:59Z</time>
      </trkpt>
      <trkpt lat="43.387274" lon="0.799634">
        <ele>185.9</ele>
        <time>2020-02-20T13:23:03Z</time>
      </trkpt>
      <trkpt lat="43.387169" lon="0.799627">
        <ele>185.9</ele>
        <time>2020-02-20T13:23:06Z</time>
      </trkpt>
      <trkpt lat="43.387053" lon="0.799602">
        <ele>186.0</ele>
        <time>2020-02-20T13:23:09Z</time>
      </trkpt>
      <trkpt lat="43.386936" lon="0.799560">
        <ele>186.0</ele>
        <time>2020-02-20T13:23:12Z</time>
      </trkpt>
      <trkpt lat="43.386813" lon="0.799518">
        <ele>186.0</ele>
        <time>2020-02-20T13:23:15Z</time>
      </trkpt>
      <trkpt lat="43.386686" lon="0.799461">
        <ele>186.9</ele>
        <time>2020-02-20T13:23:18Z</time>
      </trkpt>
      <trkpt lat="43.386598" lon="0.799426">
        <ele>186.9</ele>
        <time>2020-02-20T13:23:20Z</time>
      </trkpt>
      <trkpt lat="43.386509" lon="0.799386">
        <ele>186.9</ele>
        <time>2020-02-20T13:23:22Z</time>
      </trkpt>
      <trkpt lat="43.386382" lon="0.799329">
        <ele>186.9</ele>
        <time>2020-02-20T13:23:25Z</time>
      </trkpt>
      <trkpt lat="43.386273" lon="0.799281">
        <ele>187.0</ele>
        <time>2020-02-20T13:23:28Z</time>
      </trkpt>
      <trkpt lat="43.386171" lon="0.799239">
        <ele>187.0</ele>
        <time>2020-02-20T13:23:32Z</time>
      </trkpt>
      <trkpt lat="43.386078" lon="0.799200">
        <ele>187.0</ele>
        <time>2020-02-20T13:23:35Z</time>
      </trkpt>
      <trkpt lat="43.385975" lon="0.799144">
        <ele>187.1</ele>
        <time>2020-02-20T13:23:38Z</time>
      </trkpt>
      <trkpt lat="43.385879" lon="0.799084">
        <ele>187.1</ele>
        <time>2020-02-20T13:23:41Z</time>
      </trkpt>
      <trkpt lat="43.385792" lon="0.799029">
        <ele>187.1</ele>
        <time>2020-02-20T13:23:44Z</time>
      </trkpt>
      <trkpt lat="43.385707" lon="0.798968">
        <ele>187.2</ele>
        <time>2020-02-20T13:23:47Z</time>
      </trkpt>
      <trkpt lat="43.385622" lon="0.798903">
        <ele>188.0</ele>
        <time>2020-02-20T13:23:50Z</time>
      </trkpt>
      <trkpt lat="43.385534" lon="0.798839">
        <ele>188.1</ele>
        <time>2020-02-20T13:23:53Z</time>
      </trkpt>
      <trkpt lat="43.385445" lon="0.798778">
        <ele>188.1</ele>
        <time>2020-02-20T13:23:56Z</time>
      </trkpt>
      <trkpt lat="43.385359" lon="0.798716">
        <ele>188.9</ele>
        <time>2020-02-20T13:23:59Z</time>
      </trkpt>
      <trkpt lat="43.385277" lon="0.798663">
        <ele>189.0</ele>
        <time>2020-02-20T13:24:02Z</time>
      </trkpt>
      <trkpt lat="43.385175" lon="0.798592">
        <ele>189.0</ele>
        <time>2020-02-20T13:24:06Z</time>
      </trkpt>
      <trkpt lat="43.385078" lon="0.798512">
        <ele>189.8</ele>
        <time>2020-02-20T13:24:10Z</time>
      </trkpt>
      <trkpt lat="43.384998" lon="0.798443">
        <ele>189.8</ele>
        <time>2020-02-20T13:24:13Z</time>
      </trkpt>
      <trkpt lat="43.384923" lon="0.798363">
        <ele>189.9</ele>
        <time>2020-02-20T13:24:16Z</time>
      </trkpt>
      <trkpt lat="43.384849" lon="0.798286">
        <ele>190.9</ele>
        <time>2020-02-20T13:24:19Z</time>
      </trkpt>
      <trkpt lat="43.384752" lon="0.798189">
        <ele>191.0</ele>
        <time>2020-02-20T13:24:23Z</time>
      </trkpt>
      <trkpt lat="43.384688" lon="0.798107">
        <ele>191.9</ele>
        <time>2020-02-20T13:24:28Z</time>
      </trkpt>
      <trkpt lat="43.384629" lon="0.798024">
        <ele>192.1</ele>
        <time>2020-02-20T13:24:46Z</time>
      </trkpt>
      <trkpt lat="43.384657" lon="0.797890">
        <ele>192.2</ele>
        <time>2020-02-20T13:24:50Z</time>
      </trkpt>
      <trkpt lat="43.384725" lon="0.797757">
        <ele>193.0</ele>
        <time>2020-02-20T13:24:54Z</time>
      </trkpt>
      <trkpt lat="43.384775" lon="0.797655">
        <ele>193.8</ele>
        <time>2020-02-20T13:24:57Z</time>
      </trkpt>
      <trkpt lat="43.384830" lon="0.797553">
        <ele>193.8</ele>
        <time>2020-02-20T13:25:00Z</time>
      </trkpt>
      <trkpt lat="43.384901" lon="0.797448">
        <ele>193.9</ele>
        <time>2020-02-20T13:25:04Z</time>
      </trkpt>
      <trkpt lat="43.385000" lon="0.797434">
        <ele>193.9</ele>
        <time>2020-02-20T13:25:08Z</time>
      </trkpt>
      <trkpt lat="43.385103" lon="0.797458">
        <ele>194.8</ele>
        <time>2020-02-20T13:25:12Z</time>
      </trkpt>
      <trkpt lat="43.385217" lon="0.797487">
        <ele>194.8</ele>
        <time>2020-02-20T13:25:16Z</time>
      </trkpt>
      <trkpt lat="43.385328" lon="0.797521">
        <ele>194.8</ele>
        <time>2020-02-20T13:25:20Z</time>
      </trkpt>
      <trkpt lat="43.385420" lon="0.797544">
        <ele>194.8</ele>
        <time>2020-02-20T13:25:23Z</time>
      </trkpt>
      <trkpt lat="43.385509" lon="0.797575">
        <ele>194.9</ele>
        <time>2020-02-20T13:25:26Z</time>
      </trkpt>
      <trkpt lat="43.385623" lon="0.797594">
        <ele>194.9</ele>
        <time>2020-02-20T13:25:30Z</time>
      </trkpt>
      <trkpt lat="43.385717" lon="0.797610">
        <ele>194.9</ele>
        <time>2020-02-20T13:25:33Z</time>
      </trkpt>
      <trkpt lat="43.385831" lon="0.797617">
        <ele>195.0</ele>
        <time>2020-02-20T13:25:37Z</time>
      </trkpt>
      <trkpt lat="43.385939" lon="0.797600">
        <ele>195.0</ele>
        <time>2020-02-20T13:25:41Z</time>
      </trkpt>
      <trkpt lat="43.386045" lon="0.797567">
        <ele>195.0</ele>
        <time>2020-02-20T13:25:45Z</time>
      </trkpt>
      <trkpt lat="43.386140" lon="0.797542">
        <ele>195.1</ele>
        <time>2020-02-20T13:25:49Z</time>
      </trkpt>
      <trkpt lat="43.386243" lon="0.797513">
        <ele>196.0</ele>
        <time>2020-02-20T13:25:53Z</time>
      </trkpt>
      <trkpt lat="43.386349" lon="0.797481">
        <ele>196.0</ele>
        <time>2020-02-20T13:25:57Z</time>
      </trkpt>
      <trkpt lat="43.386443" lon="0.797454">
        <ele>196.0</ele>
        <time>2020-02-20T13:26:01Z</time>
      </trkpt>
      <trkpt lat="43.386555" lon="0.797420">
        <ele>196.9</ele>
        <time>2020-02-20T13:26:06Z</time>
      </trkpt>
      <trkpt lat="43.386656" lon="0.797391">
        <ele>196.9</ele>
        <time>2020-02-20T13:26:10Z</time>
      </trkpt>
      <trkpt lat="43.386750" lon="0.797367">
        <ele>196.9</ele>
        <time>2020-02-20T13:26:14Z</time>
      </trkpt>
      <trkpt lat="43.386841" lon="0.797341">
        <ele>197.8</ele>
        <time>2020-02-20T13:26:18Z</time>
      </trkpt>
      <trkpt lat="43.386934" lon="0.797315">
        <ele>197.9</ele>
        <time>2020-02-20T13:26:22Z</time>
      </trkpt>
      <trkpt lat="43.387038" lon="0.797264">
        <ele>197.9</ele>
        <time>2020-02-20T13:26:27Z</time>
      </trkpt>
      <trkpt lat="43.387122" lon="0.797176">
        <ele>198.8</ele>
        <time>2020-02-20T13:26:32Z</time>
      </trkpt>
      <trkpt lat="43.387175" lon="0.797055">
        <ele>198.8</ele>
        <time>2020-02-20T13:26:37Z</time>
      </trkpt>
      <trkpt lat="43.387239" lon="0.796914">
        <ele>198.9</ele>
        <time>2020-02-20T13:26:42Z</time>
      </trkpt>
      <trkpt lat="43.387290" lon="0.796781">
        <ele>199.7</ele>
        <time>2020-02-20T13:26:47Z</time>
      </trkpt>
      <trkpt lat="43.387341" lon="0.796654">
        <ele>199.8</ele>
        <time>2020-02-20T13:26:52Z</time>
      </trkpt>
      <trkpt lat="43.387390" lon="0.796535">
        <ele>200.7</ele>
        <time>2020-02-20T13:27:00Z</time>
      </trkpt>
      <trkpt lat="43.387446" lon="0.796415">
        <ele>200.8</ele>
        <time>2020-02-20T13:27:09Z</time>
      </trkpt>
      <trkpt lat="43.387494" lon="0.796281">
        <ele>201.8</ele>
        <time>2020-02-20T13:27:18Z</time>
      </trkpt>
      <trkpt lat="43.387544" lon="0.796154">
        <ele>202.6</ele>
        <time>2020-02-20T13:27:27Z</time>
      </trkpt>
      <trkpt lat="43.387586" lon="0.796022">
        <ele>203.6</ele>
        <time>2020-02-20T13:27:38Z</time>
      </trkpt>
      <trkpt lat="43.387647" lon="0.795910">
        <ele>204.6</ele>
        <time>2020-02-20T13:28:12Z</time>
      </trkpt>
      <trkpt lat="43.387715" lon="0.795778">
        <ele>205.9</ele>
        <time>2020-02-20T13:29:11Z</time>
      </trkpt>
      <trkpt lat="43.387774" lon="0.795668">
        <ele>206.0</ele>
        <time>2020-02-20T13:29:20Z</time>
      </trkpt>
      <trkpt lat="43.387831" lon="0.795562">
        <ele>206.9</ele>
        <time>2020-02-20T13:29:28Z</time>
      </trkpt>
      <trkpt lat="43.387884" lon="0.795448">
        <ele>207.8</ele>
        <time>2020-02-20T13:29:37Z</time>
      </trkpt>
      <trkpt lat="43.387948" lon="0.795344">
        <ele>208.6</ele>
        <time>2020-02-20T13:29:45Z</time>
      </trkpt>
      <trkpt lat="43.388002" lon="0.795241">
        <ele>209.5</ele>
        <time>2020-02-20T13:29:53Z</time>
      </trkpt>
      <trkpt lat="43.388067" lon="0.795141">
        <ele>210.6</ele>
        <time>2020-02-20T13:30:01Z</time>
      </trkpt>
      <trkpt lat="43.388133" lon="0.795041">
        <ele>211.4</ele>
        <time>2020-02-20T13:30:09Z</time>
      </trkpt>
      <trkpt lat="43.388193" lon="0.794930">
        <ele>212.3</ele>
        <time>2020-02-20T13:30:18Z</time>
      </trkpt>
      <trkpt lat="43.388247" lon="0.794819">
        <ele>213.2</ele>
        <time>2020-02-20T13:30:27Z</time>
      </trkpt>
      <trkpt lat="43.388285" lon="0.794694">
        <ele>215.0</ele>
        <time>2020-02-20T13:30:38Z</time>
      </trkpt>
      <trkpt lat="43.388220" lon="0.794578">
        <ele>216.1</ele>
        <time>2020-02-20T13:31:31Z</time>
      </trkpt>
      <trkpt lat="43.388136" lon="0.794464">
        <ele>216.2</ele>
        <time>2020-02-20T13:31:35Z</time>
      </trkpt>
      <trkpt lat="43.388063" lon="0.794349">
        <ele>216.2</ele>
        <time>2020-02-20T13:31:39Z</time>
      </trkpt>
      <trkpt lat="43.387992" lon="0.794265">
        <ele>216.2</ele>
        <time>2020-02-20T13:31:42Z</time>
      </trkpt>
      <trkpt lat="43.387931" lon="0.794159">
        <ele>217.2</ele>
        <time>2020-02-20T13:31:45Z</time>
      </trkpt>
      <trkpt lat="43.387857" lon="0.794064">
        <ele>217.2</ele>
        <time>2020-02-20T13:31:48Z</time>
      </trkpt>
      <trkpt lat="43.387789" lon="0.793967">
        <ele>218.2</ele>
        <time>2020-02-20T13:31:51Z</time>
      </trkpt>
      <trkpt lat="43.387720" lon="0.793874">
        <ele>218.3</ele>
        <time>2020-02-20T13:31:54Z</time>
      </trkpt>
      <trkpt lat="43.387653" lon="0.793773">
        <ele>218.3</ele>
        <time>2020-02-20T13:31:57Z</time>
      </trkpt>
      <trkpt lat="43.387593" lon="0.793676">
        <ele>219.1</ele>
        <time>2020-02-20T13:32:00Z</time>
      </trkpt>
      <trkpt lat="43.387520" lon="0.793585">
        <ele>219.1</ele>
        <time>2020-02-20T13:32:03Z</time>
      </trkpt>
      <trkpt lat="43.387449" lon="0.793490">
        <ele>220.0</ele>
        <time>2020-02-20T13:32:06Z</time>
      </trkpt>
      <trkpt lat="43.387377" lon="0.793401">
        <ele>220.0</ele>
        <time>2020-02-20T13:32:09Z</time>
      </trkpt>
      <trkpt lat="43.387313" lon="0.793310">
        <ele>219.9</ele>
        <time>2020-02-20T13:32:12Z</time>
      </trkpt>
      <trkpt lat="43.387244" lon="0.793212">
        <ele>219.9</ele>
        <time>2020-02-20T13:32:15Z</time>
      </trkpt>
      <trkpt lat="43.387170" lon="0.793110">
        <ele>220.0</ele>
        <time>2020-02-20T13:32:18Z</time>
      </trkpt>
      <trkpt lat="43.387092" lon="0.793005">
        <ele>220.0</ele>
        <time>2020-02-20T13:32:21Z</time>
      </trkpt>
      <trkpt lat="43.387014" lon="0.792901">
        <ele>220.0</ele>
        <time>2020-02-20T13:32:24Z</time>
      </trkpt>
      <trkpt lat="43.386942" lon="0.792788">
        <ele>220.0</ele>
        <time>2020-02-20T13:32:27Z</time>
      </trkpt>
      <trkpt lat="43.386859" lon="0.792688">
        <ele>220.0</ele>
        <time>2020-02-20T13:32:30Z</time>
      </trkpt>
      <trkpt lat="43.386777" lon="0.792588">
        <ele>220.0</ele>
        <time>2020-02-20T13:32:33Z</time>
      </trkpt>
      <trkpt lat="43.386699" lon="0.792489">
        <ele>220.1</ele>
        <time>2020-02-20T13:32:36Z</time>
      </trkpt>
      <trkpt lat="43.386626" lon="0.792396">
        <ele>220.1</ele>
        <time>2020-02-20T13:32:39Z</time>
      </trkpt>
      <trkpt lat="43.386557" lon="0.792306">
        <ele>220.1</ele>
        <time>2020-02-20T13:32:42Z</time>
      </trkpt>
      <trkpt lat="43.386474" lon="0.792195">
        <ele>221.1</ele>
        <time>2020-02-20T13:32:46Z</time>
      </trkpt>
      <trkpt lat="43.386477" lon="0.792072">
        <ele>221.1</ele>
        <time>2020-02-20T13:32:50Z</time>
      </trkpt>
      <trkpt lat="43.386541" lon="0.791982">
        <ele>222.1</ele>
        <time>2020-02-20T13:32:53Z</time>
      </trkpt>
      <trkpt lat="43.386608" lon="0.791876">
        <ele>222.0</ele>
        <time>2020-02-20T13:32:56Z</time>
      </trkpt>
      <trkpt lat="43.386673" lon="0.791776">
        <ele>222.0</ele>
        <time>2020-02-20T13:32:59Z</time>
      </trkpt>
      <trkpt lat="43.386718" lon="0.791683">
        <ele>218.6</ele>
        <time>2020-02-20T13:33:21Z</time>
      </trkpt>
      <trkpt lat="43.386785" lon="0.791588">
        <ele>218.7</ele>
        <time>2020-02-20T13:33:24Z</time>
      </trkpt>
      <trkpt lat="43.386854" lon="0.791487">
        <ele>218.6</ele>
        <time>2020-02-20T13:33:26Z</time>
      </trkpt>
      <trkpt lat="43.386932" lon="0.791373">
        <ele>217.8</ele>
        <time>2020-02-20T13:33:28Z</time>
      </trkpt>
      <trkpt lat="43.387018" lon="0.791246">
        <ele>216.4</ele>
        <time>2020-02-20T13:33:30Z</time>
      </trkpt>
      <trkpt lat="43.387111" lon="0.791110">
        <ele>214.9</ele>
        <time>2020-02-20T13:33:32Z</time>
      </trkpt>
      <trkpt lat="43.387220" lon="0.790978">
        <ele>212.2</ele>
        <time>2020-02-20T13:33:34Z</time>
      </trkpt>
      <trkpt lat="43.387339" lon="0.790862">
        <ele>209.4</ele>
        <time>2020-02-20T13:33:36Z</time>
      </trkpt>
      <trkpt lat="43.387481" lon="0.790783">
        <ele>207.0</ele>
        <time>2020-02-20T13:33:38Z</time>
      </trkpt>
      <trkpt lat="43.387637" lon="0.790726">
        <ele>205.0</ele>
        <time>2020-02-20T13:33:40Z</time>
      </trkpt>
      <trkpt lat="43.387795" lon="0.790664">
        <ele>202.7</ele>
        <time>2020-02-20T13:33:42Z</time>
      </trkpt>
      <trkpt lat="43.387951" lon="0.790590">
        <ele>199.6</ele>
        <time>2020-02-20T13:33:44Z</time>
      </trkpt>
      <trkpt lat="43.388098" lon="0.790472">
        <ele>196.9</ele>
        <time>2020-02-20T13:33:46Z</time>
      </trkpt>
      <trkpt lat="43.388224" lon="0.790293">
        <ele>195.1</ele>
        <time>2020-02-20T13:33:48Z</time>
      </trkpt>
      <trkpt lat="43.388276" lon="0.790186">
        <ele>194.1</ele>
        <time>2020-02-20T13:33:49Z</time>
      </trkpt>
      <trkpt lat="43.388318" lon="0.790067">
        <ele>192.9</ele>
        <time>2020-02-20T13:33:50Z</time>
      </trkpt>
      <trkpt lat="43.388358" lon="0.789939">
        <ele>191.7</ele>
        <time>2020-02-20T13:33:51Z</time>
      </trkpt>
      <trkpt lat="43.388409" lon="0.789815">
        <ele>190.6</ele>
        <time>2020-02-20T13:33:52Z</time>
      </trkpt>
      <trkpt lat="43.388472" lon="0.789700">
        <ele>190.6</ele>
        <time>2020-02-20T13:33:53Z</time>
      </trkpt>
      <trkpt lat="43.388544" lon="0.789595">
        <ele>189.3</ele>
        <time>2020-02-20T13:33:54Z</time>
      </trkpt>
      <trkpt lat="43.388620" lon="0.789502">
        <ele>188.0</ele>
        <time>2020-02-20T13:33:55Z</time>
      </trkpt>
      <trkpt lat="43.388699" lon="0.789416">
        <ele>187.1</ele>
        <time>2020-02-20T13:33:56Z</time>
      </trkpt>
      <trkpt lat="43.388776" lon="0.789338">
        <ele>187.3</ele>
        <time>2020-02-20T13:33:57Z</time>
      </trkpt>
      <trkpt lat="43.388867" lon="0.789243">
        <ele>182.8</ele>
        <time>2020-02-20T13:33:59Z</time>
      </trkpt>
      <trkpt lat="43.388879" lon="0.789146">
        <ele>181.0</ele>
        <time>2020-02-20T13:35:04Z</time>
      </trkpt>
      <trkpt lat="43.388835" lon="0.788997">
        <ele>181.1</ele>
        <time>2020-02-20T13:35:25Z</time>
      </trkpt>
      <trkpt lat="43.388794" lon="0.788854">
        <ele>180.3</ele>
        <time>2020-02-20T13:35:28Z</time>
      </trkpt>
      <trkpt lat="43.388736" lon="0.788737">
        <ele>180.3</ele>
        <time>2020-02-20T13:35:31Z</time>
      </trkpt>
      <trkpt lat="43.388684" lon="0.788624">
        <ele>179.4</ele>
        <time>2020-02-20T13:35:34Z</time>
      </trkpt>
      <trkpt lat="43.388621" lon="0.788499">
        <ele>179.4</ele>
        <time>2020-02-20T13:35:37Z</time>
      </trkpt>
      <trkpt lat="43.388558" lon="0.788377">
        <ele>179.4</ele>
        <time>2020-02-20T13:35:40Z</time>
      </trkpt>
      <trkpt lat="43.388497" lon="0.788264">
        <ele>179.4</ele>
        <time>2020-02-20T13:35:43Z</time>
      </trkpt>
      <trkpt lat="43.388429" lon="0.788134">
        <ele>179.5</ele>
        <time>2020-02-20T13:35:46Z</time>
      </trkpt>
      <trkpt lat="43.388373" lon="0.788024">
        <ele>179.5</ele>
        <time>2020-02-20T13:35:49Z</time>
      </trkpt>
      <trkpt lat="43.388312" lon="0.787919">
        <ele>179.6</ele>
        <time>2020-02-20T13:35:54Z</time>
      </trkpt>
      <trkpt lat="43.388249" lon="0.787812">
        <ele>179.7</ele>
        <time>2020-02-20T13:36:00Z</time>
      </trkpt>
      <trkpt lat="43.388184" lon="0.787714">
        <ele>179.7</ele>
        <time>2020-02-20T13:36:08Z</time>
      </trkpt>
      <trkpt lat="43.388098" lon="0.787642">
        <ele>179.8</ele>
        <time>2020-02-20T13:36:18Z</time>
      </trkpt>
      <trkpt lat="43.388007" lon="0.787562">
        <ele>179.8</ele>
        <time>2020-02-20T13:36:24Z</time>
      </trkpt>
      <trkpt lat="43.387924" lon="0.787484">
        <ele>179.9</ele>
        <time>2020-02-20T13:36:28Z</time>
      </trkpt>
      <trkpt lat="43.387840" lon="0.787416">
        <ele>179.9</ele>
        <time>2020-02-20T13:36:32Z</time>
      </trkpt>
      <trkpt lat="43.387758" lon="0.787353">
        <ele>179.9</ele>
        <time>2020-02-20T13:36:36Z</time>
      </trkpt>
      <trkpt lat="43.387664" lon="0.787277">
        <ele>179.9</ele>
        <time>2020-02-20T13:36:40Z</time>
      </trkpt>
      <trkpt lat="43.387563" lon="0.787184">
        <ele>179.9</ele>
        <time>2020-02-20T13:36:44Z</time>
      </trkpt>
      <trkpt lat="43.387468" lon="0.787100">
        <ele>179.9</ele>
        <time>2020-02-20T13:36:48Z</time>
      </trkpt>
      <trkpt lat="43.387377" lon="0.787026">
        <ele>180.0</ele>
        <time>2020-02-20T13:36:52Z</time>
      </trkpt>
      <trkpt lat="43.387283" lon="0.786956">
        <ele>180.0</ele>
        <time>2020-02-20T13:36:56Z</time>
      </trkpt>
      <trkpt lat="43.387184" lon="0.786883">
        <ele>182.5</ele>
        <time>2020-02-20T13:37:00Z</time>
      </trkpt>
      <trkpt lat="43.387081" lon="0.786811">
        <ele>182.5</ele>
        <time>2020-02-20T13:37:04Z</time>
      </trkpt>
      <trkpt lat="43.387000" lon="0.786711">
        <ele>183.6</ele>
        <time>2020-02-20T13:37:08Z</time>
      </trkpt>
      <trkpt lat="43.386916" lon="0.786606">
        <ele>184.3</ele>
        <time>2020-02-20T13:37:12Z</time>
      </trkpt>
      <trkpt lat="43.386828" lon="0.786487">
        <ele>184.3</ele>
        <time>2020-02-20T13:37:16Z</time>
      </trkpt>
      <trkpt lat="43.386739" lon="0.786369">
        <ele>184.3</ele>
        <time>2020-02-20T13:37:20Z</time>
      </trkpt>
      <trkpt lat="43.386669" lon="0.786273">
        <ele>184.3</ele>
        <time>2020-02-20T13:37:23Z</time>
      </trkpt>
      <trkpt lat="43.386597" lon="0.786173">
        <ele>184.2</ele>
        <time>2020-02-20T13:37:26Z</time>
      </trkpt>
      <trkpt lat="43.386513" lon="0.786110">
        <ele>184.2</ele>
        <time>2020-02-20T13:37:30Z</time>
      </trkpt>
      <trkpt lat="43.386420" lon="0.786040">
        <ele>184.2</ele>
        <time>2020-02-20T13:37:35Z</time>
      </trkpt>
      <trkpt lat="43.386344" lon="0.785956">
        <ele>185.2</ele>
        <time>2020-02-20T13:37:40Z</time>
      </trkpt>
      <trkpt lat="43.386264" lon="0.785859">
        <ele>185.2</ele>
        <time>2020-02-20T13:37:45Z</time>
      </trkpt>
      <trkpt lat="43.386179" lon="0.785763">
        <ele>186.1</ele>
        <time>2020-02-20T13:37:51Z</time>
      </trkpt>
      <trkpt lat="43.386097" lon="0.785674">
        <ele>186.1</ele>
        <time>2020-02-20T13:37:56Z</time>
      </trkpt>
      <trkpt lat="43.386025" lon="0.785568">
        <ele>186.1</ele>
        <time>2020-02-20T13:38:00Z</time>
      </trkpt>
      <trkpt lat="43.385984" lon="0.785443">
        <ele>186.1</ele>
        <time>2020-02-20T13:38:04Z</time>
      </trkpt>
      <trkpt lat="43.385943" lon="0.785298">
        <ele>186.1</ele>
        <time>2020-02-20T13:38:08Z</time>
      </trkpt>
      <trkpt lat="43.385892" lon="0.785151">
        <ele>186.1</ele>
        <time>2020-02-20T13:38:12Z</time>
      </trkpt>
      <trkpt lat="43.385839" lon="0.785025">
        <ele>186.1</ele>
        <time>2020-02-20T13:38:16Z</time>
      </trkpt>
      <trkpt lat="43.385767" lon="0.784921">
        <ele>186.1</ele>
        <time>2020-02-20T13:38:20Z</time>
      </trkpt>
      <trkpt lat="43.385685" lon="0.784834">
        <ele>186.2</ele>
        <time>2020-02-20T13:38:24Z</time>
      </trkpt>
      <trkpt lat="43.385613" lon="0.784742">
        <ele>187.1</ele>
        <time>2020-02-20T13:38:28Z</time>
      </trkpt>
      <trkpt lat="43.385563" lon="0.784634">
        <ele>187.1</ele>
        <time>2020-02-20T13:38:32Z</time>
      </trkpt>
      <trkpt lat="43.385501" lon="0.784535">
        <ele>187.1</ele>
        <time>2020-02-20T13:38:36Z</time>
      </trkpt>
      <trkpt lat="43.385472" lon="0.784410">
        <ele>187.2</ele>
        <time>2020-02-20T13:38:42Z</time>
      </trkpt>
      <trkpt lat="43.385458" lon="0.784258">
        <ele>187.2</ele>
        <time>2020-02-20T13:38:46Z</time>
      </trkpt>
      <trkpt lat="43.385424" lon="0.784132">
        <ele>187.2</ele>
        <time>2020-02-20T13:38:49Z</time>
      </trkpt>
      <trkpt lat="43.385390" lon="0.783995">
        <ele>187.2</ele>
        <time>2020-02-20T13:38:52Z</time>
      </trkpt>
      <trkpt lat="43.385356" lon="0.783857">
        <ele>187.2</ele>
        <time>2020-02-20T13:38:55Z</time>
      </trkpt>
      <trkpt lat="43.385307" lon="0.783702">
        <ele>184.9</ele>
        <time>2020-02-20T13:38:58Z</time>
      </trkpt>
      <trkpt lat="43.385250" lon="0.783551">
        <ele>185.0</ele>
        <time>2020-02-20T13:39:01Z</time>
      </trkpt>
      <trkpt lat="43.385197" lon="0.783413">
        <ele>185.1</ele>
        <time>2020-02-20T13:39:04Z</time>
      </trkpt>
      <trkpt lat="43.385136" lon="0.783287">
        <ele>184.1</ele>
        <time>2020-02-20T13:39:07Z</time>
      </trkpt>
      <trkpt lat="43.385077" lon="0.783186">
        <ele>184.1</ele>
        <time>2020-02-20T13:39:10Z</time>
      </trkpt>
      <trkpt lat="43.385008" lon="0.783079">
        <ele>184.1</ele>
        <time>2020-02-20T13:39:13Z</time>
      </trkpt>
      <trkpt lat="43.384935" lon="0.782968">
        <ele>184.2</ele>
        <time>2020-02-20T13:39:16Z</time>
      </trkpt>
      <trkpt lat="43.384871" lon="0.782870">
        <ele>184.2</ele>
        <time>2020-02-20T13:39:19Z</time>
      </trkpt>
      <trkpt lat="43.384795" lon="0.782755">
        <ele>184.3</ele>
        <time>2020-02-20T13:39:23Z</time>
      </trkpt>
      <trkpt lat="43.384712" lon="0.782640">
        <ele>184.3</ele>
        <time>2020-02-20T13:39:27Z</time>
      </trkpt>
      <trkpt lat="43.384627" lon="0.782575">
        <ele>184.4</ele>
        <time>2020-02-20T13:39:30Z</time>
      </trkpt>
      <trkpt lat="43.384533" lon="0.782510">
        <ele>184.4</ele>
        <time>2020-02-20T13:39:35Z</time>
      </trkpt>
      <trkpt lat="43.384464" lon="0.782409">
        <ele>184.5</ele>
        <time>2020-02-20T13:39:41Z</time>
      </trkpt>
      <trkpt lat="43.384391" lon="0.782280">
        <ele>187.0</ele>
        <time>2020-02-20T13:39:46Z</time>
      </trkpt>
      <trkpt lat="43.384321" lon="0.782146">
        <ele>187.0</ele>
        <time>2020-02-20T13:39:50Z</time>
      </trkpt>
      <trkpt lat="43.384259" lon="0.782009">
        <ele>186.9</ele>
        <time>2020-02-20T13:39:54Z</time>
      </trkpt>
      <trkpt lat="43.384207" lon="0.781878">
        <ele>186.9</ele>
        <time>2020-02-20T13:39:57Z</time>
      </trkpt>
      <trkpt lat="43.384159" lon="0.781748">
        <ele>186.8</ele>
        <time>2020-02-20T13:40:00Z</time>
      </trkpt>
      <trkpt lat="43.384113" lon="0.781617">
        <ele>184.4</ele>
        <time>2020-02-20T13:40:03Z</time>
      </trkpt>
      <trkpt lat="43.384052" lon="0.781495">
        <ele>183.4</ele>
        <time>2020-02-20T13:40:06Z</time>
      </trkpt>
      <trkpt lat="43.383983" lon="0.781352">
        <ele>183.5</ele>
        <time>2020-02-20T13:40:10Z</time>
      </trkpt>
      <trkpt lat="43.383922" lon="0.781228">
        <ele>183.5</ele>
        <time>2020-02-20T13:40:13Z</time>
      </trkpt>
      <trkpt lat="43.383861" lon="0.781094">
        <ele>183.6</ele>
        <time>2020-02-20T13:40:16Z</time>
      </trkpt>
      <trkpt lat="43.383808" lon="0.780987">
        <ele>183.6</ele>
        <time>2020-02-20T13:40:19Z</time>
      </trkpt>
      <trkpt lat="43.383747" lon="0.780864">
        <ele>183.7</ele>
        <time>2020-02-20T13:40:23Z</time>
      </trkpt>
      <trkpt lat="43.383690" lon="0.780757">
        <ele>183.8</ele>
        <time>2020-02-20T13:40:27Z</time>
      </trkpt>
      <trkpt lat="43.383637" lon="0.780634">
        <ele>183.8</ele>
        <time>2020-02-20T13:40:33Z</time>
      </trkpt>
      <trkpt lat="43.383581" lon="0.780520">
        <ele>183.8</ele>
        <time>2020-02-20T13:40:37Z</time>
      </trkpt>
      <trkpt lat="43.383528" lon="0.780409">
        <ele>183.8</ele>
        <time>2020-02-20T13:40:41Z</time>
      </trkpt>
      <trkpt lat="43.383474" lon="0.780302">
        <ele>183.8</ele>
        <time>2020-02-20T13:40:45Z</time>
      </trkpt>
      <trkpt lat="43.383422" lon="0.780193">
        <ele>183.8</ele>
        <time>2020-02-20T13:40:50Z</time>
      </trkpt>
      <trkpt lat="43.383381" lon="0.780058">
        <ele>183.9</ele>
        <time>2020-02-20T13:40:54Z</time>
      </trkpt>
      <trkpt lat="43.383323" lon="0.779912">
        <ele>182.7</ele>
        <time>2020-02-20T13:40:58Z</time>
      </trkpt>
      <trkpt lat="43.383273" lon="0.779783">
        <ele>182.7</ele>
        <time>2020-02-20T13:41:01Z</time>
      </trkpt>
      <trkpt lat="43.383225" lon="0.779661">
        <ele>182.8</ele>
        <time>2020-02-20T13:41:04Z</time>
      </trkpt>
      <trkpt lat="43.383177" lon="0.779552">
        <ele>182.8</ele>
        <time>2020-02-20T13:41:07Z</time>
      </trkpt>
      <trkpt lat="43.383120" lon="0.779418">
        <ele>182.8</ele>
        <time>2020-02-20T13:41:11Z</time>
      </trkpt>
      <trkpt lat="43.383074" lon="0.779297">
        <ele>182.8</ele>
        <time>2020-02-20T13:41:14Z</time>
      </trkpt>
      <trkpt lat="43.383023" lon="0.779169">
        <ele>182.8</ele>
        <time>2020-02-20T13:41:17Z</time>
      </trkpt>
      <trkpt lat="43.382980" lon="0.779043">
        <ele>182.0</ele>
        <time>2020-02-20T13:41:20Z</time>
      </trkpt>
      <trkpt lat="43.382934" lon="0.778933">
        <ele>182.1</ele>
        <time>2020-02-20T13:41:23Z</time>
      </trkpt>
      <trkpt lat="43.382873" lon="0.778796">
        <ele>182.1</ele>
        <time>2020-02-20T13:41:27Z</time>
      </trkpt>
      <trkpt lat="43.382825" lon="0.778689">
        <ele>182.1</ele>
        <time>2020-02-20T13:41:30Z</time>
      </trkpt>
      <trkpt lat="43.382765" lon="0.778547">
        <ele>182.1</ele>
        <time>2020-02-20T13:41:34Z</time>
      </trkpt>
      <trkpt lat="43.382707" lon="0.778410">
        <ele>182.2</ele>
        <time>2020-02-20T13:41:38Z</time>
      </trkpt>
      <trkpt lat="43.382649" lon="0.778277">
        <ele>182.2</ele>
        <time>2020-02-20T13:41:42Z</time>
      </trkpt>
      <trkpt lat="43.382586" lon="0.778136">
        <ele>182.2</ele>
        <time>2020-02-20T13:41:46Z</time>
      </trkpt>
      <trkpt lat="43.382529" lon="0.778000">
        <ele>182.3</ele>
        <time>2020-02-20T13:41:50Z</time>
      </trkpt>
      <trkpt lat="43.382476" lon="0.777867">
        <ele>182.3</ele>
        <time>2020-02-20T13:41:54Z</time>
      </trkpt>
      <trkpt lat="43.382422" lon="0.777738">
        <ele>182.3</ele>
        <time>2020-02-20T13:41:58Z</time>
      </trkpt>
      <trkpt lat="43.382366" lon="0.777602">
        <ele>182.3</ele>
        <time>2020-02-20T13:42:02Z</time>
      </trkpt>
      <trkpt lat="43.382315" lon="0.777491">
        <ele>182.4</ele>
        <time>2020-02-20T13:42:05Z</time>
      </trkpt>
      <trkpt lat="43.382271" lon="0.777375">
        <ele>182.4</ele>
        <time>2020-02-20T13:42:08Z</time>
      </trkpt>
      <trkpt lat="43.382216" lon="0.777241">
        <ele>184.9</ele>
        <time>2020-02-20T13:42:12Z</time>
      </trkpt>
      <trkpt lat="43.382168" lon="0.777119">
        <ele>185.8</ele>
        <time>2020-02-20T13:42:16Z</time>
      </trkpt>
      <trkpt lat="43.382116" lon="0.777009">
        <ele>185.8</ele>
        <time>2020-02-20T13:42:20Z</time>
      </trkpt>
      <trkpt lat="43.382065" lon="0.776881">
        <ele>185.8</ele>
        <time>2020-02-20T13:42:24Z</time>
      </trkpt>
      <trkpt lat="43.382013" lon="0.776740">
        <ele>185.8</ele>
        <time>2020-02-20T13:42:28Z</time>
      </trkpt>
      <trkpt lat="43.381963" lon="0.776607">
        <ele>185.8</ele>
        <time>2020-02-20T13:42:32Z</time>
      </trkpt>
      <trkpt lat="43.381921" lon="0.776475">
        <ele>185.8</ele>
        <time>2020-02-20T13:42:36Z</time>
      </trkpt>
      <trkpt lat="43.381878" lon="0.776333">
        <ele>185.8</ele>
        <time>2020-02-20T13:42:40Z</time>
      </trkpt>
      <trkpt lat="43.381838" lon="0.776195">
        <ele>185.9</ele>
        <time>2020-02-20T13:42:44Z</time>
      </trkpt>
      <trkpt lat="43.381793" lon="0.776061">
        <ele>185.9</ele>
        <time>2020-02-20T13:42:48Z</time>
      </trkpt>
      <trkpt lat="43.381745" lon="0.775926">
        <ele>185.9</ele>
        <time>2020-02-20T13:42:52Z</time>
      </trkpt>
      <trkpt lat="43.381702" lon="0.775784">
        <ele>185.9</ele>
        <time>2020-02-20T13:42:56Z</time>
      </trkpt>
      <trkpt lat="43.381660" lon="0.775648">
        <ele>186.0</ele>
        <time>2020-02-20T13:43:00Z</time>
      </trkpt>
      <trkpt lat="43.381621" lon="0.775515">
        <ele>186.0</ele>
        <time>2020-02-20T13:43:04Z</time>
      </trkpt>
      <trkpt lat="43.381586" lon="0.775395">
        <ele>186.0</ele>
        <time>2020-02-20T13:43:08Z</time>
      </trkpt>
      <trkpt lat="43.381549" lon="0.775260">
        <ele>186.0</ele>
        <time>2020-02-20T13:43:12Z</time>
      </trkpt>
      <trkpt lat="43.381514" lon="0.775106">
        <ele>186.1</ele>
        <time>2020-02-20T13:43:16Z</time>
      </trkpt>
      <trkpt lat="43.381488" lon="0.774985">
        <ele>186.1</ele>
        <time>2020-02-20T13:43:19Z</time>
      </trkpt>
      <trkpt lat="43.381451" lon="0.774832">
        <ele>186.9</ele>
        <time>2020-02-20T13:43:23Z</time>
      </trkpt>
      <trkpt lat="43.381416" lon="0.774679">
        <ele>186.9</ele>
        <time>2020-02-20T13:43:27Z</time>
      </trkpt>
      <trkpt lat="43.381379" lon="0.774525">
        <ele>186.9</ele>
        <time>2020-02-20T13:43:31Z</time>
      </trkpt>
      <trkpt lat="43.381337" lon="0.774371">
        <ele>186.9</ele>
        <time>2020-02-20T13:43:35Z</time>
      </trkpt>
      <trkpt lat="43.381290" lon="0.774219">
        <ele>187.9</ele>
        <time>2020-02-20T13:43:39Z</time>
      </trkpt>
      <trkpt lat="43.381250" lon="0.774093">
        <ele>187.9</ele>
        <time>2020-02-20T13:43:42Z</time>
      </trkpt>
      <trkpt lat="43.381207" lon="0.773972">
        <ele>188.7</ele>
        <time>2020-02-20T13:43:45Z</time>
      </trkpt>
      <trkpt lat="43.381165" lon="0.773852">
        <ele>188.7</ele>
        <time>2020-02-20T13:43:48Z</time>
      </trkpt>
      <trkpt lat="43.381122" lon="0.773727">
        <ele>188.7</ele>
        <time>2020-02-20T13:43:51Z</time>
      </trkpt>
      <trkpt lat="43.381067" lon="0.773611">
        <ele>188.7</ele>
        <time>2020-02-20T13:43:54Z</time>
      </trkpt>
      <trkpt lat="43.381010" lon="0.773510">
        <ele>188.7</ele>
        <time>2020-02-20T13:43:57Z</time>
      </trkpt>
      <trkpt lat="43.380933" lon="0.773380">
        <ele>188.7</ele>
        <time>2020-02-20T13:44:01Z</time>
      </trkpt>
      <trkpt lat="43.380853" lon="0.773284">
        <ele>188.8</ele>
        <time>2020-02-20T13:44:06Z</time>
      </trkpt>
      <trkpt lat="43.380783" lon="0.773178">
        <ele>189.6</ele>
        <time>2020-02-20T13:44:26Z</time>
      </trkpt>
      <trkpt lat="43.380731" lon="0.773061">
        <ele>189.6</ele>
        <time>2020-02-20T13:44:29Z</time>
      </trkpt>
      <trkpt lat="43.380667" lon="0.772957">
        <ele>189.7</ele>
        <time>2020-02-20T13:44:32Z</time>
      </trkpt>
      <trkpt lat="43.380606" lon="0.772841">
        <ele>189.7</ele>
        <time>2020-02-20T13:44:35Z</time>
      </trkpt>
      <trkpt lat="43.380545" lon="0.772727">
        <ele>189.7</ele>
        <time>2020-02-20T13:44:38Z</time>
      </trkpt>
      <trkpt lat="43.380486" lon="0.772611">
        <ele>189.7</ele>
        <time>2020-02-20T13:44:41Z</time>
      </trkpt>
      <trkpt lat="43.380429" lon="0.772499">
        <ele>189.7</ele>
        <time>2020-02-20T13:44:44Z</time>
      </trkpt>
      <trkpt lat="43.380379" lon="0.772390">
        <ele>189.7</ele>
        <time>2020-02-20T13:44:47Z</time>
      </trkpt>
      <trkpt lat="43.380331" lon="0.772266">
        <ele>189.7</ele>
        <time>2020-02-20T13:44:50Z</time>
      </trkpt>
      <trkpt lat="43.380277" lon="0.772134">
        <ele>189.7</ele>
        <time>2020-02-20T13:44:53Z</time>
      </trkpt>
      <trkpt lat="43.380221" lon="0.771996">
        <ele>189.8</ele>
        <time>2020-02-20T13:44:56Z</time>
      </trkpt>
      <trkpt lat="43.380166" lon="0.771855">
        <ele>189.8</ele>
        <time>2020-02-20T13:44:59Z</time>
      </trkpt>
      <trkpt lat="43.380113" lon="0.771708">
        <ele>189.8</ele>
        <time>2020-02-20T13:45:02Z</time>
      </trkpt>
      <trkpt lat="43.380067" lon="0.771565">
        <ele>189.8</ele>
        <time>2020-02-20T13:45:05Z</time>
      </trkpt>
      <trkpt lat="43.380028" lon="0.771416">
        <ele>189.8</ele>
        <time>2020-02-20T13:45:08Z</time>
      </trkpt>
      <trkpt lat="43.379991" lon="0.771259">
        <ele>189.8</ele>
        <time>2020-02-20T13:45:11Z</time>
      </trkpt>
      <trkpt lat="43.379956" lon="0.771100">
        <ele>187.5</ele>
        <time>2020-02-20T13:45:14Z</time>
      </trkpt>
      <trkpt lat="43.379913" lon="0.770953">
        <ele>187.5</ele>
        <time>2020-02-20T13:45:17Z</time>
      </trkpt>
      <trkpt lat="43.379882" lon="0.770825">
        <ele>187.5</ele>
        <time>2020-02-20T13:45:20Z</time>
      </trkpt>
      <trkpt lat="43.379856" lon="0.770693">
        <ele>187.5</ele>
        <time>2020-02-20T13:45:23Z</time>
      </trkpt>
      <trkpt lat="43.379818" lon="0.770557">
        <ele>187.5</ele>
        <time>2020-02-20T13:45:26Z</time>
      </trkpt>
      <trkpt lat="43.379774" lon="0.770424">
        <ele>187.6</ele>
        <time>2020-02-20T13:45:29Z</time>
      </trkpt>
      <trkpt lat="43.379723" lon="0.770295">
        <ele>187.6</ele>
        <time>2020-02-20T13:45:32Z</time>
      </trkpt>
      <trkpt lat="43.379679" lon="0.770174">
        <ele>187.6</ele>
        <time>2020-02-20T13:45:35Z</time>
      </trkpt>
      <trkpt lat="43.379629" lon="0.770063">
        <ele>187.6</ele>
        <time>2020-02-20T13:45:38Z</time>
      </trkpt>
      <trkpt lat="43.379567" lon="0.769941">
        <ele>187.6</ele>
        <time>2020-02-20T13:45:42Z</time>
      </trkpt>
      <trkpt lat="43.379515" lon="0.769837">
        <ele>187.6</ele>
        <time>2020-02-20T13:45:48Z</time>
      </trkpt>
      <trkpt lat="43.379472" lon="0.769712">
        <ele>187.7</ele>
        <time>2020-02-20T13:45:56Z</time>
      </trkpt>
      <trkpt lat="43.379409" lon="0.769616">
        <ele>187.7</ele>
        <time>2020-02-20T13:45:59Z</time>
      </trkpt>
      <trkpt lat="43.379340" lon="0.769525">
        <ele>187.7</ele>
        <time>2020-02-20T13:46:02Z</time>
      </trkpt>
      <trkpt lat="43.379259" lon="0.769433">
        <ele>187.7</ele>
        <time>2020-02-20T13:46:06Z</time>
      </trkpt>
      <trkpt lat="43.379170" lon="0.769326">
        <ele>187.8</ele>
        <time>2020-02-20T13:46:10Z</time>
      </trkpt>
      <trkpt lat="43.379089" lon="0.769220">
        <ele>187.8</ele>
        <time>2020-02-20T13:46:13Z</time>
      </trkpt>
      <trkpt lat="43.379015" lon="0.769113">
        <ele>187.8</ele>
        <time>2020-02-20T13:46:16Z</time>
      </trkpt>
      <trkpt lat="43.378944" lon="0.769018">
        <ele>187.8</ele>
        <time>2020-02-20T13:46:19Z</time>
      </trkpt>
      <trkpt lat="43.378870" lon="0.768927">
        <ele>187.8</ele>
        <time>2020-02-20T13:46:22Z</time>
      </trkpt>
      <trkpt lat="43.378801" lon="0.768827">
        <ele>187.9</ele>
        <time>2020-02-20T13:46:25Z</time>
      </trkpt>
      <trkpt lat="43.378723" lon="0.768721">
        <ele>187.9</ele>
        <time>2020-02-20T13:46:28Z</time>
      </trkpt>
      <trkpt lat="43.378647" lon="0.768612">
        <ele>187.9</ele>
        <time>2020-02-20T13:46:31Z</time>
      </trkpt>
      <trkpt lat="43.378566" lon="0.768504">
        <ele>187.9</ele>
        <time>2020-02-20T13:46:34Z</time>
      </trkpt>
      <trkpt lat="43.378490" lon="0.768398">
        <ele>187.9</ele>
        <time>2020-02-20T13:46:37Z</time>
      </trkpt>
      <trkpt lat="43.378411" lon="0.768285">
        <ele>187.9</ele>
        <time>2020-02-20T13:46:40Z</time>
      </trkpt>
      <trkpt lat="43.378339" lon="0.768170">
        <ele>187.9</ele>
        <time>2020-02-20T13:46:43Z</time>
      </trkpt>
      <trkpt lat="43.378270" lon="0.768068">
        <ele>187.9</ele>
        <time>2020-02-20T13:46:46Z</time>
      </trkpt>
      <trkpt lat="43.378206" lon="0.767967">
        <ele>190.3</ele>
        <time>2020-02-20T13:46:49Z</time>
      </trkpt>
      <trkpt lat="43.378133" lon="0.767842">
        <ele>190.3</ele>
        <time>2020-02-20T13:46:53Z</time>
      </trkpt>
      <trkpt lat="43.378064" lon="0.767711">
        <ele>191.2</ele>
        <time>2020-02-20T13:46:57Z</time>
      </trkpt>
      <trkpt lat="43.377989" lon="0.767581">
        <ele>191.2</ele>
        <time>2020-02-20T13:47:01Z</time>
      </trkpt>
      <trkpt lat="43.377917" lon="0.767461">
        <ele>192.0</ele>
        <time>2020-02-20T13:47:05Z</time>
      </trkpt>
      <trkpt lat="43.377860" lon="0.767355">
        <ele>192.0</ele>
        <time>2020-02-20T13:47:08Z</time>
      </trkpt>
      <trkpt lat="43.377795" lon="0.767228">
        <ele>193.0</ele>
        <time>2020-02-20T13:47:12Z</time>
      </trkpt>
      <trkpt lat="43.377729" lon="0.767108">
        <ele>193.0</ele>
        <time>2020-02-20T13:47:16Z</time>
      </trkpt>
      <trkpt lat="43.377667" lon="0.766983">
        <ele>193.9</ele>
        <time>2020-02-20T13:47:20Z</time>
      </trkpt>
      <trkpt lat="43.377604" lon="0.766859">
        <ele>193.9</ele>
        <time>2020-02-20T13:47:24Z</time>
      </trkpt>
      <trkpt lat="43.377544" lon="0.766741">
        <ele>194.8</ele>
        <time>2020-02-20T13:47:28Z</time>
      </trkpt>
      <trkpt lat="43.377486" lon="0.766617">
        <ele>195.7</ele>
        <time>2020-02-20T13:47:32Z</time>
      </trkpt>
      <trkpt lat="43.377428" lon="0.766499">
        <ele>195.7</ele>
        <time>2020-02-20T13:47:36Z</time>
      </trkpt>
      <trkpt lat="43.377373" lon="0.766381">
        <ele>195.7</ele>
        <time>2020-02-20T13:47:40Z</time>
      </trkpt>
      <trkpt lat="43.377332" lon="0.766271">
        <ele>195.8</ele>
        <time>2020-02-20T13:47:43Z</time>
      </trkpt>
      <trkpt lat="43.377282" lon="0.766124">
        <ele>195.7</ele>
        <time>2020-02-20T13:47:47Z</time>
      </trkpt>
      <trkpt lat="43.377239" lon="0.765982">
        <ele>195.7</ele>
        <time>2020-02-20T13:47:50Z</time>
      </trkpt>
      <trkpt lat="43.377200" lon="0.765825">
        <ele>195.7</ele>
        <time>2020-02-20T13:47:53Z</time>
      </trkpt>
      <trkpt lat="43.377163" lon="0.765677">
        <ele>195.7</ele>
        <time>2020-02-20T13:47:56Z</time>
      </trkpt>
      <trkpt lat="43.377140" lon="0.765526">
        <ele>195.7</ele>
        <time>2020-02-20T13:47:59Z</time>
      </trkpt>
      <trkpt lat="43.377137" lon="0.765372">
        <ele>195.7</ele>
        <time>2020-02-20T13:48:02Z</time>
      </trkpt>
      <trkpt lat="43.377092" lon="0.765278">
        <ele>195.7</ele>
        <time>2020-02-20T13:48:05Z</time>
      </trkpt>
      <trkpt lat="43.376992" lon="0.765253">
        <ele>195.7</ele>
        <time>2020-02-20T13:48:08Z</time>
      </trkpt>
      <trkpt lat="43.376886" lon="0.765208">
        <ele>195.8</ele>
        <time>2020-02-20T13:48:11Z</time>
      </trkpt>
      <trkpt lat="43.376778" lon="0.765127">
        <ele>195.9</ele>
        <time>2020-02-20T13:48:15Z</time>
      </trkpt>
      <trkpt lat="43.376678" lon="0.765064">
        <ele>196.8</ele>
        <time>2020-02-20T13:48:19Z</time>
      </trkpt>
      <trkpt lat="43.376577" lon="0.765003">
        <ele>198.0</ele>
        <time>2020-02-20T13:48:23Z</time>
      </trkpt>
      <trkpt lat="43.376476" lon="0.764972">
        <ele>199.0</ele>
        <time>2020-02-20T13:48:27Z</time>
      </trkpt>
      <trkpt lat="43.376368" lon="0.764952">
        <ele>199.8</ele>
        <time>2020-02-20T13:48:31Z</time>
      </trkpt>
      <trkpt lat="43.376257" lon="0.764953">
        <ele>201.9</ele>
        <time>2020-02-20T13:48:35Z</time>
      </trkpt>
      <trkpt lat="43.376145" lon="0.764958">
        <ele>202.8</ele>
        <time>2020-02-20T13:48:43Z</time>
      </trkpt>
      <trkpt lat="43.376017" lon="0.764964">
        <ele>204.5</ele>
        <time>2020-02-20T13:48:53Z</time>
      </trkpt>
      <trkpt lat="43.375899" lon="0.764969">
        <ele>206.2</ele>
        <time>2020-02-20T13:49:04Z</time>
      </trkpt>
      <trkpt lat="43.375777" lon="0.764973">
        <ele>208.1</ele>
        <time>2020-02-20T13:49:16Z</time>
      </trkpt>
      <trkpt lat="43.375617" lon="0.765035">
        <ele>210.8</ele>
        <time>2020-02-20T13:49:30Z</time>
      </trkpt>
      <trkpt lat="43.375512" lon="0.765080">
        <ele>212.5</ele>
        <time>2020-02-20T13:49:40Z</time>
      </trkpt>
      <trkpt lat="43.375412" lon="0.765126">
        <ele>213.6</ele>
        <time>2020-02-20T13:49:51Z</time>
      </trkpt>
      <trkpt lat="43.375309" lon="0.765161">
        <ele>216.0</ele>
        <time>2020-02-20T13:50:03Z</time>
      </trkpt>
      <trkpt lat="43.375209" lon="0.765198">
        <ele>218.5</ele>
        <time>2020-02-20T13:50:14Z</time>
      </trkpt>
      <trkpt lat="43.375108" lon="0.765252">
        <ele>220.9</ele>
        <time>2020-02-20T13:50:26Z</time>
      </trkpt>
      <trkpt lat="43.374997" lon="0.765305">
        <ele>222.5</ele>
        <time>2020-02-20T13:50:39Z</time>
      </trkpt>
      <trkpt lat="43.374895" lon="0.765375">
        <ele>225.2</ele>
        <time>2020-02-20T13:50:51Z</time>
      </trkpt>
      <trkpt lat="43.374798" lon="0.765418">
        <ele>227.0</ele>
        <time>2020-02-20T13:51:04Z</time>
      </trkpt>
      <trkpt lat="43.374698" lon="0.765451">
        <ele>229.5</ele>
        <time>2020-02-20T13:51:16Z</time>
      </trkpt>
      <trkpt lat="43.374599" lon="0.765466">
        <ele>231.3</ele>
        <time>2020-02-20T13:51:30Z</time>
      </trkpt>
      <trkpt lat="43.374464" lon="0.765458">
        <ele>233.9</ele>
        <time>2020-02-20T13:51:49Z</time>
      </trkpt>
      <trkpt lat="43.374327" lon="0.765414">
        <ele>236.5</ele>
        <time>2020-02-20T13:52:07Z</time>
      </trkpt>
      <trkpt lat="43.374189" lon="0.765416">
        <ele>238.9</ele>
        <time>2020-02-20T13:52:21Z</time>
      </trkpt>
      <trkpt lat="43.374057" lon="0.765450">
        <ele>241.7</ele>
        <time>2020-02-20T13:52:36Z</time>
      </trkpt>
      <trkpt lat="43.373960" lon="0.765533">
        <ele>244.3</ele>
        <time>2020-02-20T13:52:50Z</time>
      </trkpt>
      <trkpt lat="43.373866" lon="0.765625">
        <ele>246.7</ele>
        <time>2020-02-20T13:53:05Z</time>
      </trkpt>
      <trkpt lat="43.373783" lon="0.765723">
        <ele>249.3</ele>
        <time>2020-02-20T13:53:18Z</time>
      </trkpt>
      <trkpt lat="43.373689" lon="0.765819">
        <ele>251.9</ele>
        <time>2020-02-20T13:53:35Z</time>
      </trkpt>
      <trkpt lat="43.373600" lon="0.765944">
        <ele>254.6</ele>
        <time>2020-02-20T13:53:51Z</time>
      </trkpt>
      <trkpt lat="43.373542" lon="0.766063">
        <ele>257.3</ele>
        <time>2020-02-20T13:54:07Z</time>
      </trkpt>
      <trkpt lat="43.373411" lon="0.766038">
        <ele>259.0</ele>
        <time>2020-02-20T13:54:21Z</time>
      </trkpt>
      <trkpt lat="43.373289" lon="0.766017">
        <ele>261.7</ele>
        <time>2020-02-20T13:54:33Z</time>
      </trkpt>
      <trkpt lat="43.373213" lon="0.765952">
        <ele>263.8</ele>
        <time>2020-02-20T13:54:48Z</time>
      </trkpt>
      <trkpt lat="43.373223" lon="0.765806">
        <ele>263.7</ele>
        <time>2020-02-20T13:54:55Z</time>
      </trkpt>
      <trkpt lat="43.373262" lon="0.765692">
        <ele>263.8</ele>
        <time>2020-02-20T13:55:03Z</time>
      </trkpt>
      <trkpt lat="43.373308" lon="0.765558">
        <ele>263.8</ele>
        <time>2020-02-20T13:55:08Z</time>
      </trkpt>
      <trkpt lat="43.373307" lon="0.765415">
        <ele>263.8</ele>
        <time>2020-02-20T13:55:13Z</time>
      </trkpt>
      <trkpt lat="43.373310" lon="0.765273">
        <ele>263.9</ele>
        <time>2020-02-20T13:55:19Z</time>
      </trkpt>
      <trkpt lat="43.373325" lon="0.765098">
        <ele>263.9</ele>
        <time>2020-02-20T13:55:24Z</time>
      </trkpt>
      <trkpt lat="43.373311" lon="0.764953">
        <ele>264.7</ele>
        <time>2020-02-20T13:55:29Z</time>
      </trkpt>
      <trkpt lat="43.373308" lon="0.764795">
        <ele>264.8</ele>
        <time>2020-02-20T13:55:35Z</time>
      </trkpt>
      <trkpt lat="43.373304" lon="0.764644">
        <ele>265.6</ele>
        <time>2020-02-20T13:55:40Z</time>
      </trkpt>
      <trkpt lat="43.373277" lon="0.764496">
        <ele>266.4</ele>
        <time>2020-02-20T13:55:45Z</time>
      </trkpt>
      <trkpt lat="43.373250" lon="0.764344">
        <ele>266.4</ele>
        <time>2020-02-20T13:55:51Z</time>
      </trkpt>
      <trkpt lat="43.373246" lon="0.764194">
        <ele>267.3</ele>
        <time>2020-02-20T13:55:58Z</time>
      </trkpt>
      <trkpt lat="43.373196" lon="0.764060">
        <ele>267.4</ele>
        <time>2020-02-20T13:56:04Z</time>
      </trkpt>
      <trkpt lat="43.373184" lon="0.763915">
        <ele>268.3</ele>
        <time>2020-02-20T13:56:13Z</time>
      </trkpt>
      <trkpt lat="43.373186" lon="0.763755">
        <ele>270.2</ele>
        <time>2020-02-20T13:56:25Z</time>
      </trkpt>
      <trkpt lat="43.373193" lon="0.763588">
        <ele>271.8</ele>
        <time>2020-02-20T13:56:39Z</time>
      </trkpt>
      <trkpt lat="43.373254" lon="0.763441">
        <ele>271.8</ele>
        <time>2020-02-20T13:56:48Z</time>
      </trkpt>
      <trkpt lat="43.373311" lon="0.763313">
        <ele>272.8</ele>
        <time>2020-02-20T13:56:52Z</time>
      </trkpt>
      <trkpt lat="43.373380" lon="0.763199">
        <ele>273.5</ele>
        <time>2020-02-20T13:56:56Z</time>
      </trkpt>
      <trkpt lat="43.373442" lon="0.763053">
        <ele>274.5</ele>
        <time>2020-02-20T13:57:06Z</time>
      </trkpt>
      <trkpt lat="43.373519" lon="0.762972">
        <ele>277.0</ele>
        <time>2020-02-20T14:03:14Z</time>
      </trkpt>
      <trkpt lat="43.373424" lon="0.763039">
        <ele>278.0</ele>
        <time>2020-02-20T14:03:58Z</time>
      </trkpt>
      <trkpt lat="43.373329" lon="0.763158">
        <ele>278.0</ele>
        <time>2020-02-20T14:04:01Z</time>
      </trkpt>
      <trkpt lat="43.373261" lon="0.763310">
        <ele>275.7</ele>
        <time>2020-02-20T14:04:04Z</time>
      </trkpt>
      <trkpt lat="43.373207" lon="0.763473">
        <ele>274.8</ele>
        <time>2020-02-20T14:04:07Z</time>
      </trkpt>
      <trkpt lat="43.373205" lon="0.763636">
        <ele>274.8</ele>
        <time>2020-02-20T14:04:10Z</time>
      </trkpt>
      <trkpt lat="43.373203" lon="0.763778">
        <ele>273.1</ele>
        <time>2020-02-20T14:04:13Z</time>
      </trkpt>
      <trkpt lat="43.373170" lon="0.763927">
        <ele>270.5</ele>
        <time>2020-02-20T14:04:17Z</time>
      </trkpt>
      <trkpt lat="43.373069" lon="0.764005">
        <ele>269.4</ele>
        <time>2020-02-20T14:04:20Z</time>
      </trkpt>
      <trkpt lat="43.372959" lon="0.764122">
        <ele>268.7</ele>
        <time>2020-02-20T14:04:23Z</time>
      </trkpt>
      <trkpt lat="43.372862" lon="0.764170">
        <ele>267.5</ele>
        <time>2020-02-20T14:04:25Z</time>
      </trkpt>
      <trkpt lat="43.372737" lon="0.764194">
        <ele>266.5</ele>
        <time>2020-02-20T14:04:27Z</time>
      </trkpt>
      <trkpt lat="43.372607" lon="0.764231">
        <ele>266.5</ele>
        <time>2020-02-20T14:04:29Z</time>
      </trkpt>
      <trkpt lat="43.372472" lon="0.764317">
        <ele>265.4</ele>
        <time>2020-02-20T14:04:31Z</time>
      </trkpt>
      <trkpt lat="43.372340" lon="0.764380">
        <ele>262.1</ele>
        <time>2020-02-20T14:04:33Z</time>
      </trkpt>
      <trkpt lat="43.372214" lon="0.764462">
        <ele>260.2</ele>
        <time>2020-02-20T14:04:36Z</time>
      </trkpt>
      <trkpt lat="43.372091" lon="0.764537">
        <ele>258.6</ele>
        <time>2020-02-20T14:04:39Z</time>
      </trkpt>
      <trkpt lat="43.371993" lon="0.764587">
        <ele>258.6</ele>
        <time>2020-02-20T14:04:41Z</time>
      </trkpt>
      <trkpt lat="43.371883" lon="0.764645">
        <ele>257.3</ele>
        <time>2020-02-20T14:04:43Z</time>
      </trkpt>
      <trkpt lat="43.371745" lon="0.764684">
        <ele>256.3</ele>
        <time>2020-02-20T14:04:45Z</time>
      </trkpt>
      <trkpt lat="43.371610" lon="0.764633">
        <ele>255.1</ele>
        <time>2020-02-20T14:04:47Z</time>
      </trkpt>
      <trkpt lat="43.371507" lon="0.764564">
        <ele>255.0</ele>
        <time>2020-02-20T14:04:49Z</time>
      </trkpt>
      <trkpt lat="43.371427" lon="0.764482">
        <ele>255.1</ele>
        <time>2020-02-20T14:04:51Z</time>
      </trkpt>
      <trkpt lat="43.371374" lon="0.764528">
        <ele>255.1</ele>
        <time>2020-02-20T14:05:12Z</time>
      </trkpt>
      <trkpt lat="43.371371" lon="0.764680">
        <ele>254.2</ele>
        <time>2020-02-20T14:05:16Z</time>
      </trkpt>
      <trkpt lat="43.371327" lon="0.764851">
        <ele>253.3</ele>
        <time>2020-02-20T14:05:19Z</time>
      </trkpt>
      <trkpt lat="43.371297" lon="0.764999">
        <ele>253.3</ele>
        <time>2020-02-20T14:05:21Z</time>
      </trkpt>
      <trkpt lat="43.371253" lon="0.765168">
        <ele>252.1</ele>
        <time>2020-02-20T14:05:23Z</time>
      </trkpt>
      <trkpt lat="43.371198" lon="0.765316">
        <ele>250.9</ele>
        <time>2020-02-20T14:05:25Z</time>
      </trkpt>
      <trkpt lat="43.371145" lon="0.765425">
        <ele>249.7</ele>
        <time>2020-02-20T14:05:27Z</time>
      </trkpt>
      <trkpt lat="43.371096" lon="0.765588">
        <ele>248.6</ele>
        <time>2020-02-20T14:05:30Z</time>
      </trkpt>
      <trkpt lat="43.371041" lon="0.765747">
        <ele>247.3</ele>
        <time>2020-02-20T14:05:33Z</time>
      </trkpt>
      <trkpt lat="43.371006" lon="0.765885">
        <ele>245.8</ele>
        <time>2020-02-20T14:05:36Z</time>
      </trkpt>
      <trkpt lat="43.370987" lon="0.766022">
        <ele>245.2</ele>
        <time>2020-02-20T14:05:39Z</time>
      </trkpt>
      <trkpt lat="43.370914" lon="0.766150">
        <ele>245.3</ele>
        <time>2020-02-20T14:05:42Z</time>
      </trkpt>
      <trkpt lat="43.370812" lon="0.766260">
        <ele>244.1</ele>
        <time>2020-02-20T14:05:45Z</time>
      </trkpt>
      <trkpt lat="43.370729" lon="0.766316">
        <ele>243.4</ele>
        <time>2020-02-20T14:05:47Z</time>
      </trkpt>
      <trkpt lat="43.370636" lon="0.766370">
        <ele>243.4</ele>
        <time>2020-02-20T14:05:49Z</time>
      </trkpt>
      <trkpt lat="43.370545" lon="0.766430">
        <ele>243.4</ele>
        <time>2020-02-20T14:05:51Z</time>
      </trkpt>
      <trkpt lat="43.370474" lon="0.766520">
        <ele>242.5</ele>
        <time>2020-02-20T14:05:53Z</time>
      </trkpt>
      <trkpt lat="43.370433" lon="0.766628">
        <ele>242.5</ele>
        <time>2020-02-20T14:05:55Z</time>
      </trkpt>
      <trkpt lat="43.370408" lon="0.766792">
        <ele>242.6</ele>
        <time>2020-02-20T14:05:58Z</time>
      </trkpt>
      <trkpt lat="43.370388" lon="0.766938">
        <ele>242.6</ele>
        <time>2020-02-20T14:06:01Z</time>
      </trkpt>
      <trkpt lat="43.370369" lon="0.767074">
        <ele>242.6</ele>
        <time>2020-02-20T14:06:04Z</time>
      </trkpt>
      <trkpt lat="43.370346" lon="0.767216">
        <ele>242.6</ele>
        <time>2020-02-20T14:06:07Z</time>
      </trkpt>
      <trkpt lat="43.370329" lon="0.767365">
        <ele>242.6</ele>
        <time>2020-02-20T14:06:10Z</time>
      </trkpt>
      <trkpt lat="43.370309" lon="0.767510">
        <ele>242.6</ele>
        <time>2020-02-20T14:06:13Z</time>
      </trkpt>
      <trkpt lat="43.370290" lon="0.767646">
        <ele>242.6</ele>
        <time>2020-02-20T14:06:16Z</time>
      </trkpt>
      <trkpt lat="43.370272" lon="0.767787">
        <ele>242.6</ele>
        <time>2020-02-20T14:06:19Z</time>
      </trkpt>
      <trkpt lat="43.370257" lon="0.767928">
        <ele>242.6</ele>
        <time>2020-02-20T14:06:22Z</time>
      </trkpt>
      <trkpt lat="43.370243" lon="0.768058">
        <ele>242.7</ele>
        <time>2020-02-20T14:06:25Z</time>
      </trkpt>
      <trkpt lat="43.370224" lon="0.768190">
        <ele>242.7</ele>
        <time>2020-02-20T14:06:28Z</time>
      </trkpt>
      <trkpt lat="43.370201" lon="0.768338">
        <ele>242.7</ele>
        <time>2020-02-20T14:06:31Z</time>
      </trkpt>
      <trkpt lat="43.370182" lon="0.768481">
        <ele>245.0</ele>
        <time>2020-02-20T14:06:34Z</time>
      </trkpt>
      <trkpt lat="43.370169" lon="0.768617">
        <ele>245.0</ele>
        <time>2020-02-20T14:06:37Z</time>
      </trkpt>
      <trkpt lat="43.370156" lon="0.768780">
        <ele>245.8</ele>
        <time>2020-02-20T14:06:41Z</time>
      </trkpt>
      <trkpt lat="43.370140" lon="0.768939">
        <ele>246.6</ele>
        <time>2020-02-20T14:06:45Z</time>
      </trkpt>
      <trkpt lat="43.370125" lon="0.769069">
        <ele>246.6</ele>
        <time>2020-02-20T14:06:48Z</time>
      </trkpt>
      <trkpt lat="43.370109" lon="0.769208">
        <ele>247.4</ele>
        <time>2020-02-20T14:06:51Z</time>
      </trkpt>
      <trkpt lat="43.370091" lon="0.769339">
        <ele>247.5</ele>
        <time>2020-02-20T14:06:54Z</time>
      </trkpt>
      <trkpt lat="43.370079" lon="0.769467">
        <ele>248.4</ele>
        <time>2020-02-20T14:06:57Z</time>
      </trkpt>
      <trkpt lat="43.370053" lon="0.769612">
        <ele>249.3</ele>
        <time>2020-02-20T14:07:01Z</time>
      </trkpt>
      <trkpt lat="43.370034" lon="0.769788">
        <ele>249.2</ele>
        <time>2020-02-20T14:07:05Z</time>
      </trkpt>
      <trkpt lat="43.370027" lon="0.769935">
        <ele>250.2</ele>
        <time>2020-02-20T14:07:08Z</time>
      </trkpt>
      <trkpt lat="43.370018" lon="0.770075">
        <ele>250.2</ele>
        <time>2020-02-20T14:07:12Z</time>
      </trkpt>
      <trkpt lat="43.370009" lon="0.770209">
        <ele>251.3</ele>
        <time>2020-02-20T14:07:16Z</time>
      </trkpt>
      <trkpt lat="43.370018" lon="0.770378">
        <ele>252.0</ele>
        <time>2020-02-20T14:07:21Z</time>
      </trkpt>
      <trkpt lat="43.370039" lon="0.770539">
        <ele>252.0</ele>
        <time>2020-02-20T14:07:25Z</time>
      </trkpt>
      <trkpt lat="43.370061" lon="0.770686">
        <ele>252.8</ele>
        <time>2020-02-20T14:07:29Z</time>
      </trkpt>
      <trkpt lat="43.370059" lon="0.770853">
        <ele>252.8</ele>
        <time>2020-02-20T14:07:35Z</time>
      </trkpt>
      <trkpt lat="43.370058" lon="0.770986">
        <ele>253.6</ele>
        <time>2020-02-20T14:07:52Z</time>
      </trkpt>
      <trkpt lat="43.370074" lon="0.771133">
        <ele>253.5</ele>
        <time>2020-02-20T14:07:56Z</time>
      </trkpt>
      <trkpt lat="43.370084" lon="0.771264">
        <ele>253.6</ele>
        <time>2020-02-20T14:07:59Z</time>
      </trkpt>
      <trkpt lat="43.370094" lon="0.771433">
        <ele>253.6</ele>
        <time>2020-02-20T14:08:02Z</time>
      </trkpt>
      <trkpt lat="43.370117" lon="0.771621">
        <ele>253.6</ele>
        <time>2020-02-20T14:08:05Z</time>
      </trkpt>
      <trkpt lat="43.370140" lon="0.771803">
        <ele>253.6</ele>
        <time>2020-02-20T14:08:08Z</time>
      </trkpt>
      <trkpt lat="43.370156" lon="0.771977">
        <ele>253.5</ele>
        <time>2020-02-20T14:08:11Z</time>
      </trkpt>
      <trkpt lat="43.370168" lon="0.772139">
        <ele>253.5</ele>
        <time>2020-02-20T14:08:14Z</time>
      </trkpt>
      <trkpt lat="43.370179" lon="0.772284">
        <ele>251.2</ele>
        <time>2020-02-20T14:08:17Z</time>
      </trkpt>
      <trkpt lat="43.370193" lon="0.772421">
        <ele>251.2</ele>
        <time>2020-02-20T14:08:20Z</time>
      </trkpt>
      <trkpt lat="43.370208" lon="0.772569">
        <ele>251.2</ele>
        <time>2020-02-20T14:08:23Z</time>
      </trkpt>
      <trkpt lat="43.370224" lon="0.772715">
        <ele>251.3</ele>
        <time>2020-02-20T14:08:26Z</time>
      </trkpt>
      <trkpt lat="43.370222" lon="0.772856">
        <ele>251.3</ele>
        <time>2020-02-20T14:08:29Z</time>
      </trkpt>
      <trkpt lat="43.370219" lon="0.773011">
        <ele>251.3</ele>
        <time>2020-02-20T14:08:32Z</time>
      </trkpt>
      <trkpt lat="43.370214" lon="0.773145">
        <ele>251.4</ele>
        <time>2020-02-20T14:08:35Z</time>
      </trkpt>
      <trkpt lat="43.370229" lon="0.773279">
        <ele>251.4</ele>
        <time>2020-02-20T14:08:38Z</time>
      </trkpt>
      <trkpt lat="43.370279" lon="0.773382">
        <ele>251.3</ele>
        <time>2020-02-20T14:08:43Z</time>
      </trkpt>
      <trkpt lat="43.370246" lon="0.773508">
        <ele>251.5</ele>
        <time>2020-02-20T14:09:43Z</time>
      </trkpt>
      <trkpt lat="43.370210" lon="0.773620">
        <ele>250.4</ele>
        <time>2020-02-20T14:09:49Z</time>
      </trkpt>
      <trkpt lat="43.370168" lon="0.773740">
        <ele>250.4</ele>
        <time>2020-02-20T14:09:53Z</time>
      </trkpt>
      <trkpt lat="43.370112" lon="0.773907">
        <ele>249.4</ele>
        <time>2020-02-20T14:09:56Z</time>
      </trkpt>
      <trkpt lat="43.370073" lon="0.774042">
        <ele>249.4</ele>
        <time>2020-02-20T14:09:58Z</time>
      </trkpt>
      <trkpt lat="43.370032" lon="0.774193">
        <ele>248.4</ele>
        <time>2020-02-20T14:10:00Z</time>
      </trkpt>
      <trkpt lat="43.369988" lon="0.774360">
        <ele>246.7</ele>
        <time>2020-02-20T14:10:02Z</time>
      </trkpt>
      <trkpt lat="43.369939" lon="0.774544">
        <ele>245.9</ele>
        <time>2020-02-20T14:10:04Z</time>
      </trkpt>
      <trkpt lat="43.369887" lon="0.774743">
        <ele>245.6</ele>
        <time>2020-02-20T14:10:06Z</time>
      </trkpt>
      <trkpt lat="43.369829" lon="0.774944">
        <ele>244.4</ele>
        <time>2020-02-20T14:10:08Z</time>
      </trkpt>
      <trkpt lat="43.369769" lon="0.775164">
        <ele>242.0</ele>
        <time>2020-02-20T14:10:10Z</time>
      </trkpt>
      <trkpt lat="43.369707" lon="0.775392">
        <ele>240.6</ele>
        <time>2020-02-20T14:10:12Z</time>
      </trkpt>
      <trkpt lat="43.369677" lon="0.775507">
        <ele>240.5</ele>
        <time>2020-02-20T14:10:13Z</time>
      </trkpt>
      <trkpt lat="43.369623" lon="0.775740">
        <ele>238.7</ele>
        <time>2020-02-20T14:10:15Z</time>
      </trkpt>
      <trkpt lat="43.369579" lon="0.775966">
        <ele>237.7</ele>
        <time>2020-02-20T14:10:17Z</time>
      </trkpt>
      <trkpt lat="43.369538" lon="0.776178">
        <ele>235.3</ele>
        <time>2020-02-20T14:10:19Z</time>
      </trkpt>
      <trkpt lat="43.369499" lon="0.776373">
        <ele>233.8</ele>
        <time>2020-02-20T14:10:21Z</time>
      </trkpt>
      <trkpt lat="43.369461" lon="0.776559">
        <ele>233.0</ele>
        <time>2020-02-20T14:10:23Z</time>
      </trkpt>
      <trkpt lat="43.369420" lon="0.776752">
        <ele>231.3</ele>
        <time>2020-02-20T14:10:25Z</time>
      </trkpt>
      <trkpt lat="43.369385" lon="0.776953">
        <ele>230.8</ele>
        <time>2020-02-20T14:10:27Z</time>
      </trkpt>
      <trkpt lat="43.369346" lon="0.777164">
        <ele>230.2</ele>
        <time>2020-02-20T14:10:29Z</time>
      </trkpt>
      <trkpt lat="43.369309" lon="0.777378">
        <ele>229.0</ele>
        <time>2020-02-20T14:10:31Z</time>
      </trkpt>
      <trkpt lat="43.369267" lon="0.777593">
        <ele>228.4</ele>
        <time>2020-02-20T14:10:33Z</time>
      </trkpt>
      <trkpt lat="43.369225" lon="0.777807">
        <ele>227.6</ele>
        <time>2020-02-20T14:10:35Z</time>
      </trkpt>
      <trkpt lat="43.369184" lon="0.778018">
        <ele>226.8</ele>
        <time>2020-02-20T14:10:37Z</time>
      </trkpt>
      <trkpt lat="43.369140" lon="0.778231">
        <ele>225.6</ele>
        <time>2020-02-20T14:10:39Z</time>
      </trkpt>
      <trkpt lat="43.369099" lon="0.778445">
        <ele>224.7</ele>
        <time>2020-02-20T14:10:41Z</time>
      </trkpt>
      <trkpt lat="43.369060" lon="0.778658">
        <ele>224.0</ele>
        <time>2020-02-20T14:10:43Z</time>
      </trkpt>
      <trkpt lat="43.369028" lon="0.778869">
        <ele>224.0</ele>
        <time>2020-02-20T14:10:45Z</time>
      </trkpt>
      <trkpt lat="43.369008" lon="0.779062">
        <ele>223.4</ele>
        <time>2020-02-20T14:10:47Z</time>
      </trkpt>
      <trkpt lat="43.368992" lon="0.779237">
        <ele>220.8</ele>
        <time>2020-02-20T14:10:49Z</time>
      </trkpt>
      <trkpt lat="43.368978" lon="0.779411">
        <ele>220.4</ele>
        <time>2020-02-20T14:10:51Z</time>
      </trkpt>
      <trkpt lat="43.368963" lon="0.779568">
        <ele>219.2</ele>
        <time>2020-02-20T14:10:53Z</time>
      </trkpt>
      <trkpt lat="43.368954" lon="0.779716">
        <ele>218.5</ele>
        <time>2020-02-20T14:10:55Z</time>
      </trkpt>
      <trkpt lat="43.368944" lon="0.779855">
        <ele>217.3</ele>
        <time>2020-02-20T14:10:57Z</time>
      </trkpt>
      <trkpt lat="43.368935" lon="0.779985">
        <ele>217.3</ele>
        <time>2020-02-20T14:10:59Z</time>
      </trkpt>
      <trkpt lat="43.368923" lon="0.780138">
        <ele>216.3</ele>
        <time>2020-02-20T14:11:02Z</time>
      </trkpt>
      <trkpt lat="43.368923" lon="0.780267">
        <ele>215.1</ele>
        <time>2020-02-20T14:11:05Z</time>
      </trkpt>
      <trkpt lat="43.368921" lon="0.780401">
        <ele>214.2</ele>
        <time>2020-02-20T14:11:09Z</time>
      </trkpt>
      <trkpt lat="43.368916" lon="0.780528">
        <ele>212.6</ele>
        <time>2020-02-20T14:11:13Z</time>
      </trkpt>
      <trkpt lat="43.368906" lon="0.780663">
        <ele>210.5</ele>
        <time>2020-02-20T14:11:18Z</time>
      </trkpt>
      <trkpt lat="43.368905" lon="0.780813">
        <ele>209.5</ele>
        <time>2020-02-20T14:11:22Z</time>
      </trkpt>
      <trkpt lat="43.368909" lon="0.780964">
        <ele>208.0</ele>
        <time>2020-02-20T14:11:25Z</time>
      </trkpt>
      <trkpt lat="43.368910" lon="0.781118">
        <ele>206.9</ele>
        <time>2020-02-20T14:11:28Z</time>
      </trkpt>
      <trkpt lat="43.368931" lon="0.781282">
        <ele>206.5</ele>
        <time>2020-02-20T14:11:31Z</time>
      </trkpt>
      <trkpt lat="43.368963" lon="0.781447">
        <ele>205.3</ele>
        <time>2020-02-20T14:11:34Z</time>
      </trkpt>
      <trkpt lat="43.368991" lon="0.781601">
        <ele>205.3</ele>
        <time>2020-02-20T14:11:37Z</time>
      </trkpt>
      <trkpt lat="43.369014" lon="0.781734">
        <ele>205.3</ele>
        <time>2020-02-20T14:11:40Z</time>
      </trkpt>
      <trkpt lat="43.369040" lon="0.781885">
        <ele>205.5</ele>
        <time>2020-02-20T14:11:44Z</time>
      </trkpt>
      <trkpt lat="43.369037" lon="0.782031">
        <ele>207.9</ele>
        <time>2020-02-20T14:11:48Z</time>
      </trkpt>
      <trkpt lat="43.369028" lon="0.782200">
        <ele>207.9</ele>
        <time>2020-02-20T14:11:52Z</time>
      </trkpt>
      <trkpt lat="43.369039" lon="0.782353">
        <ele>207.9</ele>
        <time>2020-02-20T14:11:55Z</time>
      </trkpt>
      <trkpt lat="43.369062" lon="0.782531">
        <ele>207.9</ele>
        <time>2020-02-20T14:11:58Z</time>
      </trkpt>
      <trkpt lat="43.369079" lon="0.782669">
        <ele>205.5</ele>
        <time>2020-02-20T14:12:00Z</time>
      </trkpt>
      <trkpt lat="43.369101" lon="0.782812">
        <ele>205.4</ele>
        <time>2020-02-20T14:12:02Z</time>
      </trkpt>
      <trkpt lat="43.369128" lon="0.782939">
        <ele>204.2</ele>
        <time>2020-02-20T14:12:04Z</time>
      </trkpt>
      <trkpt lat="43.369153" lon="0.783071">
        <ele>203.1</ele>
        <time>2020-02-20T14:12:06Z</time>
      </trkpt>
      <trkpt lat="43.369174" lon="0.783208">
        <ele>203.1</ele>
        <time>2020-02-20T14:12:08Z</time>
      </trkpt>
      <trkpt lat="43.369191" lon="0.783334">
        <ele>202.2</ele>
        <time>2020-02-20T14:12:10Z</time>
      </trkpt>
      <trkpt lat="43.369200" lon="0.783507">
        <ele>201.4</ele>
        <time>2020-02-20T14:12:13Z</time>
      </trkpt>
      <trkpt lat="43.369183" lon="0.783653">
        <ele>201.4</ele>
        <time>2020-02-20T14:12:16Z</time>
      </trkpt>
      <trkpt lat="43.369112" lon="0.783781">
        <ele>201.5</ele>
        <time>2020-02-20T14:12:20Z</time>
      </trkpt>
      <trkpt lat="43.369025" lon="0.783861">
        <ele>200.8</ele>
        <time>2020-02-20T14:12:24Z</time>
      </trkpt>
      <trkpt lat="43.368937" lon="0.783927">
        <ele>200.9</ele>
        <time>2020-02-20T14:12:28Z</time>
      </trkpt>
      <trkpt lat="43.368872" lon="0.784030">
        <ele>200.9</ele>
        <time>2020-02-20T14:12:33Z</time>
      </trkpt>
      <trkpt lat="43.368862" lon="0.784158">
        <ele>200.1</ele>
        <time>2020-02-20T14:12:37Z</time>
      </trkpt>
      <trkpt lat="43.368837" lon="0.784290">
        <ele>200.1</ele>
        <time>2020-02-20T14:12:40Z</time>
      </trkpt>
      <trkpt lat="43.368813" lon="0.784434">
        <ele>200.1</ele>
        <time>2020-02-20T14:12:43Z</time>
      </trkpt>
      <trkpt lat="43.368806" lon="0.784565">
        <ele>200.2</ele>
        <time>2020-02-20T14:12:46Z</time>
      </trkpt>
      <trkpt lat="43.368812" lon="0.784705">
        <ele>199.3</ele>
        <time>2020-02-20T14:12:49Z</time>
      </trkpt>
      <trkpt lat="43.368820" lon="0.784842">
        <ele>199.3</ele>
        <time>2020-02-20T14:12:52Z</time>
      </trkpt>
      <trkpt lat="43.368838" lon="0.785004">
        <ele>199.3</ele>
        <time>2020-02-20T14:12:56Z</time>
      </trkpt>
      <trkpt lat="43.368848" lon="0.785140">
        <ele>199.3</ele>
        <time>2020-02-20T14:12:59Z</time>
      </trkpt>
      <trkpt lat="43.368856" lon="0.785278">
        <ele>199.3</ele>
        <time>2020-02-20T14:13:02Z</time>
      </trkpt>
      <trkpt lat="43.368874" lon="0.785430">
        <ele>199.3</ele>
        <time>2020-02-20T14:13:06Z</time>
      </trkpt>
      <trkpt lat="43.368874" lon="0.785573">
        <ele>199.3</ele>
        <time>2020-02-20T14:13:11Z</time>
      </trkpt>
      <trkpt lat="43.368883" lon="0.785714">
        <ele>198.5</ele>
        <time>2020-02-20T14:13:16Z</time>
      </trkpt>
      <trkpt lat="43.368905" lon="0.785838">
        <ele>198.5</ele>
        <time>2020-02-20T14:13:20Z</time>
      </trkpt>
      <trkpt lat="43.368900" lon="0.785982">
        <ele>197.7</ele>
        <time>2020-02-20T14:13:28Z</time>
      </trkpt>
      <trkpt lat="43.368870" lon="0.786176">
        <ele>197.9</ele>
        <time>2020-02-20T14:14:50Z</time>
      </trkpt>
      <trkpt lat="43.368840" lon="0.786323">
        <ele>198.0</ele>
        <time>2020-02-20T14:14:56Z</time>
      </trkpt>
      <trkpt lat="43.368800" lon="0.786472">
        <ele>198.0</ele>
        <time>2020-02-20T14:15:00Z</time>
      </trkpt>
      <trkpt lat="43.368767" lon="0.786594">
        <ele>198.0</ele>
        <time>2020-02-20T14:15:03Z</time>
      </trkpt>
      <trkpt lat="43.368731" lon="0.786716">
        <ele>198.0</ele>
        <time>2020-02-20T14:15:06Z</time>
      </trkpt>
      <trkpt lat="43.368701" lon="0.786863">
        <ele>198.0</ele>
        <time>2020-02-20T14:15:10Z</time>
      </trkpt>
      <trkpt lat="43.368662" lon="0.787009">
        <ele>200.3</ele>
        <time>2020-02-20T14:15:14Z</time>
      </trkpt>
      <trkpt lat="43.368637" lon="0.787138">
        <ele>200.3</ele>
        <time>2020-02-20T14:15:18Z</time>
      </trkpt>
      <trkpt lat="43.368601" lon="0.787274">
        <ele>200.3</ele>
        <time>2020-02-20T14:15:22Z</time>
      </trkpt>
      <trkpt lat="43.368576" lon="0.787406">
        <ele>200.3</ele>
        <time>2020-02-20T14:15:26Z</time>
      </trkpt>
      <trkpt lat="43.368537" lon="0.787553">
        <ele>201.1</ele>
        <time>2020-02-20T14:15:31Z</time>
      </trkpt>
      <trkpt lat="43.368504" lon="0.787706">
        <ele>201.1</ele>
        <time>2020-02-20T14:15:36Z</time>
      </trkpt>
      <trkpt lat="43.368465" lon="0.787834">
        <ele>201.9</ele>
        <time>2020-02-20T14:15:41Z</time>
      </trkpt>
      <trkpt lat="43.368428" lon="0.787960">
        <ele>201.9</ele>
        <time>2020-02-20T14:15:46Z</time>
      </trkpt>
      <trkpt lat="43.368411" lon="0.788078">
        <ele>201.9</ele>
        <time>2020-02-20T14:15:50Z</time>
      </trkpt>
      <trkpt lat="43.368403" lon="0.788208">
        <ele>202.8</ele>
        <time>2020-02-20T14:15:54Z</time>
      </trkpt>
      <trkpt lat="43.368424" lon="0.788351">
        <ele>203.6</ele>
        <time>2020-02-20T14:16:04Z</time>
      </trkpt>
      <trkpt lat="43.368441" lon="0.788506">
        <ele>204.4</ele>
        <time>2020-02-20T14:16:14Z</time>
      </trkpt>
      <trkpt lat="43.368459" lon="0.788650">
        <ele>206.1</ele>
        <time>2020-02-20T14:16:24Z</time>
      </trkpt>
      <trkpt lat="43.368472" lon="0.788829">
        <ele>206.9</ele>
        <time>2020-02-20T14:16:36Z</time>
      </trkpt>
      <trkpt lat="43.368452" lon="0.788998">
        <ele>208.8</ele>
        <time>2020-02-20T14:16:48Z</time>
      </trkpt>
      <trkpt lat="43.368435" lon="0.789176">
        <ele>210.3</ele>
        <time>2020-02-20T14:17:00Z</time>
      </trkpt>
      <trkpt lat="43.368423" lon="0.789353">
        <ele>212.8</ele>
        <time>2020-02-20T14:17:14Z</time>
      </trkpt>
      <trkpt lat="43.368399" lon="0.789510">
        <ele>214.4</ele>
        <time>2020-02-20T14:17:27Z</time>
      </trkpt>
      <trkpt lat="43.368402" lon="0.789750">
        <ele>216.1</ele>
        <time>2020-02-20T14:17:43Z</time>
      </trkpt>
      <trkpt lat="43.368386" lon="0.789960">
        <ele>218.4</ele>
        <time>2020-02-20T14:17:59Z</time>
      </trkpt>
      <trkpt lat="43.368385" lon="0.790128">
        <ele>220.9</ele>
        <time>2020-02-20T14:18:11Z</time>
      </trkpt>
      <trkpt lat="43.368377" lon="0.790281">
        <ele>222.5</ele>
        <time>2020-02-20T14:18:23Z</time>
      </trkpt>
      <trkpt lat="43.368366" lon="0.790440">
        <ele>225.0</ele>
        <time>2020-02-20T14:18:43Z</time>
      </trkpt>
      <trkpt lat="43.368339" lon="0.790609">
        <ele>228.4</ele>
        <time>2020-02-20T14:19:01Z</time>
      </trkpt>
      <trkpt lat="43.368310" lon="0.790748">
        <ele>229.9</ele>
        <time>2020-02-20T14:19:21Z</time>
      </trkpt>
      <trkpt lat="43.368316" lon="0.790908">
        <ele>230.8</ele>
        <time>2020-02-20T14:19:43Z</time>
      </trkpt>
      <trkpt lat="43.368331" lon="0.791080">
        <ele>232.6</ele>
        <time>2020-02-20T14:19:57Z</time>
      </trkpt>
      <trkpt lat="43.368317" lon="0.791254">
        <ele>234.9</ele>
        <time>2020-02-20T14:20:14Z</time>
      </trkpt>
      <trkpt lat="43.368331" lon="0.791486">
        <ele>238.3</ele>
        <time>2020-02-20T14:20:30Z</time>
      </trkpt>
      <trkpt lat="43.368327" lon="0.791694">
        <ele>241.0</ele>
        <time>2020-02-20T14:20:48Z</time>
      </trkpt>
      <trkpt lat="43.368281" lon="0.791885">
        <ele>244.4</ele>
        <time>2020-02-20T14:21:06Z</time>
      </trkpt>
      <trkpt lat="43.368213" lon="0.792042">
        <ele>248.7</ele>
        <time>2020-02-20T14:21:27Z</time>
      </trkpt>
      <trkpt lat="43.368129" lon="0.792197">
        <ele>250.1</ele>
        <time>2020-02-20T14:21:43Z</time>
      </trkpt>
      <trkpt lat="43.368049" lon="0.792347">
        <ele>252.7</ele>
        <time>2020-02-20T14:21:59Z</time>
      </trkpt>
      <trkpt lat="43.367989" lon="0.792508">
        <ele>255.3</ele>
        <time>2020-02-20T14:22:17Z</time>
      </trkpt>
      <trkpt lat="43.367946" lon="0.792669">
        <ele>257.7</ele>
        <time>2020-02-20T14:22:33Z</time>
      </trkpt>
      <trkpt lat="43.367948" lon="0.792842">
        <ele>259.4</ele>
        <time>2020-02-20T14:22:48Z</time>
      </trkpt>
      <trkpt lat="43.367946" lon="0.792992">
        <ele>261.0</ele>
        <time>2020-02-20T14:23:00Z</time>
      </trkpt>
      <trkpt lat="43.367934" lon="0.793123">
        <ele>262.9</ele>
        <time>2020-02-20T14:23:13Z</time>
      </trkpt>
      <trkpt lat="43.367872" lon="0.793296">
        <ele>263.7</ele>
        <time>2020-02-20T14:23:23Z</time>
      </trkpt>
      <trkpt lat="43.367843" lon="0.793433">
        <ele>264.5</ele>
        <time>2020-02-20T14:23:28Z</time>
      </trkpt>
      <trkpt lat="43.367804" lon="0.793592">
        <ele>265.5</ele>
        <time>2020-02-20T14:23:34Z</time>
      </trkpt>
      <trkpt lat="43.367749" lon="0.793734">
        <ele>266.4</ele>
        <time>2020-02-20T14:23:39Z</time>
      </trkpt>
      <trkpt lat="43.367706" lon="0.793869">
        <ele>268.1</ele>
        <time>2020-02-20T14:23:44Z</time>
      </trkpt>
      <trkpt lat="43.367636" lon="0.793998">
        <ele>270.1</ele>
        <time>2020-02-20T14:23:50Z</time>
      </trkpt>
      <trkpt lat="43.367545" lon="0.794125">
        <ele>273.0</ele>
        <time>2020-02-20T14:23:57Z</time>
      </trkpt>
      <trkpt lat="43.367442" lon="0.794223">
        <ele>274.8</ele>
        <time>2020-02-20T14:24:03Z</time>
      </trkpt>
      <trkpt lat="43.367370" lon="0.794336">
        <ele>276.5</ele>
        <time>2020-02-20T14:24:08Z</time>
      </trkpt>
      <trkpt lat="43.367324" lon="0.794473">
        <ele>277.5</ele>
        <time>2020-02-20T14:24:13Z</time>
      </trkpt>
      <trkpt lat="43.367273" lon="0.794612">
        <ele>279.0</ele>
        <time>2020-02-20T14:24:19Z</time>
      </trkpt>
      <trkpt lat="43.367219" lon="0.794796">
        <ele>280.9</ele>
        <time>2020-02-20T14:24:26Z</time>
      </trkpt>
      <trkpt lat="43.367168" lon="0.794947">
        <ele>282.7</ele>
        <time>2020-02-20T14:24:33Z</time>
      </trkpt>
      <trkpt lat="43.367140" lon="0.795124">
        <ele>283.5</ele>
        <time>2020-02-20T14:24:46Z</time>
      </trkpt>
      <trkpt lat="43.367091" lon="0.795257">
        <ele>283.5</ele>
        <time>2020-02-20T14:25:07Z</time>
      </trkpt>
      <trkpt lat="43.367056" lon="0.795397">
        <ele>285.2</ele>
        <time>2020-02-20T14:25:13Z</time>
      </trkpt>
      <trkpt lat="43.367046" lon="0.795545">
        <ele>286.2</ele>
        <time>2020-02-20T14:25:19Z</time>
      </trkpt>
      <trkpt lat="43.366998" lon="0.795721">
        <ele>287.9</ele>
        <time>2020-02-20T14:25:26Z</time>
      </trkpt>
      <trkpt lat="43.366956" lon="0.795900">
        <ele>288.7</ele>
        <time>2020-02-20T14:25:32Z</time>
      </trkpt>
      <trkpt lat="43.366914" lon="0.796058">
        <ele>288.7</ele>
        <time>2020-02-20T14:25:37Z</time>
      </trkpt>
      <trkpt lat="43.366890" lon="0.796249">
        <ele>289.5</ele>
        <time>2020-02-20T14:25:42Z</time>
      </trkpt>
      <trkpt lat="43.366885" lon="0.796417">
        <ele>289.5</ele>
        <time>2020-02-20T14:25:46Z</time>
      </trkpt>
      <trkpt lat="43.366857" lon="0.796604">
        <ele>290.2</ele>
        <time>2020-02-20T14:25:50Z</time>
      </trkpt>
      <trkpt lat="43.366841" lon="0.796756">
        <ele>290.2</ele>
        <time>2020-02-20T14:25:53Z</time>
      </trkpt>
      <trkpt lat="43.366828" lon="0.796903">
        <ele>290.2</ele>
        <time>2020-02-20T14:25:56Z</time>
      </trkpt>
      <trkpt lat="43.366818" lon="0.797046">
        <ele>291.0</ele>
        <time>2020-02-20T14:25:59Z</time>
      </trkpt>
      <trkpt lat="43.366804" lon="0.797190">
        <ele>291.0</ele>
        <time>2020-02-20T14:26:02Z</time>
      </trkpt>
      <trkpt lat="43.366792" lon="0.797337">
        <ele>291.0</ele>
        <time>2020-02-20T14:26:05Z</time>
      </trkpt>
      <trkpt lat="43.366783" lon="0.797470">
        <ele>291.0</ele>
        <time>2020-02-20T14:26:08Z</time>
      </trkpt>
      <trkpt lat="43.366769" lon="0.797637">
        <ele>291.8</ele>
        <time>2020-02-20T14:26:12Z</time>
      </trkpt>
      <trkpt lat="43.366749" lon="0.797817">
        <ele>291.8</ele>
        <time>2020-02-20T14:26:16Z</time>
      </trkpt>
      <trkpt lat="43.366739" lon="0.797963">
        <ele>292.7</ele>
        <time>2020-02-20T14:26:19Z</time>
      </trkpt>
      <trkpt lat="43.366722" lon="0.798148">
        <ele>292.7</ele>
        <time>2020-02-20T14:26:23Z</time>
      </trkpt>
      <trkpt lat="43.366707" lon="0.798336">
        <ele>293.5</ele>
        <time>2020-02-20T14:26:27Z</time>
      </trkpt>
      <trkpt lat="43.366691" lon="0.798517">
        <ele>293.5</ele>
        <time>2020-02-20T14:26:31Z</time>
      </trkpt>
      <trkpt lat="43.366676" lon="0.798678">
        <ele>293.5</ele>
        <time>2020-02-20T14:26:35Z</time>
      </trkpt>
      <trkpt lat="43.366673" lon="0.798847">
        <ele>293.5</ele>
        <time>2020-02-20T14:26:40Z</time>
      </trkpt>
      <trkpt lat="43.366653" lon="0.799008">
        <ele>293.5</ele>
        <time>2020-02-20T14:26:46Z</time>
      </trkpt>
      <trkpt lat="43.366674" lon="0.799161">
        <ele>294.3</ele>
        <time>2020-02-20T14:26:58Z</time>
      </trkpt>
      <trkpt lat="43.366643" lon="0.799302">
        <ele>294.3</ele>
        <time>2020-02-20T14:28:01Z</time>
      </trkpt>
      <trkpt lat="43.366671" lon="0.799459">
        <ele>294.3</ele>
        <time>2020-02-20T14:28:05Z</time>
      </trkpt>
      <trkpt lat="43.366697" lon="0.799582">
        <ele>294.4</ele>
        <time>2020-02-20T14:28:08Z</time>
      </trkpt>
      <trkpt lat="43.366722" lon="0.799744">
        <ele>294.4</ele>
        <time>2020-02-20T14:28:12Z</time>
      </trkpt>
      <trkpt lat="43.366735" lon="0.799903">
        <ele>294.4</ele>
        <time>2020-02-20T14:28:16Z</time>
      </trkpt>
      <trkpt lat="43.366747" lon="0.800068">
        <ele>295.4</ele>
        <time>2020-02-20T14:28:20Z</time>
      </trkpt>
      <trkpt lat="43.366736" lon="0.800214">
        <ele>295.4</ele>
        <time>2020-02-20T14:28:24Z</time>
      </trkpt>
      <trkpt lat="43.366714" lon="0.800361">
        <ele>296.2</ele>
        <time>2020-02-20T14:28:28Z</time>
      </trkpt>
      <trkpt lat="43.366688" lon="0.800515">
        <ele>296.2</ele>
        <time>2020-02-20T14:28:32Z</time>
      </trkpt>
      <trkpt lat="43.366667" lon="0.800642">
        <ele>296.2</ele>
        <time>2020-02-20T14:28:35Z</time>
      </trkpt>
      <trkpt lat="43.366649" lon="0.800774">
        <ele>296.2</ele>
        <time>2020-02-20T14:28:38Z</time>
      </trkpt>
      <trkpt lat="43.366641" lon="0.800911">
        <ele>296.2</ele>
        <time>2020-02-20T14:28:41Z</time>
      </trkpt>
      <trkpt lat="43.366638" lon="0.801050">
        <ele>296.2</ele>
        <time>2020-02-20T14:28:44Z</time>
      </trkpt>
      <trkpt lat="43.366642" lon="0.801185">
        <ele>296.3</ele>
        <time>2020-02-20T14:28:47Z</time>
      </trkpt>
      <trkpt lat="43.366664" lon="0.801338">
        <ele>296.3</ele>
        <time>2020-02-20T14:28:51Z</time>
      </trkpt>
      <trkpt lat="43.366713" lon="0.801448">
        <ele>296.3</ele>
        <time>2020-02-20T14:28:57Z</time>
      </trkpt>
      <trkpt lat="43.366773" lon="0.801617">
        <ele>296.2</ele>
        <time>2020-02-20T14:29:19Z</time>
      </trkpt>
      <trkpt lat="43.366831" lon="0.801744">
        <ele>293.8</ele>
        <time>2020-02-20T14:29:21Z</time>
      </trkpt>
      <trkpt lat="43.366931" lon="0.801905">
        <ele>291.7</ele>
        <time>2020-02-20T14:29:23Z</time>
      </trkpt>
      <trkpt lat="43.367059" lon="0.802060">
        <ele>289.7</ele>
        <time>2020-02-20T14:29:25Z</time>
      </trkpt>
      <trkpt lat="43.367203" lon="0.802153">
        <ele>289.0</ele>
        <time>2020-02-20T14:29:27Z</time>
      </trkpt>
      <trkpt lat="43.367349" lon="0.802205">
        <ele>288.1</ele>
        <time>2020-02-20T14:29:29Z</time>
      </trkpt>
      <trkpt lat="43.367464" lon="0.802223">
        <ele>287.2</ele>
        <time>2020-02-20T14:29:31Z</time>
      </trkpt>
      <trkpt lat="43.367510" lon="0.802308">
        <ele>287.2</ele>
        <time>2020-02-20T14:29:37Z</time>
      </trkpt>
      <trkpt lat="43.367421" lon="0.802425">
        <ele>287.4</ele>
        <time>2020-02-20T14:29:42Z</time>
      </trkpt>
      <trkpt lat="43.367303" lon="0.802536">
        <ele>287.4</ele>
        <time>2020-02-20T14:29:48Z</time>
      </trkpt>
      <trkpt lat="43.367193" lon="0.802619">
        <ele>289.9</ele>
        <time>2020-02-20T14:29:55Z</time>
      </trkpt>
      <trkpt lat="43.367076" lon="0.802718">
        <ele>290.9</ele>
        <time>2020-02-20T14:30:01Z</time>
      </trkpt>
      <trkpt lat="43.366947" lon="0.802789">
        <ele>291.8</ele>
        <time>2020-02-20T14:30:08Z</time>
      </trkpt>
      <trkpt lat="43.366832" lon="0.802894">
        <ele>292.4</ele>
        <time>2020-02-20T14:30:14Z</time>
      </trkpt>
      <trkpt lat="43.366720" lon="0.802976">
        <ele>293.3</ele>
        <time>2020-02-20T14:30:19Z</time>
      </trkpt>
      <trkpt lat="43.366617" lon="0.803116">
        <ele>294.0</ele>
        <time>2020-02-20T14:30:29Z</time>
      </trkpt>
      <trkpt lat="43.366561" lon="0.803246">
        <ele>293.7</ele>
        <time>2020-02-20T14:30:58Z</time>
      </trkpt>
      <trkpt lat="43.366495" lon="0.803365">
        <ele>293.6</ele>
        <time>2020-02-20T14:31:03Z</time>
      </trkpt>
      <trkpt lat="43.366448" lon="0.803481">
        <ele>293.6</ele>
        <time>2020-02-20T14:31:06Z</time>
      </trkpt>
      <trkpt lat="43.366392" lon="0.803605">
        <ele>293.6</ele>
        <time>2020-02-20T14:31:09Z</time>
      </trkpt>
      <trkpt lat="43.366334" lon="0.803746">
        <ele>293.6</ele>
        <time>2020-02-20T14:31:12Z</time>
      </trkpt>
      <trkpt lat="43.366299" lon="0.803917">
        <ele>290.4</ele>
        <time>2020-02-20T14:31:15Z</time>
      </trkpt>
      <trkpt lat="43.366273" lon="0.804055">
        <ele>289.4</ele>
        <time>2020-02-20T14:31:17Z</time>
      </trkpt>
      <trkpt lat="43.366246" lon="0.804205">
        <ele>288.1</ele>
        <time>2020-02-20T14:31:19Z</time>
      </trkpt>
      <trkpt lat="43.366214" lon="0.804378">
        <ele>286.7</ele>
        <time>2020-02-20T14:31:21Z</time>
      </trkpt>
      <trkpt lat="43.366183" lon="0.804560">
        <ele>285.7</ele>
        <time>2020-02-20T14:31:23Z</time>
      </trkpt>
      <trkpt lat="43.366156" lon="0.804722">
        <ele>284.8</ele>
        <time>2020-02-20T14:31:25Z</time>
      </trkpt>
      <trkpt lat="43.366128" lon="0.804860">
        <ele>283.6</ele>
        <time>2020-02-20T14:31:27Z</time>
      </trkpt>
      <trkpt lat="43.366055" lon="0.804990">
        <ele>282.7</ele>
        <time>2020-02-20T14:31:30Z</time>
      </trkpt>
      <trkpt lat="43.365959" lon="0.805004">
        <ele>282.7</ele>
        <time>2020-02-20T14:31:33Z</time>
      </trkpt>
      <trkpt lat="43.365859" lon="0.804974">
        <ele>282.8</ele>
        <time>2020-02-20T14:31:36Z</time>
      </trkpt>
      <trkpt lat="43.365769" lon="0.804946">
        <ele>282.8</ele>
        <time>2020-02-20T14:31:39Z</time>
      </trkpt>
      <trkpt lat="43.365675" lon="0.804913">
        <ele>282.9</ele>
        <time>2020-02-20T14:31:42Z</time>
      </trkpt>
      <trkpt lat="43.365548" lon="0.804876">
        <ele>282.9</ele>
        <time>2020-02-20T14:31:45Z</time>
      </trkpt>
      <trkpt lat="43.365454" lon="0.804845">
        <ele>282.9</ele>
        <time>2020-02-20T14:31:47Z</time>
      </trkpt>
      <trkpt lat="43.365362" lon="0.804816">
        <ele>281.9</ele>
        <time>2020-02-20T14:31:49Z</time>
      </trkpt>
      <trkpt lat="43.365267" lon="0.804789">
        <ele>280.8</ele>
        <time>2020-02-20T14:31:51Z</time>
      </trkpt>
      <trkpt lat="43.365171" lon="0.804773">
        <ele>279.8</ele>
        <time>2020-02-20T14:31:53Z</time>
      </trkpt>
      <trkpt lat="43.365078" lon="0.804774">
        <ele>279.8</ele>
        <time>2020-02-20T14:31:55Z</time>
      </trkpt>
      <trkpt lat="43.364974" lon="0.804787">
        <ele>278.5</ele>
        <time>2020-02-20T14:31:57Z</time>
      </trkpt>
      <trkpt lat="43.364862" lon="0.804815">
        <ele>277.3</ele>
        <time>2020-02-20T14:31:59Z</time>
      </trkpt>
      <trkpt lat="43.364743" lon="0.804859">
        <ele>276.4</ele>
        <time>2020-02-20T14:32:01Z</time>
      </trkpt>
      <trkpt lat="43.364636" lon="0.804907">
        <ele>276.4</ele>
        <time>2020-02-20T14:32:03Z</time>
      </trkpt>
      <trkpt lat="43.364534" lon="0.804956">
        <ele>275.6</ele>
        <time>2020-02-20T14:32:05Z</time>
      </trkpt>
      <trkpt lat="43.364432" lon="0.805009">
        <ele>274.6</ele>
        <time>2020-02-20T14:32:07Z</time>
      </trkpt>
      <trkpt lat="43.364327" lon="0.805068">
        <ele>274.6</ele>
        <time>2020-02-20T14:32:09Z</time>
      </trkpt>
      <trkpt lat="43.364227" lon="0.805126">
        <ele>273.6</ele>
        <time>2020-02-20T14:32:11Z</time>
      </trkpt>
      <trkpt lat="43.364124" lon="0.805192">
        <ele>272.8</ele>
        <time>2020-02-20T14:32:13Z</time>
      </trkpt>
      <trkpt lat="43.364017" lon="0.805261">
        <ele>272.8</ele>
        <time>2020-02-20T14:32:15Z</time>
      </trkpt>
      <trkpt lat="43.363906" lon="0.805330">
        <ele>272.0</ele>
        <time>2020-02-20T14:32:17Z</time>
      </trkpt>
      <trkpt lat="43.363792" lon="0.805414">
        <ele>270.8</ele>
        <time>2020-02-20T14:32:19Z</time>
      </trkpt>
      <trkpt lat="43.363678" lon="0.805511">
        <ele>270.0</ele>
        <time>2020-02-20T14:32:21Z</time>
      </trkpt>
      <trkpt lat="43.363564" lon="0.805613">
        <ele>269.0</ele>
        <time>2020-02-20T14:32:23Z</time>
      </trkpt>
      <trkpt lat="43.363453" lon="0.805714">
        <ele>269.0</ele>
        <time>2020-02-20T14:32:25Z</time>
      </trkpt>
      <trkpt lat="43.363344" lon="0.805806">
        <ele>268.1</ele>
        <time>2020-02-20T14:32:27Z</time>
      </trkpt>
      <trkpt lat="43.363232" lon="0.805892">
        <ele>267.2</ele>
        <time>2020-02-20T14:32:29Z</time>
      </trkpt>
      <trkpt lat="43.363121" lon="0.805981">
        <ele>267.3</ele>
        <time>2020-02-20T14:32:31Z</time>
      </trkpt>
      <trkpt lat="43.363012" lon="0.806081">
        <ele>266.5</ele>
        <time>2020-02-20T14:32:33Z</time>
      </trkpt>
      <trkpt lat="43.362908" lon="0.806197">
        <ele>266.5</ele>
        <time>2020-02-20T14:32:35Z</time>
      </trkpt>
      <trkpt lat="43.362821" lon="0.806349">
        <ele>265.5</ele>
        <time>2020-02-20T14:32:37Z</time>
      </trkpt>
      <trkpt lat="43.362743" lon="0.806528">
        <ele>265.6</ele>
        <time>2020-02-20T14:32:39Z</time>
      </trkpt>
      <trkpt lat="43.362665" lon="0.806737">
        <ele>264.5</ele>
        <time>2020-02-20T14:32:41Z</time>
      </trkpt>
      <trkpt lat="43.362624" lon="0.806849">
        <ele>263.4</ele>
        <time>2020-02-20T14:32:42Z</time>
      </trkpt>
      <trkpt lat="43.362578" lon="0.806961">
        <ele>263.4</ele>
        <time>2020-02-20T14:32:43Z</time>
      </trkpt>
      <trkpt lat="43.362479" lon="0.807188">
        <ele>261.4</ele>
        <time>2020-02-20T14:32:45Z</time>
      </trkpt>
      <trkpt lat="43.362429" lon="0.807305">
        <ele>260.5</ele>
        <time>2020-02-20T14:32:46Z</time>
      </trkpt>
      <trkpt lat="43.362380" lon="0.807426">
        <ele>259.7</ele>
        <time>2020-02-20T14:32:47Z</time>
      </trkpt>
      <trkpt lat="43.362333" lon="0.807552">
        <ele>259.6</ele>
        <time>2020-02-20T14:32:48Z</time>
      </trkpt>
      <trkpt lat="43.362283" lon="0.807682">
        <ele>258.1</ele>
        <time>2020-02-20T14:32:49Z</time>
      </trkpt>
      <trkpt lat="43.362232" lon="0.807815">
        <ele>258.2</ele>
        <time>2020-02-20T14:32:50Z</time>
      </trkpt>
      <trkpt lat="43.362180" lon="0.807952">
        <ele>256.9</ele>
        <time>2020-02-20T14:32:51Z</time>
      </trkpt>
      <trkpt lat="43.362128" lon="0.808089">
        <ele>256.9</ele>
        <time>2020-02-20T14:32:52Z</time>
      </trkpt>
      <trkpt lat="43.362077" lon="0.808226">
        <ele>255.4</ele>
        <time>2020-02-20T14:32:53Z</time>
      </trkpt>
      <trkpt lat="43.362025" lon="0.808365">
        <ele>254.3</ele>
        <time>2020-02-20T14:32:54Z</time>
      </trkpt>
      <trkpt lat="43.361975" lon="0.808507">
        <ele>253.1</ele>
        <time>2020-02-20T14:32:55Z</time>
      </trkpt>
      <trkpt lat="43.361928" lon="0.808655">
        <ele>251.8</ele>
        <time>2020-02-20T14:32:56Z</time>
      </trkpt>
      <trkpt lat="43.361885" lon="0.808807">
        <ele>250.9</ele>
        <time>2020-02-20T14:32:57Z</time>
      </trkpt>
      <trkpt lat="43.361844" lon="0.808960">
        <ele>249.9</ele>
        <time>2020-02-20T14:32:58Z</time>
      </trkpt>
      <trkpt lat="43.361802" lon="0.809111">
        <ele>249.0</ele>
        <time>2020-02-20T14:32:59Z</time>
      </trkpt>
      <trkpt lat="43.361760" lon="0.809262">
        <ele>248.2</ele>
        <time>2020-02-20T14:33:00Z</time>
      </trkpt>
      <trkpt lat="43.361721" lon="0.809411">
        <ele>248.2</ele>
        <time>2020-02-20T14:33:01Z</time>
      </trkpt>
      <trkpt lat="43.361683" lon="0.809556">
        <ele>247.1</ele>
        <time>2020-02-20T14:33:02Z</time>
      </trkpt>
      <trkpt lat="43.361647" lon="0.809700">
        <ele>247.1</ele>
        <time>2020-02-20T14:33:03Z</time>
      </trkpt>
      <trkpt lat="43.361609" lon="0.809840">
        <ele>247.1</ele>
        <time>2020-02-20T14:33:04Z</time>
      </trkpt>
      <trkpt lat="43.361572" lon="0.809978">
        <ele>246.1</ele>
        <time>2020-02-20T14:33:05Z</time>
      </trkpt>
      <trkpt lat="43.361536" lon="0.810115">
        <ele>246.2</ele>
        <time>2020-02-20T14:33:06Z</time>
      </trkpt>
      <trkpt lat="43.361502" lon="0.810251">
        <ele>245.1</ele>
        <time>2020-02-20T14:33:07Z</time>
      </trkpt>
      <trkpt lat="43.361468" lon="0.810388">
        <ele>244.4</ele>
        <time>2020-02-20T14:33:08Z</time>
      </trkpt>
      <trkpt lat="43.361437" lon="0.810528">
        <ele>244.4</ele>
        <time>2020-02-20T14:33:09Z</time>
      </trkpt>
      <trkpt lat="43.361408" lon="0.810668">
        <ele>243.1</ele>
        <time>2020-02-20T14:33:10Z</time>
      </trkpt>
      <trkpt lat="43.361381" lon="0.810810">
        <ele>243.1</ele>
        <time>2020-02-20T14:33:11Z</time>
      </trkpt>
      <trkpt lat="43.361356" lon="0.810951">
        <ele>242.0</ele>
        <time>2020-02-20T14:33:12Z</time>
      </trkpt>
      <trkpt lat="43.361331" lon="0.811090">
        <ele>242.0</ele>
        <time>2020-02-20T14:33:13Z</time>
      </trkpt>
      <trkpt lat="43.361305" lon="0.811229">
        <ele>240.4</ele>
        <time>2020-02-20T14:33:14Z</time>
      </trkpt>
      <trkpt lat="43.361278" lon="0.811367">
        <ele>239.6</ele>
        <time>2020-02-20T14:33:15Z</time>
      </trkpt>
      <trkpt lat="43.361250" lon="0.811504">
        <ele>239.6</ele>
        <time>2020-02-20T14:33:16Z</time>
      </trkpt>
      <trkpt lat="43.361223" lon="0.811639">
        <ele>238.8</ele>
        <time>2020-02-20T14:33:17Z</time>
      </trkpt>
      <trkpt lat="43.361196" lon="0.811772">
        <ele>238.8</ele>
        <time>2020-02-20T14:33:18Z</time>
      </trkpt>
      <trkpt lat="43.361171" lon="0.811902">
        <ele>237.3</ele>
        <time>2020-02-20T14:33:19Z</time>
      </trkpt>
      <trkpt lat="43.361126" lon="0.812148">
        <ele>237.3</ele>
        <time>2020-02-20T14:33:21Z</time>
      </trkpt>
      <trkpt lat="43.361084" lon="0.812381">
        <ele>236.3</ele>
        <time>2020-02-20T14:33:23Z</time>
      </trkpt>
      <trkpt lat="43.361043" lon="0.812610">
        <ele>235.3</ele>
        <time>2020-02-20T14:33:25Z</time>
      </trkpt>
      <trkpt lat="43.361012" lon="0.812830">
        <ele>234.5</ele>
        <time>2020-02-20T14:33:27Z</time>
      </trkpt>
      <trkpt lat="43.360984" lon="0.813049">
        <ele>233.5</ele>
        <time>2020-02-20T14:33:29Z</time>
      </trkpt>
      <trkpt lat="43.360956" lon="0.813276">
        <ele>232.7</ele>
        <time>2020-02-20T14:33:31Z</time>
      </trkpt>
      <trkpt lat="43.360921" lon="0.813506">
        <ele>232.7</ele>
        <time>2020-02-20T14:33:33Z</time>
      </trkpt>
      <trkpt lat="43.360881" lon="0.813730">
        <ele>232.0</ele>
        <time>2020-02-20T14:33:35Z</time>
      </trkpt>
      <trkpt lat="43.360848" lon="0.813939">
        <ele>231.2</ele>
        <time>2020-02-20T14:33:37Z</time>
      </trkpt>
      <trkpt lat="43.360815" lon="0.814132">
        <ele>229.8</ele>
        <time>2020-02-20T14:33:39Z</time>
      </trkpt>
      <trkpt lat="43.360785" lon="0.814325">
        <ele>229.0</ele>
        <time>2020-02-20T14:33:41Z</time>
      </trkpt>
      <trkpt lat="43.360744" lon="0.814518">
        <ele>228.1</ele>
        <time>2020-02-20T14:33:43Z</time>
      </trkpt>
      <trkpt lat="43.360694" lon="0.814689">
        <ele>225.9</ele>
        <time>2020-02-20T14:33:45Z</time>
      </trkpt>
      <trkpt lat="43.360631" lon="0.814824">
        <ele>224.6</ele>
        <time>2020-02-20T14:33:47Z</time>
      </trkpt>
      <trkpt lat="43.360518" lon="0.814932">
        <ele>223.2</ele>
        <time>2020-02-20T14:33:49Z</time>
      </trkpt>
      <trkpt lat="43.360373" lon="0.815022">
        <ele>221.2</ele>
        <time>2020-02-20T14:33:51Z</time>
      </trkpt>
      <trkpt lat="43.360228" lon="0.815127">
        <ele>218.6</ele>
        <time>2020-02-20T14:33:53Z</time>
      </trkpt>
      <trkpt lat="43.360095" lon="0.815284">
        <ele>216.0</ele>
        <time>2020-02-20T14:33:55Z</time>
      </trkpt>
      <trkpt lat="43.359974" lon="0.815448">
        <ele>212.8</ele>
        <time>2020-02-20T14:33:57Z</time>
      </trkpt>
      <trkpt lat="43.359870" lon="0.815577">
        <ele>211.4</ele>
        <time>2020-02-20T14:33:59Z</time>
      </trkpt>
      <trkpt lat="43.359751" lon="0.815645">
        <ele>210.1</ele>
        <time>2020-02-20T14:34:01Z</time>
      </trkpt>
      <trkpt lat="43.359615" lon="0.815640">
        <ele>209.3</ele>
        <time>2020-02-20T14:34:03Z</time>
      </trkpt>
      <trkpt lat="43.359483" lon="0.815611">
        <ele>208.3</ele>
        <time>2020-02-20T14:34:05Z</time>
      </trkpt>
      <trkpt lat="43.359353" lon="0.815590">
        <ele>208.4</ele>
        <time>2020-02-20T14:34:07Z</time>
      </trkpt>
      <trkpt lat="43.359226" lon="0.815650">
        <ele>207.7</ele>
        <time>2020-02-20T14:34:09Z</time>
      </trkpt>
      <trkpt lat="43.359123" lon="0.815781">
        <ele>207.7</ele>
        <time>2020-02-20T14:34:11Z</time>
      </trkpt>
      <trkpt lat="43.359032" lon="0.815934">
        <ele>206.9</ele>
        <time>2020-02-20T14:34:13Z</time>
      </trkpt>
      <trkpt lat="43.358942" lon="0.816085">
        <ele>206.9</ele>
        <time>2020-02-20T14:34:15Z</time>
      </trkpt>
      <trkpt lat="43.358863" lon="0.816214">
        <ele>206.9</ele>
        <time>2020-02-20T14:34:17Z</time>
      </trkpt>
      <trkpt lat="43.358788" lon="0.816319">
        <ele>205.9</ele>
        <time>2020-02-20T14:34:20Z</time>
      </trkpt>
      <trkpt lat="43.358706" lon="0.816409">
        <ele>206.2</ele>
        <time>2020-02-20T14:35:48Z</time>
      </trkpt>
      <trkpt lat="43.358608" lon="0.816508">
        <ele>206.2</ele>
        <time>2020-02-20T14:35:52Z</time>
      </trkpt>
      <trkpt lat="43.358525" lon="0.816641">
        <ele>205.4</ele>
        <time>2020-02-20T14:35:55Z</time>
      </trkpt>
      <trkpt lat="43.358456" lon="0.816747">
        <ele>205.4</ele>
        <time>2020-02-20T14:35:57Z</time>
      </trkpt>
      <trkpt lat="43.358372" lon="0.816857">
        <ele>204.5</ele>
        <time>2020-02-20T14:35:59Z</time>
      </trkpt>
      <trkpt lat="43.358283" lon="0.816977">
        <ele>203.6</ele>
        <time>2020-02-20T14:36:01Z</time>
      </trkpt>
      <trkpt lat="43.358183" lon="0.817076">
        <ele>203.6</ele>
        <time>2020-02-20T14:36:03Z</time>
      </trkpt>
      <trkpt lat="43.358083" lon="0.817172">
        <ele>202.8</ele>
        <time>2020-02-20T14:36:05Z</time>
      </trkpt>
      <trkpt lat="43.357989" lon="0.817269">
        <ele>202.8</ele>
        <time>2020-02-20T14:36:07Z</time>
      </trkpt>
      <trkpt lat="43.357893" lon="0.817357">
        <ele>202.8</ele>
        <time>2020-02-20T14:36:09Z</time>
      </trkpt>
      <trkpt lat="43.357800" lon="0.817437">
        <ele>202.8</ele>
        <time>2020-02-20T14:36:11Z</time>
      </trkpt>
      <trkpt lat="43.357712" lon="0.817524">
        <ele>202.8</ele>
        <time>2020-02-20T14:36:13Z</time>
      </trkpt>
      <trkpt lat="43.357632" lon="0.817618">
        <ele>202.0</ele>
        <time>2020-02-20T14:36:15Z</time>
      </trkpt>
      <trkpt lat="43.357558" lon="0.817713">
        <ele>202.0</ele>
        <time>2020-02-20T14:36:17Z</time>
      </trkpt>
      <trkpt lat="43.357490" lon="0.817819">
        <ele>202.0</ele>
        <time>2020-02-20T14:36:19Z</time>
      </trkpt>
      <trkpt lat="43.357427" lon="0.817927">
        <ele>202.0</ele>
        <time>2020-02-20T14:36:21Z</time>
      </trkpt>
      <trkpt lat="43.357366" lon="0.818038">
        <ele>201.2</ele>
        <time>2020-02-20T14:36:23Z</time>
      </trkpt>
      <trkpt lat="43.357307" lon="0.818150">
        <ele>201.3</ele>
        <time>2020-02-20T14:36:25Z</time>
      </trkpt>
      <trkpt lat="43.357245" lon="0.818264">
        <ele>201.3</ele>
        <time>2020-02-20T14:36:27Z</time>
      </trkpt>
      <trkpt lat="43.357185" lon="0.818385">
        <ele>201.3</ele>
        <time>2020-02-20T14:36:29Z</time>
      </trkpt>
      <trkpt lat="43.357118" lon="0.818509">
        <ele>200.4</ele>
        <time>2020-02-20T14:36:31Z</time>
      </trkpt>
      <trkpt lat="43.357045" lon="0.818629">
        <ele>200.4</ele>
        <time>2020-02-20T14:36:33Z</time>
      </trkpt>
      <trkpt lat="43.356967" lon="0.818742">
        <ele>199.5</ele>
        <time>2020-02-20T14:36:35Z</time>
      </trkpt>
      <trkpt lat="43.356887" lon="0.818832">
        <ele>199.5</ele>
        <time>2020-02-20T14:36:37Z</time>
      </trkpt>
      <trkpt lat="43.356807" lon="0.818918">
        <ele>198.8</ele>
        <time>2020-02-20T14:36:40Z</time>
      </trkpt>
      <trkpt lat="43.356832" lon="0.819041">
        <ele>198.8</ele>
        <time>2020-02-20T14:36:44Z</time>
      </trkpt>
      <trkpt lat="43.356907" lon="0.819146">
        <ele>198.8</ele>
        <time>2020-02-20T14:36:47Z</time>
      </trkpt>
      <trkpt lat="43.357001" lon="0.819275">
        <ele>198.8</ele>
        <time>2020-02-20T14:36:50Z</time>
      </trkpt>
      <trkpt lat="43.357080" lon="0.819358">
        <ele>198.8</ele>
        <time>2020-02-20T14:36:52Z</time>
      </trkpt>
      <trkpt lat="43.357165" lon="0.819428">
        <ele>198.8</ele>
        <time>2020-02-20T14:36:54Z</time>
      </trkpt>
      <trkpt lat="43.357264" lon="0.819496">
        <ele>198.0</ele>
        <time>2020-02-20T14:36:56Z</time>
      </trkpt>
      <trkpt lat="43.357369" lon="0.819558">
        <ele>198.0</ele>
        <time>2020-02-20T14:36:58Z</time>
      </trkpt>
      <trkpt lat="43.357474" lon="0.819615">
        <ele>198.0</ele>
        <time>2020-02-20T14:37:00Z</time>
      </trkpt>
      <trkpt lat="43.357569" lon="0.819667">
        <ele>198.0</ele>
        <time>2020-02-20T14:37:02Z</time>
      </trkpt>
      <trkpt lat="43.357659" lon="0.819716">
        <ele>198.1</ele>
        <time>2020-02-20T14:37:04Z</time>
      </trkpt>
      <trkpt lat="43.357749" lon="0.819765">
        <ele>198.1</ele>
        <time>2020-02-20T14:37:06Z</time>
      </trkpt>
      <trkpt lat="43.357873" lon="0.819827">
        <ele>198.1</ele>
        <time>2020-02-20T14:37:09Z</time>
      </trkpt>
      <trkpt lat="43.357995" lon="0.819890">
        <ele>198.1</ele>
        <time>2020-02-20T14:37:12Z</time>
      </trkpt>
      <trkpt lat="43.358114" lon="0.819939">
        <ele>198.1</ele>
        <time>2020-02-20T14:37:15Z</time>
      </trkpt>
      <trkpt lat="43.358228" lon="0.819990">
        <ele>198.1</ele>
        <time>2020-02-20T14:37:18Z</time>
      </trkpt>
      <trkpt lat="43.358341" lon="0.820045">
        <ele>198.1</ele>
        <time>2020-02-20T14:37:21Z</time>
      </trkpt>
      <trkpt lat="43.358430" lon="0.820101">
        <ele>198.1</ele>
        <time>2020-02-20T14:37:23Z</time>
      </trkpt>
      <trkpt lat="43.358516" lon="0.820177">
        <ele>198.1</ele>
        <time>2020-02-20T14:37:25Z</time>
      </trkpt>
      <trkpt lat="43.358585" lon="0.820272">
        <ele>198.1</ele>
        <time>2020-02-20T14:37:27Z</time>
      </trkpt>
      <trkpt lat="43.358648" lon="0.820385">
        <ele>198.1</ele>
        <time>2020-02-20T14:37:29Z</time>
      </trkpt>
      <trkpt lat="43.358702" lon="0.820498">
        <ele>198.1</ele>
        <time>2020-02-20T14:37:31Z</time>
      </trkpt>
      <trkpt lat="43.358747" lon="0.820608">
        <ele>198.1</ele>
        <time>2020-02-20T14:37:33Z</time>
      </trkpt>
      <trkpt lat="43.358812" lon="0.820757">
        <ele>198.1</ele>
        <time>2020-02-20T14:37:36Z</time>
      </trkpt>
      <trkpt lat="43.358899" lon="0.820890">
        <ele>198.1</ele>
        <time>2020-02-20T14:37:39Z</time>
      </trkpt>
      <trkpt lat="43.358977" lon="0.820979">
        <ele>198.1</ele>
        <time>2020-02-20T14:37:41Z</time>
      </trkpt>
      <trkpt lat="43.359055" lon="0.821058">
        <ele>198.1</ele>
        <time>2020-02-20T14:37:43Z</time>
      </trkpt>
      <trkpt lat="43.359141" lon="0.821149">
        <ele>198.1</ele>
        <time>2020-02-20T14:37:45Z</time>
      </trkpt>
      <trkpt lat="43.359221" lon="0.821252">
        <ele>198.1</ele>
        <time>2020-02-20T14:37:47Z</time>
      </trkpt>
      <trkpt lat="43.359296" lon="0.821355">
        <ele>198.1</ele>
        <time>2020-02-20T14:37:49Z</time>
      </trkpt>
      <trkpt lat="43.359356" lon="0.821467">
        <ele>198.1</ele>
        <time>2020-02-20T14:37:51Z</time>
      </trkpt>
      <trkpt lat="43.359416" lon="0.821575">
        <ele>198.1</ele>
        <time>2020-02-20T14:37:53Z</time>
      </trkpt>
      <trkpt lat="43.359477" lon="0.821682">
        <ele>197.2</ele>
        <time>2020-02-20T14:37:55Z</time>
      </trkpt>
      <trkpt lat="43.359537" lon="0.821786">
        <ele>197.2</ele>
        <time>2020-02-20T14:37:57Z</time>
      </trkpt>
      <trkpt lat="43.359619" lon="0.821943">
        <ele>197.2</ele>
        <time>2020-02-20T14:38:00Z</time>
      </trkpt>
      <trkpt lat="43.359675" lon="0.822049">
        <ele>197.2</ele>
        <time>2020-02-20T14:38:02Z</time>
      </trkpt>
      <trkpt lat="43.359730" lon="0.822154">
        <ele>197.2</ele>
        <time>2020-02-20T14:38:04Z</time>
      </trkpt>
      <trkpt lat="43.359787" lon="0.822264">
        <ele>197.2</ele>
        <time>2020-02-20T14:38:06Z</time>
      </trkpt>
      <trkpt lat="43.359850" lon="0.822381">
        <ele>197.2</ele>
        <time>2020-02-20T14:38:08Z</time>
      </trkpt>
      <trkpt lat="43.359911" lon="0.822495">
        <ele>196.3</ele>
        <time>2020-02-20T14:38:10Z</time>
      </trkpt>
      <trkpt lat="43.359972" lon="0.822610">
        <ele>196.3</ele>
        <time>2020-02-20T14:38:12Z</time>
      </trkpt>
      <trkpt lat="43.360034" lon="0.822724">
        <ele>195.5</ele>
        <time>2020-02-20T14:38:14Z</time>
      </trkpt>
      <trkpt lat="43.360094" lon="0.822850">
        <ele>195.5</ele>
        <time>2020-02-20T14:38:16Z</time>
      </trkpt>
      <trkpt lat="43.360172" lon="0.822973">
        <ele>194.4</ele>
        <time>2020-02-20T14:38:18Z</time>
      </trkpt>
      <trkpt lat="43.360263" lon="0.823072">
        <ele>194.3</ele>
        <time>2020-02-20T14:38:20Z</time>
      </trkpt>
      <trkpt lat="43.360371" lon="0.823138">
        <ele>193.5</ele>
        <time>2020-02-20T14:38:22Z</time>
      </trkpt>
      <trkpt lat="43.360481" lon="0.823192">
        <ele>193.5</ele>
        <time>2020-02-20T14:38:24Z</time>
      </trkpt>
      <trkpt lat="43.360592" lon="0.823235">
        <ele>193.5</ele>
        <time>2020-02-20T14:38:26Z</time>
      </trkpt>
      <trkpt lat="43.360700" lon="0.823279">
        <ele>193.5</ele>
        <time>2020-02-20T14:38:28Z</time>
      </trkpt>
      <trkpt lat="43.360807" lon="0.823327">
        <ele>193.5</ele>
        <time>2020-02-20T14:38:30Z</time>
      </trkpt>
      <trkpt lat="43.360907" lon="0.823372">
        <ele>193.6</ele>
        <time>2020-02-20T14:38:32Z</time>
      </trkpt>
      <trkpt lat="43.361007" lon="0.823440">
        <ele>193.6</ele>
        <time>2020-02-20T14:38:34Z</time>
      </trkpt>
      <trkpt lat="43.361100" lon="0.823522">
        <ele>193.6</ele>
        <time>2020-02-20T14:38:36Z</time>
      </trkpt>
      <trkpt lat="43.361185" lon="0.823613">
        <ele>193.6</ele>
        <time>2020-02-20T14:38:38Z</time>
      </trkpt>
      <trkpt lat="43.361270" lon="0.823707">
        <ele>193.6</ele>
        <time>2020-02-20T14:38:40Z</time>
      </trkpt>
      <trkpt lat="43.361349" lon="0.823801">
        <ele>193.6</ele>
        <time>2020-02-20T14:38:42Z</time>
      </trkpt>
      <trkpt lat="43.361429" lon="0.823895">
        <ele>193.6</ele>
        <time>2020-02-20T14:38:44Z</time>
      </trkpt>
      <trkpt lat="43.361512" lon="0.823984">
        <ele>193.6</ele>
        <time>2020-02-20T14:38:46Z</time>
      </trkpt>
      <trkpt lat="43.361595" lon="0.824067">
        <ele>193.6</ele>
        <time>2020-02-20T14:38:48Z</time>
      </trkpt>
      <trkpt lat="43.361684" lon="0.824137">
        <ele>193.6</ele>
        <time>2020-02-20T14:38:50Z</time>
      </trkpt>
      <trkpt lat="43.361778" lon="0.824198">
        <ele>193.6</ele>
        <time>2020-02-20T14:38:52Z</time>
      </trkpt>
      <trkpt lat="43.361876" lon="0.824249">
        <ele>193.6</ele>
        <time>2020-02-20T14:38:54Z</time>
      </trkpt>
      <trkpt lat="43.361973" lon="0.824294">
        <ele>193.6</ele>
        <time>2020-02-20T14:38:56Z</time>
      </trkpt>
      <trkpt lat="43.362072" lon="0.824340">
        <ele>193.6</ele>
        <time>2020-02-20T14:38:58Z</time>
      </trkpt>
      <trkpt lat="43.362175" lon="0.824393">
        <ele>193.6</ele>
        <time>2020-02-20T14:39:00Z</time>
      </trkpt>
      <trkpt lat="43.362276" lon="0.824451">
        <ele>193.6</ele>
        <time>2020-02-20T14:39:02Z</time>
      </trkpt>
      <trkpt lat="43.362380" lon="0.824517">
        <ele>193.6</ele>
        <time>2020-02-20T14:39:04Z</time>
      </trkpt>
      <trkpt lat="43.362479" lon="0.824587">
        <ele>192.8</ele>
        <time>2020-02-20T14:39:06Z</time>
      </trkpt>
      <trkpt lat="43.362577" lon="0.824657">
        <ele>192.8</ele>
        <time>2020-02-20T14:39:08Z</time>
      </trkpt>
      <trkpt lat="43.362670" lon="0.824731">
        <ele>192.8</ele>
        <time>2020-02-20T14:39:10Z</time>
      </trkpt>
      <trkpt lat="43.362759" lon="0.824800">
        <ele>192.8</ele>
        <time>2020-02-20T14:39:12Z</time>
      </trkpt>
      <trkpt lat="43.362847" lon="0.824869">
        <ele>192.8</ele>
        <time>2020-02-20T14:39:14Z</time>
      </trkpt>
      <trkpt lat="43.362935" lon="0.824944">
        <ele>191.8</ele>
        <time>2020-02-20T14:39:16Z</time>
      </trkpt>
      <trkpt lat="43.363026" lon="0.825020">
        <ele>191.8</ele>
        <time>2020-02-20T14:39:18Z</time>
      </trkpt>
      <trkpt lat="43.363121" lon="0.825100">
        <ele>190.9</ele>
        <time>2020-02-20T14:39:20Z</time>
      </trkpt>
      <trkpt lat="43.363214" lon="0.825179">
        <ele>190.9</ele>
        <time>2020-02-20T14:39:22Z</time>
      </trkpt>
      <trkpt lat="43.363305" lon="0.825245">
        <ele>190.9</ele>
        <time>2020-02-20T14:39:24Z</time>
      </trkpt>
      <trkpt lat="43.363395" lon="0.825311">
        <ele>190.9</ele>
        <time>2020-02-20T14:39:26Z</time>
      </trkpt>
      <trkpt lat="43.363483" lon="0.825374">
        <ele>190.9</ele>
        <time>2020-02-20T14:39:28Z</time>
      </trkpt>
      <trkpt lat="43.363598" lon="0.825457">
        <ele>190.9</ele>
        <time>2020-02-20T14:39:31Z</time>
      </trkpt>
      <trkpt lat="43.363702" lon="0.825535">
        <ele>190.9</ele>
        <time>2020-02-20T14:39:34Z</time>
      </trkpt>
      <trkpt lat="43.363804" lon="0.825618">
        <ele>190.9</ele>
        <time>2020-02-20T14:39:37Z</time>
      </trkpt>
      <trkpt lat="43.363908" lon="0.825690">
        <ele>193.3</ele>
        <time>2020-02-20T14:39:40Z</time>
      </trkpt>
      <trkpt lat="43.364011" lon="0.825764">
        <ele>193.3</ele>
        <time>2020-02-20T14:39:43Z</time>
      </trkpt>
      <trkpt lat="43.364115" lon="0.825836">
        <ele>193.3</ele>
        <time>2020-02-20T14:39:46Z</time>
      </trkpt>
      <trkpt lat="43.364219" lon="0.825908">
        <ele>193.3</ele>
        <time>2020-02-20T14:39:49Z</time>
      </trkpt>
      <trkpt lat="43.364326" lon="0.825988">
        <ele>193.3</ele>
        <time>2020-02-20T14:39:52Z</time>
      </trkpt>
      <trkpt lat="43.364436" lon="0.826079">
        <ele>193.3</ele>
        <time>2020-02-20T14:39:55Z</time>
      </trkpt>
      <trkpt lat="43.364544" lon="0.826186">
        <ele>193.3</ele>
        <time>2020-02-20T14:39:58Z</time>
      </trkpt>
      <trkpt lat="43.364621" lon="0.826264">
        <ele>193.3</ele>
        <time>2020-02-20T14:40:00Z</time>
      </trkpt>
      <trkpt lat="43.364701" lon="0.826345">
        <ele>193.4</ele>
        <time>2020-02-20T14:40:02Z</time>
      </trkpt>
      <trkpt lat="43.364789" lon="0.826425">
        <ele>193.3</ele>
        <time>2020-02-20T14:40:04Z</time>
      </trkpt>
      <trkpt lat="43.364878" lon="0.826511">
        <ele>193.3</ele>
        <time>2020-02-20T14:40:06Z</time>
      </trkpt>
      <trkpt lat="43.364966" lon="0.826598">
        <ele>193.3</ele>
        <time>2020-02-20T14:40:08Z</time>
      </trkpt>
      <trkpt lat="43.365049" lon="0.826682">
        <ele>191.0</ele>
        <time>2020-02-20T14:40:10Z</time>
      </trkpt>
      <trkpt lat="43.365133" lon="0.826765">
        <ele>191.0</ele>
        <time>2020-02-20T14:40:12Z</time>
      </trkpt>
      <trkpt lat="43.365217" lon="0.826846">
        <ele>191.0</ele>
        <time>2020-02-20T14:40:14Z</time>
      </trkpt>
      <trkpt lat="43.365305" lon="0.826930">
        <ele>191.0</ele>
        <time>2020-02-20T14:40:16Z</time>
      </trkpt>
      <trkpt lat="43.365389" lon="0.827014">
        <ele>191.0</ele>
        <time>2020-02-20T14:40:18Z</time>
      </trkpt>
      <trkpt lat="43.365473" lon="0.827100">
        <ele>191.0</ele>
        <time>2020-02-20T14:40:20Z</time>
      </trkpt>
      <trkpt lat="43.365561" lon="0.827188">
        <ele>191.0</ele>
        <time>2020-02-20T14:40:22Z</time>
      </trkpt>
      <trkpt lat="43.365646" lon="0.827275">
        <ele>191.0</ele>
        <time>2020-02-20T14:40:24Z</time>
      </trkpt>
      <trkpt lat="43.365727" lon="0.827364">
        <ele>190.2</ele>
        <time>2020-02-20T14:40:26Z</time>
      </trkpt>
      <trkpt lat="43.365807" lon="0.827449">
        <ele>190.2</ele>
        <time>2020-02-20T14:40:28Z</time>
      </trkpt>
      <trkpt lat="43.365887" lon="0.827527">
        <ele>190.2</ele>
        <time>2020-02-20T14:40:30Z</time>
      </trkpt>
      <trkpt lat="43.365965" lon="0.827606">
        <ele>190.2</ele>
        <time>2020-02-20T14:40:32Z</time>
      </trkpt>
      <trkpt lat="43.366046" lon="0.827691">
        <ele>190.2</ele>
        <time>2020-02-20T14:40:34Z</time>
      </trkpt>
      <trkpt lat="43.366126" lon="0.827780">
        <ele>190.2</ele>
        <time>2020-02-20T14:40:36Z</time>
      </trkpt>
      <trkpt lat="43.366209" lon="0.827869">
        <ele>190.2</ele>
        <time>2020-02-20T14:40:38Z</time>
      </trkpt>
      <trkpt lat="43.366292" lon="0.827956">
        <ele>190.2</ele>
        <time>2020-02-20T14:40:40Z</time>
      </trkpt>
      <trkpt lat="43.366377" lon="0.828053">
        <ele>189.2</ele>
        <time>2020-02-20T14:40:42Z</time>
      </trkpt>
      <trkpt lat="43.366448" lon="0.828146">
        <ele>189.2</ele>
        <time>2020-02-20T14:40:44Z</time>
      </trkpt>
      <trkpt lat="43.366520" lon="0.828240">
        <ele>189.2</ele>
        <time>2020-02-20T14:40:46Z</time>
      </trkpt>
      <trkpt lat="43.366588" lon="0.828331">
        <ele>189.2</ele>
        <time>2020-02-20T14:40:48Z</time>
      </trkpt>
      <trkpt lat="43.366657" lon="0.828415">
        <ele>189.2</ele>
        <time>2020-02-20T14:40:50Z</time>
      </trkpt>
      <trkpt lat="43.366754" lon="0.828550">
        <ele>189.2</ele>
        <time>2020-02-20T14:40:53Z</time>
      </trkpt>
      <trkpt lat="43.366826" lon="0.828638">
        <ele>189.2</ele>
        <time>2020-02-20T14:40:55Z</time>
      </trkpt>
      <trkpt lat="43.366905" lon="0.828717">
        <ele>189.2</ele>
        <time>2020-02-20T14:40:57Z</time>
      </trkpt>
      <trkpt lat="43.366990" lon="0.828790">
        <ele>188.2</ele>
        <time>2020-02-20T14:40:59Z</time>
      </trkpt>
      <trkpt lat="43.367071" lon="0.828865">
        <ele>188.2</ele>
        <time>2020-02-20T14:41:01Z</time>
      </trkpt>
      <trkpt lat="43.367146" lon="0.828947">
        <ele>188.2</ele>
        <time>2020-02-20T14:41:03Z</time>
      </trkpt>
      <trkpt lat="43.367222" lon="0.829028">
        <ele>188.2</ele>
        <time>2020-02-20T14:41:05Z</time>
      </trkpt>
      <trkpt lat="43.367299" lon="0.829114">
        <ele>188.2</ele>
        <time>2020-02-20T14:41:07Z</time>
      </trkpt>
      <trkpt lat="43.367386" lon="0.829245">
        <ele>188.2</ele>
        <time>2020-02-20T14:41:10Z</time>
      </trkpt>
      <trkpt lat="43.367462" lon="0.829377">
        <ele>188.2</ele>
        <time>2020-02-20T14:41:13Z</time>
      </trkpt>
      <trkpt lat="43.367549" lon="0.829506">
        <ele>188.3</ele>
        <time>2020-02-20T14:41:16Z</time>
      </trkpt>
      <trkpt lat="43.367643" lon="0.829634">
        <ele>188.3</ele>
        <time>2020-02-20T14:41:19Z</time>
      </trkpt>
      <trkpt lat="43.367708" lon="0.829722">
        <ele>188.3</ele>
        <time>2020-02-20T14:41:21Z</time>
      </trkpt>
      <trkpt lat="43.367775" lon="0.829816">
        <ele>188.3</ele>
        <time>2020-02-20T14:41:23Z</time>
      </trkpt>
      <trkpt lat="43.367837" lon="0.829919">
        <ele>188.3</ele>
        <time>2020-02-20T14:41:25Z</time>
      </trkpt>
      <trkpt lat="43.367901" lon="0.830016">
        <ele>188.3</ele>
        <time>2020-02-20T14:41:27Z</time>
      </trkpt>
      <trkpt lat="43.367965" lon="0.830113">
        <ele>188.3</ele>
        <time>2020-02-20T14:41:29Z</time>
      </trkpt>
      <trkpt lat="43.368033" lon="0.830206">
        <ele>188.3</ele>
        <time>2020-02-20T14:41:31Z</time>
      </trkpt>
      <trkpt lat="43.368100" lon="0.830289">
        <ele>188.3</ele>
        <time>2020-02-20T14:41:33Z</time>
      </trkpt>
      <trkpt lat="43.368198" lon="0.830407">
        <ele>188.3</ele>
        <time>2020-02-20T14:41:36Z</time>
      </trkpt>
      <trkpt lat="43.368271" lon="0.830486">
        <ele>188.3</ele>
        <time>2020-02-20T14:41:38Z</time>
      </trkpt>
      <trkpt lat="43.368345" lon="0.830573">
        <ele>188.3</ele>
        <time>2020-02-20T14:41:40Z</time>
      </trkpt>
      <trkpt lat="43.368431" lon="0.830661">
        <ele>188.4</ele>
        <time>2020-02-20T14:41:42Z</time>
      </trkpt>
      <trkpt lat="43.368519" lon="0.830750">
        <ele>188.4</ele>
        <time>2020-02-20T14:41:44Z</time>
      </trkpt>
      <trkpt lat="43.368605" lon="0.830841">
        <ele>188.4</ele>
        <time>2020-02-20T14:41:46Z</time>
      </trkpt>
      <trkpt lat="43.368692" lon="0.830927">
        <ele>188.4</ele>
        <time>2020-02-20T14:41:48Z</time>
      </trkpt>
      <trkpt lat="43.368775" lon="0.831014">
        <ele>188.4</ele>
        <time>2020-02-20T14:41:50Z</time>
      </trkpt>
      <trkpt lat="43.368854" lon="0.831103">
        <ele>188.4</ele>
        <time>2020-02-20T14:41:52Z</time>
      </trkpt>
      <trkpt lat="43.368933" lon="0.831191">
        <ele>188.4</ele>
        <time>2020-02-20T14:41:54Z</time>
      </trkpt>
      <trkpt lat="43.369015" lon="0.831278">
        <ele>188.4</ele>
        <time>2020-02-20T14:41:56Z</time>
      </trkpt>
      <trkpt lat="43.369100" lon="0.831365">
        <ele>188.4</ele>
        <time>2020-02-20T14:41:58Z</time>
      </trkpt>
      <trkpt lat="43.369177" lon="0.831457">
        <ele>188.4</ele>
        <time>2020-02-20T14:42:00Z</time>
      </trkpt>
      <trkpt lat="43.369256" lon="0.831551">
        <ele>188.4</ele>
        <time>2020-02-20T14:42:02Z</time>
      </trkpt>
      <trkpt lat="43.369330" lon="0.831642">
        <ele>188.4</ele>
        <time>2020-02-20T14:42:04Z</time>
      </trkpt>
      <trkpt lat="43.369402" lon="0.831727">
        <ele>188.4</ele>
        <time>2020-02-20T14:42:06Z</time>
      </trkpt>
      <trkpt lat="43.369482" lon="0.831809">
        <ele>188.4</ele>
        <time>2020-02-20T14:42:08Z</time>
      </trkpt>
      <trkpt lat="43.369566" lon="0.831892">
        <ele>188.4</ele>
        <time>2020-02-20T14:42:10Z</time>
      </trkpt>
      <trkpt lat="43.369652" lon="0.831971">
        <ele>188.4</ele>
        <time>2020-02-20T14:42:12Z</time>
      </trkpt>
      <trkpt lat="43.369743" lon="0.832053">
        <ele>188.5</ele>
        <time>2020-02-20T14:42:14Z</time>
      </trkpt>
      <trkpt lat="43.369829" lon="0.832138">
        <ele>188.5</ele>
        <time>2020-02-20T14:42:16Z</time>
      </trkpt>
      <trkpt lat="43.369915" lon="0.832215">
        <ele>188.5</ele>
        <time>2020-02-20T14:42:18Z</time>
      </trkpt>
      <trkpt lat="43.369997" lon="0.832287">
        <ele>188.5</ele>
        <time>2020-02-20T14:42:20Z</time>
      </trkpt>
      <trkpt lat="43.370114" lon="0.832372">
        <ele>188.5</ele>
        <time>2020-02-20T14:42:23Z</time>
      </trkpt>
      <trkpt lat="43.370200" lon="0.832430">
        <ele>188.5</ele>
        <time>2020-02-20T14:42:25Z</time>
      </trkpt>
      <trkpt lat="43.370282" lon="0.832484">
        <ele>188.5</ele>
        <time>2020-02-20T14:42:27Z</time>
      </trkpt>
      <trkpt lat="43.370369" lon="0.832534">
        <ele>188.5</ele>
        <time>2020-02-20T14:42:29Z</time>
      </trkpt>
      <trkpt lat="43.370458" lon="0.832585">
        <ele>188.5</ele>
        <time>2020-02-20T14:42:31Z</time>
      </trkpt>
      <trkpt lat="43.370548" lon="0.832636">
        <ele>188.5</ele>
        <time>2020-02-20T14:42:33Z</time>
      </trkpt>
      <trkpt lat="43.370636" lon="0.832685">
        <ele>188.5</ele>
        <time>2020-02-20T14:42:35Z</time>
      </trkpt>
      <trkpt lat="43.370766" lon="0.832768">
        <ele>188.5</ele>
        <time>2020-02-20T14:42:38Z</time>
      </trkpt>
      <trkpt lat="43.370850" lon="0.832832">
        <ele>188.5</ele>
        <time>2020-02-20T14:42:40Z</time>
      </trkpt>
      <trkpt lat="43.370928" lon="0.832908">
        <ele>188.5</ele>
        <time>2020-02-20T14:42:42Z</time>
      </trkpt>
      <trkpt lat="43.371013" lon="0.832977">
        <ele>187.7</ele>
        <time>2020-02-20T14:42:44Z</time>
      </trkpt>
      <trkpt lat="43.371133" lon="0.833053">
        <ele>187.7</ele>
        <time>2020-02-20T14:42:47Z</time>
      </trkpt>
      <trkpt lat="43.371265" lon="0.833072">
        <ele>187.7</ele>
        <time>2020-02-20T14:42:50Z</time>
      </trkpt>
      <trkpt lat="43.371395" lon="0.833020">
        <ele>187.7</ele>
        <time>2020-02-20T14:42:53Z</time>
      </trkpt>
      <trkpt lat="43.371518" lon="0.832946">
        <ele>187.7</ele>
        <time>2020-02-20T14:42:56Z</time>
      </trkpt>
      <trkpt lat="43.371653" lon="0.832917">
        <ele>187.7</ele>
        <time>2020-02-20T14:42:59Z</time>
      </trkpt>
      <trkpt lat="43.371779" lon="0.832962">
        <ele>187.7</ele>
        <time>2020-02-20T14:43:02Z</time>
      </trkpt>
      <trkpt lat="43.371910" lon="0.833034">
        <ele>187.7</ele>
        <time>2020-02-20T14:43:05Z</time>
      </trkpt>
      <trkpt lat="43.372023" lon="0.833124">
        <ele>187.7</ele>
        <time>2020-02-20T14:43:08Z</time>
      </trkpt>
      <trkpt lat="43.372112" lon="0.833186">
        <ele>187.7</ele>
        <time>2020-02-20T14:43:10Z</time>
      </trkpt>
      <trkpt lat="43.372209" lon="0.833251">
        <ele>187.7</ele>
        <time>2020-02-20T14:43:12Z</time>
      </trkpt>
      <trkpt lat="43.372297" lon="0.833323">
        <ele>187.8</ele>
        <time>2020-02-20T14:43:14Z</time>
      </trkpt>
      <trkpt lat="43.372391" lon="0.833389">
        <ele>187.8</ele>
        <time>2020-02-20T14:43:16Z</time>
      </trkpt>
      <trkpt lat="43.372486" lon="0.833449">
        <ele>187.8</ele>
        <time>2020-02-20T14:43:18Z</time>
      </trkpt>
      <trkpt lat="43.372579" lon="0.833507">
        <ele>187.8</ele>
        <time>2020-02-20T14:43:20Z</time>
      </trkpt>
      <trkpt lat="43.372673" lon="0.833565">
        <ele>187.8</ele>
        <time>2020-02-20T14:43:22Z</time>
      </trkpt>
      <trkpt lat="43.372764" lon="0.833619">
        <ele>187.8</ele>
        <time>2020-02-20T14:43:24Z</time>
      </trkpt>
      <trkpt lat="43.372888" lon="0.833691">
        <ele>187.8</ele>
        <time>2020-02-20T14:43:27Z</time>
      </trkpt>
      <trkpt lat="43.372975" lon="0.833697">
        <ele>186.8</ele>
        <time>2020-02-20T14:43:59Z</time>
      </trkpt>
      <trkpt lat="43.372942" lon="0.833858">
        <ele>186.8</ele>
        <time>2020-02-20T14:44:03Z</time>
      </trkpt>
      <trkpt lat="43.372927" lon="0.834009">
        <ele>186.8</ele>
        <time>2020-02-20T14:44:06Z</time>
      </trkpt>
      <trkpt lat="43.372930" lon="0.834175">
        <ele>186.8</ele>
        <time>2020-02-20T14:44:09Z</time>
      </trkpt>
      <trkpt lat="43.372949" lon="0.834339">
        <ele>186.8</ele>
        <time>2020-02-20T14:44:12Z</time>
      </trkpt>
      <trkpt lat="43.372986" lon="0.834506">
        <ele>186.8</ele>
        <time>2020-02-20T14:44:15Z</time>
      </trkpt>
      <trkpt lat="43.373046" lon="0.834672">
        <ele>186.8</ele>
        <time>2020-02-20T14:44:18Z</time>
      </trkpt>
      <trkpt lat="43.373135" lon="0.834817">
        <ele>186.9</ele>
        <time>2020-02-20T14:44:21Z</time>
      </trkpt>
      <trkpt lat="43.373207" lon="0.834906">
        <ele>186.9</ele>
        <time>2020-02-20T14:44:23Z</time>
      </trkpt>
      <trkpt lat="43.373286" lon="0.834987">
        <ele>186.9</ele>
        <time>2020-02-20T14:44:25Z</time>
      </trkpt>
      <trkpt lat="43.373365" lon="0.835068">
        <ele>186.9</ele>
        <time>2020-02-20T14:44:27Z</time>
      </trkpt>
      <trkpt lat="43.373445" lon="0.835144">
        <ele>186.9</ele>
        <time>2020-02-20T14:44:29Z</time>
      </trkpt>
      <trkpt lat="43.373529" lon="0.835214">
        <ele>186.9</ele>
        <time>2020-02-20T14:44:31Z</time>
      </trkpt>
      <trkpt lat="43.373612" lon="0.835275">
        <ele>186.9</ele>
        <time>2020-02-20T14:44:33Z</time>
      </trkpt>
      <trkpt lat="43.373697" lon="0.835327">
        <ele>186.9</ele>
        <time>2020-02-20T14:44:35Z</time>
      </trkpt>
      <trkpt lat="43.373786" lon="0.835377">
        <ele>186.9</ele>
        <time>2020-02-20T14:44:37Z</time>
      </trkpt>
      <trkpt lat="43.373874" lon="0.835422">
        <ele>186.9</ele>
        <time>2020-02-20T14:44:39Z</time>
      </trkpt>
      <trkpt lat="43.373964" lon="0.835465">
        <ele>186.9</ele>
        <time>2020-02-20T14:44:41Z</time>
      </trkpt>
      <trkpt lat="43.374052" lon="0.835513">
        <ele>186.9</ele>
        <time>2020-02-20T14:44:43Z</time>
      </trkpt>
      <trkpt lat="43.374143" lon="0.835561">
        <ele>186.9</ele>
        <time>2020-02-20T14:44:45Z</time>
      </trkpt>
      <trkpt lat="43.374233" lon="0.835613">
        <ele>186.8</ele>
        <time>2020-02-20T14:44:47Z</time>
      </trkpt>
      <trkpt lat="43.374353" lon="0.835679">
        <ele>186.9</ele>
        <time>2020-02-20T14:44:50Z</time>
      </trkpt>
      <trkpt lat="43.374436" lon="0.835737">
        <ele>186.9</ele>
        <time>2020-02-20T14:44:52Z</time>
      </trkpt>
      <trkpt lat="43.374520" lon="0.835805">
        <ele>186.8</ele>
        <time>2020-02-20T14:44:54Z</time>
      </trkpt>
      <trkpt lat="43.374610" lon="0.835874">
        <ele>186.8</ele>
        <time>2020-02-20T14:44:56Z</time>
      </trkpt>
      <trkpt lat="43.374696" lon="0.835946">
        <ele>186.9</ele>
        <time>2020-02-20T14:44:58Z</time>
      </trkpt>
      <trkpt lat="43.374774" lon="0.836019">
        <ele>186.0</ele>
        <time>2020-02-20T14:45:00Z</time>
      </trkpt>
      <trkpt lat="43.374849" lon="0.836096">
        <ele>186.0</ele>
        <time>2020-02-20T14:45:02Z</time>
      </trkpt>
      <trkpt lat="43.374925" lon="0.836175">
        <ele>186.0</ele>
        <time>2020-02-20T14:45:04Z</time>
      </trkpt>
      <trkpt lat="43.375001" lon="0.836257">
        <ele>186.0</ele>
        <time>2020-02-20T14:45:06Z</time>
      </trkpt>
      <trkpt lat="43.375086" lon="0.836331">
        <ele>186.0</ele>
        <time>2020-02-20T14:45:08Z</time>
      </trkpt>
      <trkpt lat="43.375166" lon="0.836400">
        <ele>186.1</ele>
        <time>2020-02-20T14:45:10Z</time>
      </trkpt>
      <trkpt lat="43.375250" lon="0.836470">
        <ele>186.1</ele>
        <time>2020-02-20T14:45:12Z</time>
      </trkpt>
      <trkpt lat="43.375333" lon="0.836534">
        <ele>186.1</ele>
        <time>2020-02-20T14:45:14Z</time>
      </trkpt>
      <trkpt lat="43.375419" lon="0.836598">
        <ele>186.1</ele>
        <time>2020-02-20T14:45:16Z</time>
      </trkpt>
      <trkpt lat="43.375504" lon="0.836659">
        <ele>186.1</ele>
        <time>2020-02-20T14:45:18Z</time>
      </trkpt>
      <trkpt lat="43.375591" lon="0.836718">
        <ele>186.1</ele>
        <time>2020-02-20T14:45:20Z</time>
      </trkpt>
      <trkpt lat="43.375677" lon="0.836776">
        <ele>186.1</ele>
        <time>2020-02-20T14:45:22Z</time>
      </trkpt>
      <trkpt lat="43.375760" lon="0.836837">
        <ele>186.1</ele>
        <time>2020-02-20T14:45:24Z</time>
      </trkpt>
      <trkpt lat="43.375874" lon="0.836923">
        <ele>186.1</ele>
        <time>2020-02-20T14:45:27Z</time>
      </trkpt>
      <trkpt lat="43.375987" lon="0.837000">
        <ele>186.1</ele>
        <time>2020-02-20T14:45:30Z</time>
      </trkpt>
      <trkpt lat="43.376105" lon="0.837070">
        <ele>186.1</ele>
        <time>2020-02-20T14:45:33Z</time>
      </trkpt>
      <trkpt lat="43.376225" lon="0.837119">
        <ele>186.1</ele>
        <time>2020-02-20T14:45:36Z</time>
      </trkpt>
      <trkpt lat="43.376357" lon="0.837174">
        <ele>186.1</ele>
        <time>2020-02-20T14:45:39Z</time>
      </trkpt>
      <trkpt lat="43.376487" lon="0.837217">
        <ele>186.1</ele>
        <time>2020-02-20T14:45:42Z</time>
      </trkpt>
      <trkpt lat="43.376607" lon="0.837256">
        <ele>186.1</ele>
        <time>2020-02-20T14:45:45Z</time>
      </trkpt>
      <trkpt lat="43.376727" lon="0.837287">
        <ele>186.1</ele>
        <time>2020-02-20T14:45:48Z</time>
      </trkpt>
      <trkpt lat="43.376850" lon="0.837327">
        <ele>185.4</ele>
        <time>2020-02-20T14:45:51Z</time>
      </trkpt>
      <trkpt lat="43.376978" lon="0.837359">
        <ele>185.4</ele>
        <time>2020-02-20T14:45:54Z</time>
      </trkpt>
      <trkpt lat="43.377074" lon="0.837380">
        <ele>185.4</ele>
        <time>2020-02-20T14:45:56Z</time>
      </trkpt>
      <trkpt lat="43.377205" lon="0.837416">
        <ele>185.4</ele>
        <time>2020-02-20T14:45:59Z</time>
      </trkpt>
      <trkpt lat="43.377329" lon="0.837450">
        <ele>185.4</ele>
        <time>2020-02-20T14:46:02Z</time>
      </trkpt>
      <trkpt lat="43.377466" lon="0.837477">
        <ele>185.4</ele>
        <time>2020-02-20T14:46:05Z</time>
      </trkpt>
      <trkpt lat="43.377609" lon="0.837508">
        <ele>185.4</ele>
        <time>2020-02-20T14:46:08Z</time>
      </trkpt>
      <trkpt lat="43.377742" lon="0.837533">
        <ele>185.4</ele>
        <time>2020-02-20T14:46:11Z</time>
      </trkpt>
      <trkpt lat="43.377867" lon="0.837551">
        <ele>185.5</ele>
        <time>2020-02-20T14:46:14Z</time>
      </trkpt>
      <trkpt lat="43.377973" lon="0.837552">
        <ele>185.5</ele>
        <time>2020-02-20T14:46:17Z</time>
      </trkpt>
      <trkpt lat="43.378091" lon="0.837540">
        <ele>185.5</ele>
        <time>2020-02-20T14:46:20Z</time>
      </trkpt>
      <trkpt lat="43.378202" lon="0.837530">
        <ele>185.5</ele>
        <time>2020-02-20T14:46:23Z</time>
      </trkpt>
      <trkpt lat="43.378325" lon="0.837521">
        <ele>185.5</ele>
        <time>2020-02-20T14:46:26Z</time>
      </trkpt>
      <trkpt lat="43.378450" lon="0.837511">
        <ele>185.5</ele>
        <time>2020-02-20T14:46:29Z</time>
      </trkpt>
      <trkpt lat="43.378571" lon="0.837499">
        <ele>185.5</ele>
        <time>2020-02-20T14:46:32Z</time>
      </trkpt>
      <trkpt lat="43.378700" lon="0.837491">
        <ele>185.5</ele>
        <time>2020-02-20T14:46:35Z</time>
      </trkpt>
      <trkpt lat="43.378822" lon="0.837488">
        <ele>185.5</ele>
        <time>2020-02-20T14:46:38Z</time>
      </trkpt>
      <trkpt lat="43.378943" lon="0.837487">
        <ele>185.5</ele>
        <time>2020-02-20T14:46:41Z</time>
      </trkpt>
      <trkpt lat="43.379062" lon="0.837470">
        <ele>185.5</ele>
        <time>2020-02-20T14:46:44Z</time>
      </trkpt>
      <trkpt lat="43.379179" lon="0.837402">
        <ele>185.6</ele>
        <time>2020-02-20T14:46:47Z</time>
      </trkpt>
      <trkpt lat="43.379286" lon="0.837314">
        <ele>185.6</ele>
        <time>2020-02-20T14:46:50Z</time>
      </trkpt>
      <trkpt lat="43.379390" lon="0.837205">
        <ele>185.6</ele>
        <time>2020-02-20T14:46:53Z</time>
      </trkpt>
      <trkpt lat="43.379484" lon="0.837094">
        <ele>185.6</ele>
        <time>2020-02-20T14:46:56Z</time>
      </trkpt>
      <trkpt lat="43.379575" lon="0.836996">
        <ele>185.6</ele>
        <time>2020-02-20T14:46:59Z</time>
      </trkpt>
      <trkpt lat="43.379670" lon="0.836932">
        <ele>185.6</ele>
        <time>2020-02-20T14:47:02Z</time>
      </trkpt>
      <trkpt lat="43.379779" lon="0.836899">
        <ele>185.6</ele>
        <time>2020-02-20T14:47:05Z</time>
      </trkpt>
      <trkpt lat="43.379877" lon="0.836874">
        <ele>185.6</ele>
        <time>2020-02-20T14:47:08Z</time>
      </trkpt>
      <trkpt lat="43.379987" lon="0.836871">
        <ele>185.7</ele>
        <time>2020-02-20T14:47:11Z</time>
      </trkpt>
      <trkpt lat="43.380094" lon="0.836883">
        <ele>185.7</ele>
        <time>2020-02-20T14:47:14Z</time>
      </trkpt>
      <trkpt lat="43.380210" lon="0.836893">
        <ele>185.7</ele>
        <time>2020-02-20T14:47:18Z</time>
      </trkpt>
      <trkpt lat="43.380318" lon="0.836949">
        <ele>185.7</ele>
        <time>2020-02-20T14:47:25Z</time>
      </trkpt>
      <trkpt lat="43.380416" lon="0.837061">
        <ele>185.7</ele>
        <time>2020-02-20T14:47:30Z</time>
      </trkpt>
      <trkpt lat="43.380533" lon="0.837059">
        <ele>185.7</ele>
        <time>2020-02-20T14:47:35Z</time>
      </trkpt>
      <trkpt lat="43.380636" lon="0.837088">
        <ele>185.7</ele>
        <time>2020-02-20T14:47:39Z</time>
      </trkpt>
      <trkpt lat="43.380739" lon="0.837116">
        <ele>185.8</ele>
        <time>2020-02-20T14:47:43Z</time>
      </trkpt>
      <trkpt lat="43.380856" lon="0.837158">
        <ele>185.8</ele>
        <time>2020-02-20T14:47:47Z</time>
      </trkpt>
      <trkpt lat="43.380998" lon="0.837203">
        <ele>185.8</ele>
        <time>2020-02-20T14:47:51Z</time>
      </trkpt>
    </trkseg>
  </trk>
</gpx>

